<?xml version="1.0" encoding="UTF-8"?>
<gpx xmlns="http://www.topografix.com/GPX/1/1" version="1.1" xmlns:xsi="http://www.w3.org/2001/XMLSchema-instance" xsi:schemaLocation="http://www.topografix.com/GPX/1/1 http://www.topografix.com/GPX/1/1/gpx.xsd" creator="MotionXGPSFull 24.4 Build 5112 R64">
<trk>
<name><![CDATA[Tiger Head Hike]]></name>
<desc><![CDATA[Jun 15, 2019 11:05 am]]></desc>
<trkseg>
<trkpt lat="22.2960839" lon="114.0167561">
<ele>10.183</ele>
<time>2019-06-15T03:06:00.336Z</time>
</trkpt>
<trkpt lat="22.2960839" lon="114.0167561">
<ele>10.180</ele>
<time>2019-06-15T03:06:00.436Z</time>
</trkpt>
<trkpt lat="22.2961575" lon="114.0166394">
<ele>10.147</ele>
<time>2019-06-15T03:06:06.504Z</time>
</trkpt>
<trkpt lat="22.2961696" lon="114.0166165">
<ele>9.901</ele>
<time>2019-06-15T03:06:07.412Z</time>
</trkpt>
<trkpt lat="22.2961604" lon="114.0165130">
<ele>9.384</ele>
<time>2019-06-15T03:06:11.000Z</time>
</trkpt>
<trkpt lat="22.2961604" lon="114.0165130">
<ele>8.982</ele>
<time>2019-06-15T03:06:17.999Z</time>
</trkpt>
<trkpt lat="22.2961604" lon="114.0165130">
<ele>8.989</ele>
<time>2019-06-15T03:06:20.890Z</time>
</trkpt>
<trkpt lat="22.2959916" lon="114.0164972">
<ele>9.196</ele>
<time>2019-06-15T03:06:38.064Z</time>
</trkpt>
<trkpt lat="22.2958963" lon="114.0164904">
<ele>9.709</ele>
<time>2019-06-15T03:06:44.325Z</time>
</trkpt>
<trkpt lat="22.2957939" lon="114.0164880">
<ele>10.704</ele>
<time>2019-06-15T03:06:50.866Z</time>
</trkpt>
<trkpt lat="22.2957035" lon="114.0164838">
<ele>11.665</ele>
<time>2019-06-15T03:06:56.720Z</time>
</trkpt>
<trkpt lat="22.2956109" lon="114.0164812">
<ele>12.087</ele>
<time>2019-06-15T03:07:03.162Z</time>
</trkpt>
<trkpt lat="22.2955126" lon="114.0164326">
<ele>12.098</ele>
<time>2019-06-15T03:07:11.697Z</time>
</trkpt>
<trkpt lat="22.2954374" lon="114.0163739">
<ele>11.903</ele>
<time>2019-06-15T03:07:19.999Z</time>
</trkpt>
<trkpt lat="22.2954374" lon="114.0163739">
<ele>11.632</ele>
<time>2019-06-15T03:07:20.999Z</time>
</trkpt>
<trkpt lat="22.2954374" lon="114.0163739">
<ele>11.452</ele>
<time>2019-06-15T03:07:23.112Z</time>
</trkpt>
<trkpt lat="22.2952409" lon="114.0163377">
<ele>11.493</ele>
<time>2019-06-15T03:07:47.184Z</time>
</trkpt>
<trkpt lat="22.2951910" lon="114.0162519">
<ele>12.339</ele>
<time>2019-06-15T03:07:54.657Z</time>
</trkpt>
<trkpt lat="22.2951164" lon="114.0161832">
<ele>14.297</ele>
<time>2019-06-15T03:08:02.447Z</time>
</trkpt>
<trkpt lat="22.2950272" lon="114.0161595">
<ele>16.403</ele>
<time>2019-06-15T03:08:08.622Z</time>
</trkpt>
<trkpt lat="22.2949289" lon="114.0161621">
<ele>17.649</ele>
<time>2019-06-15T03:08:15.002Z</time>
</trkpt>
<trkpt lat="22.2948290" lon="114.0161694">
<ele>17.996</ele>
<time>2019-06-15T03:08:21.561Z</time>
</trkpt>
<trkpt lat="22.2947284" lon="114.0161995">
<ele>17.616</ele>
<time>2019-06-15T03:08:27.662Z</time>
</trkpt>
<trkpt lat="22.2946234" lon="114.0162233">
<ele>16.587</ele>
<time>2019-06-15T03:08:33.933Z</time>
</trkpt>
<trkpt lat="22.2945746" lon="114.0163118">
<ele>15.250</ele>
<time>2019-06-15T03:08:40.183Z</time>
</trkpt>
<trkpt lat="22.2945854" lon="114.0164186">
<ele>14.275</ele>
<time>2019-06-15T03:08:46.819Z</time>
</trkpt>
<trkpt lat="22.2945651" lon="114.0165155">
<ele>13.958</ele>
<time>2019-06-15T03:08:52.760Z</time>
</trkpt>
<trkpt lat="22.2945736" lon="114.0166201">
<ele>14.030</ele>
<time>2019-06-15T03:08:59.251Z</time>
</trkpt>
<trkpt lat="22.2945704" lon="114.0167307">
<ele>14.197</ele>
<time>2019-06-15T03:09:06.541Z</time>
</trkpt>
<trkpt lat="22.2945874" lon="114.0168286">
<ele>14.433</ele>
<time>2019-06-15T03:09:13.471Z</time>
</trkpt>
<trkpt lat="22.2946141" lon="114.0169286">
<ele>14.777</ele>
<time>2019-06-15T03:09:20.625Z</time>
</trkpt>
<trkpt lat="22.2946508" lon="114.0170274">
<ele>15.078</ele>
<time>2019-06-15T03:09:27.427Z</time>
</trkpt>
<trkpt lat="22.2946863" lon="114.0171346">
<ele>15.238</ele>
<time>2019-06-15T03:09:34.361Z</time>
</trkpt>
<trkpt lat="22.2947102" lon="114.0172424">
<ele>15.345</ele>
<time>2019-06-15T03:09:41.250Z</time>
</trkpt>
<trkpt lat="22.2947534" lon="114.0173307">
<ele>15.509</ele>
<time>2019-06-15T03:09:47.576Z</time>
</trkpt>
<trkpt lat="22.2947962" lon="114.0174201">
<ele>15.751</ele>
<time>2019-06-15T03:09:54.003Z</time>
</trkpt>
<trkpt lat="22.2947078" lon="114.0174631">
<ele>15.965</ele>
<time>2019-06-15T03:10:01.998Z</time>
</trkpt>
<trkpt lat="22.2947078" lon="114.0174631">
<ele>16.061</ele>
<time>2019-06-15T03:10:09.998Z</time>
</trkpt>
<trkpt lat="22.2947078" lon="114.0174631">
<ele>16.074</ele>
<time>2019-06-15T03:11:05.680Z</time>
</trkpt>
<trkpt lat="22.2947958" lon="114.0174953">
<ele>16.046</ele>
<time>2019-06-15T03:11:18.758Z</time>
</trkpt>
<trkpt lat="22.2948252" lon="114.0173954">
<ele>15.961</ele>
<time>2019-06-15T03:11:26.109Z</time>
</trkpt>
<trkpt lat="22.2947775" lon="114.0173044">
<ele>15.750</ele>
<time>2019-06-15T03:11:32.980Z</time>
</trkpt>
<trkpt lat="22.2947408" lon="114.0172000">
<ele>15.515</ele>
<time>2019-06-15T03:11:39.847Z</time>
</trkpt>
<trkpt lat="22.2947269" lon="114.0171030">
<ele>15.352</ele>
<time>2019-06-15T03:11:46.136Z</time>
</trkpt>
<trkpt lat="22.2947379" lon="114.0170024">
<ele>15.249</ele>
<time>2019-06-15T03:11:52.894Z</time>
</trkpt>
<trkpt lat="22.2947021" lon="114.0169032">
<ele>15.112</ele>
<time>2019-06-15T03:11:59.637Z</time>
</trkpt>
<trkpt lat="22.2946642" lon="114.0168006">
<ele>14.852</ele>
<time>2019-06-15T03:12:06.581Z</time>
</trkpt>
<trkpt lat="22.2946416" lon="114.0166925">
<ele>14.527</ele>
<time>2019-06-15T03:12:13.561Z</time>
</trkpt>
<trkpt lat="22.2946308" lon="114.0165828">
<ele>14.249</ele>
<time>2019-06-15T03:12:20.479Z</time>
</trkpt>
<trkpt lat="22.2946162" lon="114.0164720">
<ele>14.032</ele>
<time>2019-06-15T03:12:27.424Z</time>
</trkpt>
<trkpt lat="22.2946105" lon="114.0163682">
<ele>13.902</ele>
<time>2019-06-15T03:12:33.706Z</time>
</trkpt>
<trkpt lat="22.2946035" lon="114.0162590">
<ele>13.874</ele>
<time>2019-06-15T03:12:40.325Z</time>
</trkpt>
<trkpt lat="22.2946172" lon="114.0161578">
<ele>13.917</ele>
<time>2019-06-15T03:12:46.810Z</time>
</trkpt>
<trkpt lat="22.2945819" lon="114.0160624">
<ele>13.964</ele>
<time>2019-06-15T03:12:53.329Z</time>
</trkpt>
<trkpt lat="22.2945547" lon="114.0159685">
<ele>13.959</ele>
<time>2019-06-15T03:12:59.006Z</time>
</trkpt>
<trkpt lat="22.2945512" lon="114.0158645">
<ele>13.855</ele>
<time>2019-06-15T03:13:04.851Z</time>
</trkpt>
<trkpt lat="22.2945519" lon="114.0157646">
<ele>13.651</ele>
<time>2019-06-15T03:13:10.762Z</time>
</trkpt>
<trkpt lat="22.2945565" lon="114.0156675">
<ele>13.390</ele>
<time>2019-06-15T03:13:17.111Z</time>
</trkpt>
<trkpt lat="22.2945723" lon="114.0155592">
<ele>13.195</ele>
<time>2019-06-15T03:13:24.542Z</time>
</trkpt>
<trkpt lat="22.2946012" lon="114.0154663">
<ele>13.154</ele>
<time>2019-06-15T03:13:30.767Z</time>
</trkpt>
<trkpt lat="22.2946321" lon="114.0153649">
<ele>13.233</ele>
<time>2019-06-15T03:13:37.343Z</time>
</trkpt>
<trkpt lat="22.2946553" lon="114.0152594">
<ele>13.371</ele>
<time>2019-06-15T03:13:44.223Z</time>
</trkpt>
<trkpt lat="22.2946765" lon="114.0151570">
<ele>13.559</ele>
<time>2019-06-15T03:13:51.031Z</time>
</trkpt>
<trkpt lat="22.2946912" lon="114.0150510">
<ele>13.761</ele>
<time>2019-06-15T03:13:57.999Z</time>
</trkpt>
<trkpt lat="22.2946912" lon="114.0150510">
<ele>13.911</ele>
<time>2019-06-15T03:14:04.999Z</time>
</trkpt>
<trkpt lat="22.2946912" lon="114.0150510">
<ele>13.971</ele>
<time>2019-06-15T03:14:05.099Z</time>
</trkpt>
<trkpt lat="22.2947510" lon="114.0148891">
<ele>13.936</ele>
<time>2019-06-15T03:14:22.630Z</time>
</trkpt>
<trkpt lat="22.2947895" lon="114.0147917">
<ele>13.826</ele>
<time>2019-06-15T03:14:29.432Z</time>
</trkpt>
<trkpt lat="22.2948353" lon="114.0146889">
<ele>13.691</ele>
<time>2019-06-15T03:14:36.061Z</time>
</trkpt>
<trkpt lat="22.2948534" lon="114.0145823">
<ele>13.564</ele>
<time>2019-06-15T03:14:42.368Z</time>
</trkpt>
<trkpt lat="22.2948098" lon="114.0144963">
<ele>13.418</ele>
<time>2019-06-15T03:14:48.178Z</time>
</trkpt>
<trkpt lat="22.2947543" lon="114.0144165">
<ele>13.258</ele>
<time>2019-06-15T03:14:54.089Z</time>
</trkpt>
<trkpt lat="22.2946713" lon="114.0143537">
<ele>13.258</ele>
<time>2019-06-15T03:15:00.934Z</time>
</trkpt>
<trkpt lat="22.2946137" lon="114.0142781">
<ele>13.513</ele>
<time>2019-06-15T03:15:07.350Z</time>
</trkpt>
<trkpt lat="22.2946051" lon="114.0141785">
<ele>13.873</ele>
<time>2019-06-15T03:15:13.517Z</time>
</trkpt>
<trkpt lat="22.2945850" lon="114.0140788">
<ele>14.193</ele>
<time>2019-06-15T03:15:19.531Z</time>
</trkpt>
<trkpt lat="22.2945655" lon="114.0139747">
<ele>14.462</ele>
<time>2019-06-15T03:15:26.104Z</time>
</trkpt>
<trkpt lat="22.2945490" lon="114.0138701">
<ele>14.727</ele>
<time>2019-06-15T03:15:33.170Z</time>
</trkpt>
<trkpt lat="22.2945223" lon="114.0137670">
<ele>15.132</ele>
<time>2019-06-15T03:15:40.605Z</time>
</trkpt>
<trkpt lat="22.2944974" lon="114.0136686">
<ele>15.724</ele>
<time>2019-06-15T03:15:47.548Z</time>
</trkpt>
<trkpt lat="22.2944508" lon="114.0135783">
<ele>16.428</ele>
<time>2019-06-15T03:15:54.607Z</time>
</trkpt>
<trkpt lat="22.2944146" lon="114.0134846">
<ele>17.191</ele>
<time>2019-06-15T03:16:02.307Z</time>
</trkpt>
<trkpt lat="22.2944533" lon="114.0133960">
<ele>18.015</ele>
<time>2019-06-15T03:16:10.204Z</time>
</trkpt>
<trkpt lat="22.2945185" lon="114.0133234">
<ele>18.878</ele>
<time>2019-06-15T03:16:18.351Z</time>
</trkpt>
<trkpt lat="22.2945791" lon="114.0132449">
<ele>19.673</ele>
<time>2019-06-15T03:16:26.822Z</time>
</trkpt>
<trkpt lat="22.2946659" lon="114.0131862">
<ele>20.310</ele>
<time>2019-06-15T03:16:36.315Z</time>
</trkpt>
<trkpt lat="22.2947500" lon="114.0131380">
<ele>20.964</ele>
<time>2019-06-15T03:16:45.929Z</time>
</trkpt>
<trkpt lat="22.2948474" lon="114.0131259">
<ele>21.863</ele>
<time>2019-06-15T03:16:57.319Z</time>
</trkpt>
<trkpt lat="22.2949415" lon="114.0131206">
<ele>23.309</ele>
<time>2019-06-15T03:17:09.830Z</time>
</trkpt>
<trkpt lat="22.2950256" lon="114.0131553">
<ele>25.334</ele>
<time>2019-06-15T03:17:18.532Z</time>
</trkpt>
<trkpt lat="22.2951123" lon="114.0132035">
<ele>27.364</ele>
<time>2019-06-15T03:17:26.046Z</time>
</trkpt>
<trkpt lat="22.2952091" lon="114.0132419">
<ele>28.917</ele>
<time>2019-06-15T03:17:33.591Z</time>
</trkpt>
<trkpt lat="22.2952964" lon="114.0131906">
<ele>30.096</ele>
<time>2019-06-15T03:17:41.055Z</time>
</trkpt>
<trkpt lat="22.2953035" lon="114.0130891">
<ele>31.052</ele>
<time>2019-06-15T03:17:48.749Z</time>
</trkpt>
<trkpt lat="22.2952201" lon="114.0130318">
<ele>31.728</ele>
<time>2019-06-15T03:17:57.692Z</time>
</trkpt>
<trkpt lat="22.2951333" lon="114.0129791">
<ele>31.959</ele>
<time>2019-06-15T03:18:06.421Z</time>
</trkpt>
<trkpt lat="22.2950704" lon="114.0128853">
<ele>31.782</ele>
<time>2019-06-15T03:18:14.114Z</time>
</trkpt>
<trkpt lat="22.2950046" lon="114.0128126">
<ele>31.478</ele>
<time>2019-06-15T03:18:20.539Z</time>
</trkpt>
<trkpt lat="22.2949456" lon="114.0127342">
<ele>31.286</ele>
<time>2019-06-15T03:18:27.328Z</time>
</trkpt>
<trkpt lat="22.2948992" lon="114.0126422">
<ele>31.234</ele>
<time>2019-06-15T03:18:35.124Z</time>
</trkpt>
<trkpt lat="22.2948238" lon="114.0125759">
<ele>31.219</ele>
<time>2019-06-15T03:18:42.998Z</time>
</trkpt>
<trkpt lat="22.2948238" lon="114.0125759">
<ele>31.163</ele>
<time>2019-06-15T03:18:48.998Z</time>
</trkpt>
<trkpt lat="22.2948238" lon="114.0125759">
<ele>31.102</ele>
<time>2019-06-15T03:18:50.344Z</time>
</trkpt>
<trkpt lat="22.2948881" lon="114.0125008">
<ele>31.106</ele>
<time>2019-06-15T03:19:27.571Z</time>
</trkpt>
<trkpt lat="22.2949610" lon="114.0124430">
<ele>32.172</ele>
<time>2019-06-15T03:19:46.977Z</time>
</trkpt>
<trkpt lat="22.2950118" lon="114.0123587">
<ele>35.397</ele>
<time>2019-06-15T03:20:05.813Z</time>
</trkpt>
<trkpt lat="22.2950685" lon="114.0122784">
<ele>40.191</ele>
<time>2019-06-15T03:20:24.722Z</time>
</trkpt>
<trkpt lat="22.2951455" lon="114.0122195">
<ele>45.317</ele>
<time>2019-06-15T03:20:43.999Z</time>
</trkpt>
<trkpt lat="22.2951455" lon="114.0122195">
<ele>49.658</ele>
<time>2019-06-15T03:21:06.999Z</time>
</trkpt>
<trkpt lat="22.2951455" lon="114.0122195">
<ele>51.755</ele>
<time>2019-06-15T03:21:21.087Z</time>
</trkpt>
<trkpt lat="22.2950560" lon="114.0121266">
<ele>50.427</ele>
<time>2019-06-15T03:21:38.544Z</time>
</trkpt>
<trkpt lat="22.2949776" lon="114.0120524">
<ele>51.017</ele>
<time>2019-06-15T03:21:47.384Z</time>
</trkpt>
<trkpt lat="22.2949084" lon="114.0119659">
<ele>54.253</ele>
<time>2019-06-15T03:21:54.090Z</time>
</trkpt>
<trkpt lat="22.2948504" lon="114.0118882">
<ele>57.754</ele>
<time>2019-06-15T03:21:59.993Z</time>
</trkpt>
<trkpt lat="22.2947885" lon="114.0118139">
<ele>59.205</ele>
<time>2019-06-15T03:22:06.487Z</time>
</trkpt>
<trkpt lat="22.2946977" lon="114.0117969">
<ele>59.019</ele>
<time>2019-06-15T03:22:13.168Z</time>
</trkpt>
<trkpt lat="22.2946037" lon="114.0117832">
<ele>58.179</ele>
<time>2019-06-15T03:22:20.563Z</time>
</trkpt>
<trkpt lat="22.2945084" lon="114.0117738">
<ele>57.167</ele>
<time>2019-06-15T03:22:28.425Z</time>
</trkpt>
<trkpt lat="22.2944134" lon="114.0117890">
<ele>56.045</ele>
<time>2019-06-15T03:22:36.215Z</time>
</trkpt>
<trkpt lat="22.2943269" lon="114.0118279">
<ele>54.906</ele>
<time>2019-06-15T03:22:44.452Z</time>
</trkpt>
<trkpt lat="22.2942496" lon="114.0117739">
<ele>54.053</ele>
<time>2019-06-15T03:22:55.804Z</time>
</trkpt>
<trkpt lat="22.2942347" lon="114.0116732">
<ele>53.810</ele>
<time>2019-06-15T03:23:09.512Z</time>
</trkpt>
<trkpt lat="22.2942100" lon="114.0115768">
<ele>54.939</ele>
<time>2019-06-15T03:23:32.666Z</time>
</trkpt>
<trkpt lat="22.2941620" lon="114.0114899">
<ele>58.299</ele>
<time>2019-06-15T03:23:52.998Z</time>
</trkpt>
<trkpt lat="22.2941620" lon="114.0114899">
<ele>62.789</ele>
<time>2019-06-15T03:24:07.998Z</time>
</trkpt>
<trkpt lat="22.2941620" lon="114.0114899">
<ele>65.489</ele>
<time>2019-06-15T03:24:08.098Z</time>
</trkpt>
<trkpt lat="22.2941773" lon="114.0113722">
<ele>65.293</ele>
<time>2019-06-15T03:24:31.292Z</time>
</trkpt>
<trkpt lat="22.2941688" lon="114.0112744">
<ele>65.591</ele>
<time>2019-06-15T03:24:44.998Z</time>
</trkpt>
<trkpt lat="22.2941688" lon="114.0112744">
<ele>69.070</ele>
<time>2019-06-15T03:24:48.998Z</time>
</trkpt>
<trkpt lat="22.2941688" lon="114.0112744">
<ele>72.470</ele>
<time>2019-06-15T03:24:49.098Z</time>
</trkpt>
<trkpt lat="22.2941688" lon="114.0112744">
<ele>70.596</ele>
<time>2019-06-15T03:25:04.998Z</time>
</trkpt>
<trkpt lat="22.2941688" lon="114.0112744">
<ele>69.425</ele>
<time>2019-06-15T03:25:05.098Z</time>
</trkpt>
<trkpt lat="22.2941688" lon="114.0112744">
<ele>70.033</ele>
<time>2019-06-15T03:25:07.998Z</time>
</trkpt>
<trkpt lat="22.2941688" lon="114.0112744">
<ele>70.375</ele>
<time>2019-06-15T03:25:08.098Z</time>
</trkpt>
<trkpt lat="22.2941647" lon="114.0111490">
<ele>70.325</ele>
<time>2019-06-15T03:25:27.500Z</time>
</trkpt>
<trkpt lat="22.2941203" lon="114.0110639">
<ele>72.237</ele>
<time>2019-06-15T03:25:38.998Z</time>
</trkpt>
<trkpt lat="22.2941203" lon="114.0110639">
<ele>77.626</ele>
<time>2019-06-15T03:25:43.998Z</time>
</trkpt>
<trkpt lat="22.2941203" lon="114.0110639">
<ele>82.183</ele>
<time>2019-06-15T03:25:58.814Z</time>
</trkpt>
<trkpt lat="22.2941506" lon="114.0109706">
<ele>79.630</ele>
<time>2019-06-15T03:26:23.747Z</time>
</trkpt>
<trkpt lat="22.2942293" lon="114.0109199">
<ele>80.185</ele>
<time>2019-06-15T03:26:48.729Z</time>
</trkpt>
<trkpt lat="22.2943231" lon="114.0109157">
<ele>86.162</ele>
<time>2019-06-15T03:27:05.030Z</time>
</trkpt>
<trkpt lat="22.2944019" lon="114.0108664">
<ele>93.897</ele>
<time>2019-06-15T03:27:17.011Z</time>
</trkpt>
<trkpt lat="22.2944938" lon="114.0108371">
<ele>98.809</ele>
<time>2019-06-15T03:27:26.891Z</time>
</trkpt>
<trkpt lat="22.2945925" lon="114.0108337">
<ele>100.660</ele>
<time>2019-06-15T03:27:36.298Z</time>
</trkpt>
<trkpt lat="22.2946835" lon="114.0108676">
<ele>101.148</ele>
<time>2019-06-15T03:27:46.092Z</time>
</trkpt>
<trkpt lat="22.2947835" lon="114.0109007">
<ele>101.709</ele>
<time>2019-06-15T03:27:58.171Z</time>
</trkpt>
<trkpt lat="22.2948789" lon="114.0109091">
<ele>102.601</ele>
<time>2019-06-15T03:28:07.837Z</time>
</trkpt>
<trkpt lat="22.2949706" lon="114.0109361">
<ele>103.367</ele>
<time>2019-06-15T03:28:16.596Z</time>
</trkpt>
<trkpt lat="22.2950454" lon="114.0110085">
<ele>103.781</ele>
<time>2019-06-15T03:28:27.434Z</time>
</trkpt>
<trkpt lat="22.2951292" lon="114.0109726">
<ele>104.010</ele>
<time>2019-06-15T03:28:38.999Z</time>
</trkpt>
<trkpt lat="22.2951292" lon="114.0109726">
<ele>104.163</ele>
<time>2019-06-15T03:28:51.999Z</time>
</trkpt>
<trkpt lat="22.2951292" lon="114.0109726">
<ele>104.209</ele>
<time>2019-06-15T03:29:20.999Z</time>
</trkpt>
<trkpt lat="22.2951292" lon="114.0109726">
<ele>104.157</ele>
<time>2019-06-15T03:30:04.205Z</time>
</trkpt>
<trkpt lat="22.2952221" lon="114.0109106">
<ele>104.063</ele>
<time>2019-06-15T03:30:23.292Z</time>
</trkpt>
<trkpt lat="22.2952757" lon="114.0108322">
<ele>105.028</ele>
<time>2019-06-15T03:30:31.855Z</time>
</trkpt>
<trkpt lat="22.2953282" lon="114.0107521">
<ele>107.626</ele>
<time>2019-06-15T03:30:39.966Z</time>
</trkpt>
<trkpt lat="22.2953627" lon="114.0106599">
<ele>110.674</ele>
<time>2019-06-15T03:30:48.038Z</time>
</trkpt>
<trkpt lat="22.2953693" lon="114.0105545">
<ele>112.920</ele>
<time>2019-06-15T03:30:56.607Z</time>
</trkpt>
<trkpt lat="22.2953739" lon="114.0104509">
<ele>114.539</ele>
<time>2019-06-15T03:31:05.470Z</time>
</trkpt>
<trkpt lat="22.2953788" lon="114.0103527">
<ele>116.011</ele>
<time>2019-06-15T03:31:14.998Z</time>
</trkpt>
<trkpt lat="22.2953788" lon="114.0103527">
<ele>117.367</ele>
<time>2019-06-15T03:31:26.998Z</time>
</trkpt>
<trkpt lat="22.2953788" lon="114.0103527">
<ele>118.063</ele>
<time>2019-06-15T03:31:33.713Z</time>
</trkpt>
<trkpt lat="22.2954122" lon="114.0102302">
<ele>117.953</ele>
<time>2019-06-15T03:31:54.186Z</time>
</trkpt>
<trkpt lat="22.2954413" lon="114.0101235">
<ele>118.401</ele>
<time>2019-06-15T03:32:05.416Z</time>
</trkpt>
<trkpt lat="22.2954658" lon="114.0100293">
<ele>120.776</ele>
<time>2019-06-15T03:32:15.072Z</time>
</trkpt>
<trkpt lat="22.2954625" lon="114.0099315">
<ele>124.250</ele>
<time>2019-06-15T03:32:23.998Z</time>
</trkpt>
<trkpt lat="22.2954625" lon="114.0099315">
<ele>126.970</ele>
<time>2019-06-15T03:32:32.998Z</time>
</trkpt>
<trkpt lat="22.2954625" lon="114.0099315">
<ele>128.084</ele>
<time>2019-06-15T03:32:33.098Z</time>
</trkpt>
<trkpt lat="22.2954401" lon="114.0098209">
<ele>127.876</ele>
<time>2019-06-15T03:32:44.966Z</time>
</trkpt>
<trkpt lat="22.2954214" lon="114.0097165">
<ele>127.747</ele>
<time>2019-06-15T03:32:53.012Z</time>
</trkpt>
<trkpt lat="22.2954116" lon="114.0096160">
<ele>128.633</ele>
<time>2019-06-15T03:33:00.213Z</time>
</trkpt>
<trkpt lat="22.2954104" lon="114.0095182">
<ele>129.955</ele>
<time>2019-06-15T03:33:06.848Z</time>
</trkpt>
<trkpt lat="22.2954290" lon="114.0094136">
<ele>131.002</ele>
<time>2019-06-15T03:33:14.375Z</time>
</trkpt>
<trkpt lat="22.2954419" lon="114.0093173">
<ele>131.743</ele>
<time>2019-06-15T03:33:21.998Z</time>
</trkpt>
<trkpt lat="22.2954419" lon="114.0093173">
<ele>132.164</ele>
<time>2019-06-15T03:33:25.998Z</time>
</trkpt>
<trkpt lat="22.2954419" lon="114.0093173">
<ele>132.272</ele>
<time>2019-06-15T03:33:31.256Z</time>
</trkpt>
<trkpt lat="22.2954504" lon="114.0094202">
<ele>132.070</ele>
<time>2019-06-15T03:33:53.133Z</time>
</trkpt>
<trkpt lat="22.2955381" lon="114.0094597">
<ele>132.026</ele>
<time>2019-06-15T03:34:08.437Z</time>
</trkpt>
<trkpt lat="22.2956282" lon="114.0094834">
<ele>132.641</ele>
<time>2019-06-15T03:34:22.495Z</time>
</trkpt>
<trkpt lat="22.2957041" lon="114.0095452">
<ele>134.924</ele>
<time>2019-06-15T03:34:33.521Z</time>
</trkpt>
<trkpt lat="22.2957845" lon="114.0094895">
<ele>138.660</ele>
<time>2019-06-15T03:34:43.339Z</time>
</trkpt>
<trkpt lat="22.2957795" lon="114.0093907">
<ele>142.435</ele>
<time>2019-06-15T03:34:52.946Z</time>
</trkpt>
<trkpt lat="22.2958587" lon="114.0093255">
<ele>145.556</ele>
<time>2019-06-15T03:35:03.776Z</time>
</trkpt>
<trkpt lat="22.2959236" lon="114.0092536">
<ele>148.135</ele>
<time>2019-06-15T03:35:12.452Z</time>
</trkpt>
<trkpt lat="22.2960056" lon="114.0091888">
<ele>150.058</ele>
<time>2019-06-15T03:35:19.999Z</time>
</trkpt>
<trkpt lat="22.2960056" lon="114.0091888">
<ele>151.113</ele>
<time>2019-06-15T03:35:35.999Z</time>
</trkpt>
<trkpt lat="22.2960056" lon="114.0091888">
<ele>151.392</ele>
<time>2019-06-15T03:35:45.473Z</time>
</trkpt>
<trkpt lat="22.2961291" lon="114.0091744">
<ele>151.255</ele>
<time>2019-06-15T03:36:07.468Z</time>
</trkpt>
<trkpt lat="22.2961899" lon="114.0090973">
<ele>151.628</ele>
<time>2019-06-15T03:36:21.490Z</time>
</trkpt>
<trkpt lat="22.2962211" lon="114.0090050">
<ele>154.155</ele>
<time>2019-06-15T03:36:35.588Z</time>
</trkpt>
<trkpt lat="22.2963062" lon="114.0089659">
<ele>154.873</ele>
<time>2019-06-15T03:36:48.813Z</time>
</trkpt>
<trkpt lat="22.2963888" lon="114.0089250">
<ele>158.638</ele>
<time>2019-06-15T03:37:02.291Z</time>
</trkpt>
<trkpt lat="22.2964535" lon="114.0088558">
<ele>164.089</ele>
<time>2019-06-15T03:37:14.574Z</time>
</trkpt>
<trkpt lat="22.2965044" lon="114.0087700">
<ele>168.734</ele>
<time>2019-06-15T03:37:26.999Z</time>
</trkpt>
<trkpt lat="22.2965044" lon="114.0087700">
<ele>171.742</ele>
<time>2019-06-15T03:37:33.999Z</time>
</trkpt>
<trkpt lat="22.2965044" lon="114.0087700">
<ele>172.907</ele>
<time>2019-06-15T03:45:25.750Z</time>
</trkpt>
<trkpt lat="22.2964622" lon="114.0086720">
<ele>171.993</ele>
<time>2019-06-15T03:45:36.998Z</time>
</trkpt>
<trkpt lat="22.2964622" lon="114.0086720">
<ele>171.600</ele>
<time>2019-06-15T03:45:43.998Z</time>
</trkpt>
<trkpt lat="22.2964622" lon="114.0086720">
<ele>171.557</ele>
<time>2019-06-15T03:45:51.352Z</time>
</trkpt>
<trkpt lat="22.2964560" lon="114.0085744">
<ele>171.672</ele>
<time>2019-06-15T03:46:02.629Z</time>
</trkpt>
<trkpt lat="22.2964609" lon="114.0084681">
<ele>172.543</ele>
<time>2019-06-15T03:46:11.009Z</time>
</trkpt>
<trkpt lat="22.2964921" lon="114.0083750">
<ele>174.615</ele>
<time>2019-06-15T03:46:18.268Z</time>
</trkpt>
<trkpt lat="22.2965273" lon="114.0082778">
<ele>176.735</ele>
<time>2019-06-15T03:46:25.585Z</time>
</trkpt>
<trkpt lat="22.2965586" lon="114.0081772">
<ele>177.854</ele>
<time>2019-06-15T03:46:32.972Z</time>
</trkpt>
<trkpt lat="22.2965713" lon="114.0080769">
<ele>178.637</ele>
<time>2019-06-15T03:46:39.910Z</time>
</trkpt>
<trkpt lat="22.2965842" lon="114.0079801">
<ele>179.797</ele>
<time>2019-06-15T03:46:46.471Z</time>
</trkpt>
<trkpt lat="22.2966094" lon="114.0078833">
<ele>181.070</ele>
<time>2019-06-15T03:46:53.179Z</time>
</trkpt>
<trkpt lat="22.2966521" lon="114.0077891">
<ele>181.932</ele>
<time>2019-06-15T03:47:00.272Z</time>
</trkpt>
<trkpt lat="22.2966847" lon="114.0076931">
<ele>182.340</ele>
<time>2019-06-15T03:47:07.319Z</time>
</trkpt>
<trkpt lat="22.2967176" lon="114.0075901">
<ele>182.563</ele>
<time>2019-06-15T03:47:14.998Z</time>
</trkpt>
<trkpt lat="22.2967176" lon="114.0075901">
<ele>182.826</ele>
<time>2019-06-15T03:47:21.998Z</time>
</trkpt>
<trkpt lat="22.2967176" lon="114.0075901">
<ele>182.995</ele>
<time>2019-06-15T03:47:23.440Z</time>
</trkpt>
<trkpt lat="22.2967549" lon="114.0074810">
<ele>182.913</ele>
<time>2019-06-15T03:47:35.923Z</time>
</trkpt>
<trkpt lat="22.2967989" lon="114.0073876">
<ele>182.946</ele>
<time>2019-06-15T03:47:43.729Z</time>
</trkpt>
<trkpt lat="22.2968049" lon="114.0072870">
<ele>183.403</ele>
<time>2019-06-15T03:47:50.649Z</time>
</trkpt>
<trkpt lat="22.2967739" lon="114.0071943">
<ele>183.999</ele>
<time>2019-06-15T03:47:56.737Z</time>
</trkpt>
<trkpt lat="22.2967323" lon="114.0071021">
<ele>184.399</ele>
<time>2019-06-15T03:48:02.873Z</time>
</trkpt>
<trkpt lat="22.2966909" lon="114.0070023">
<ele>184.597</ele>
<time>2019-06-15T03:48:09.471Z</time>
</trkpt>
<trkpt lat="22.2966496" lon="114.0069146">
<ele>184.649</ele>
<time>2019-06-15T03:48:15.597Z</time>
</trkpt>
<trkpt lat="22.2966143" lon="114.0068195">
<ele>184.624</ele>
<time>2019-06-15T03:48:22.140Z</time>
</trkpt>
<trkpt lat="22.2965782" lon="114.0067258">
<ele>184.631</ele>
<time>2019-06-15T03:48:28.628Z</time>
</trkpt>
<trkpt lat="22.2965388" lon="114.0066296">
<ele>184.725</ele>
<time>2019-06-15T03:48:35.276Z</time>
</trkpt>
<trkpt lat="22.2965080" lon="114.0065359">
<ele>184.803</ele>
<time>2019-06-15T03:48:41.539Z</time>
</trkpt>
<trkpt lat="22.2964674" lon="114.0064452">
<ele>184.767</ele>
<time>2019-06-15T03:48:47.999Z</time>
</trkpt>
<trkpt lat="22.2964674" lon="114.0064452">
<ele>184.667</ele>
<time>2019-06-15T03:48:55.999Z</time>
</trkpt>
<trkpt lat="22.2964674" lon="114.0064452">
<ele>184.584</ele>
<time>2019-06-15T03:49:14.999Z</time>
</trkpt>
<trkpt lat="22.2964674" lon="114.0064452">
<ele>184.531</ele>
<time>2019-06-15T03:49:15.779Z</time>
</trkpt>
<trkpt lat="22.2963726" lon="114.0064281">
<ele>184.477</ele>
<time>2019-06-15T03:49:25.999Z</time>
</trkpt>
<trkpt lat="22.2963726" lon="114.0064281">
<ele>184.403</ele>
<time>2019-06-15T03:49:29.999Z</time>
</trkpt>
<trkpt lat="22.2963726" lon="114.0064281">
<ele>184.312</ele>
<time>2019-06-15T03:49:31.546Z</time>
</trkpt>
<trkpt lat="22.2962466" lon="114.0064609">
<ele>184.232</ele>
<time>2019-06-15T03:49:42.999Z</time>
</trkpt>
<trkpt lat="22.2962466" lon="114.0064609">
<ele>184.163</ele>
<time>2019-06-15T03:49:45.999Z</time>
</trkpt>
<trkpt lat="22.2962466" lon="114.0064609">
<ele>184.081</ele>
<time>2019-06-15T03:49:57.033Z</time>
</trkpt>
<trkpt lat="22.2963469" lon="114.0064166">
<ele>183.998</ele>
<time>2019-06-15T03:50:09.912Z</time>
</trkpt>
<trkpt lat="22.2963845" lon="114.0063191">
<ele>183.851</ele>
<time>2019-06-15T03:50:17.633Z</time>
</trkpt>
<trkpt lat="22.2963266" lon="114.0062411">
<ele>183.474</ele>
<time>2019-06-15T03:50:24.505Z</time>
</trkpt>
<trkpt lat="22.2962720" lon="114.0061517">
<ele>182.797</ele>
<time>2019-06-15T03:50:31.317Z</time>
</trkpt>
<trkpt lat="22.2962094" lon="114.0060719">
<ele>182.031</ele>
<time>2019-06-15T03:50:37.915Z</time>
</trkpt>
<trkpt lat="22.2961228" lon="114.0060200">
<ele>181.405</ele>
<time>2019-06-15T03:50:44.791Z</time>
</trkpt>
<trkpt lat="22.2960277" lon="114.0060084">
<ele>180.825</ele>
<time>2019-06-15T03:50:51.357Z</time>
</trkpt>
<trkpt lat="22.2959420" lon="114.0060441">
<ele>180.191</ele>
<time>2019-06-15T03:50:57.729Z</time>
</trkpt>
<trkpt lat="22.2958606" lon="114.0060967">
<ele>179.551</ele>
<time>2019-06-15T03:51:04.335Z</time>
</trkpt>
<trkpt lat="22.2957900" lon="114.0061717">
<ele>178.839</ele>
<time>2019-06-15T03:51:10.999Z</time>
</trkpt>
<trkpt lat="22.2957900" lon="114.0061717">
<ele>178.146</ele>
<time>2019-06-15T03:51:18.999Z</time>
</trkpt>
<trkpt lat="22.2957900" lon="114.0061717">
<ele>177.758</ele>
<time>2019-06-15T03:51:26.855Z</time>
</trkpt>
<trkpt lat="22.2957406" lon="114.0060693">
<ele>177.824</ele>
<time>2019-06-15T03:52:59.523Z</time>
</trkpt>
<trkpt lat="22.2956964" lon="114.0059722">
<ele>177.383</ele>
<time>2019-06-15T03:54:24.998Z</time>
</trkpt>
<trkpt lat="22.2956964" lon="114.0059722">
<ele>176.030</ele>
<time>2019-06-15T03:54:39.998Z</time>
</trkpt>
<trkpt lat="22.2956964" lon="114.0059722">
<ele>174.846</ele>
<time>2019-06-15T03:54:40.098Z</time>
</trkpt>
<trkpt lat="22.2956521" lon="114.0058850">
<ele>174.790</ele>
<time>2019-06-15T03:55:03.314Z</time>
</trkpt>
<trkpt lat="22.2955790" lon="114.0058174">
<ele>175.257</ele>
<time>2019-06-15T03:55:15.315Z</time>
</trkpt>
<trkpt lat="22.2955053" lon="114.0057473">
<ele>175.418</ele>
<time>2019-06-15T03:55:24.629Z</time>
</trkpt>
<trkpt lat="22.2954127" lon="114.0057209">
<ele>176.853</ele>
<time>2019-06-15T03:55:32.188Z</time>
</trkpt>
<trkpt lat="22.2953156" lon="114.0057075">
<ele>178.898</ele>
<time>2019-06-15T03:55:38.998Z</time>
</trkpt>
<trkpt lat="22.2953156" lon="114.0057075">
<ele>180.425</ele>
<time>2019-06-15T03:55:47.000Z</time>
</trkpt>
<trkpt lat="22.2953156" lon="114.0057075">
<ele>180.960</ele>
<time>2019-06-15T03:56:26.289Z</time>
</trkpt>
<trkpt lat="22.2952147" lon="114.0057184">
<ele>180.670</ele>
<time>2019-06-15T03:56:38.999Z</time>
</trkpt>
<trkpt lat="22.2952147" lon="114.0057184">
<ele>180.123</ele>
<time>2019-06-15T03:56:42.999Z</time>
</trkpt>
<trkpt lat="22.2952147" lon="114.0057184">
<ele>179.856</ele>
<time>2019-06-15T03:57:04.238Z</time>
</trkpt>
<trkpt lat="22.2953068" lon="114.0057134">
<ele>179.886</ele>
<time>2019-06-15T03:57:26.185Z</time>
</trkpt>
<trkpt lat="22.2954040" lon="114.0057252">
<ele>179.920</ele>
<time>2019-06-15T03:57:36.214Z</time>
</trkpt>
<trkpt lat="22.2954902" lon="114.0057681">
<ele>179.954</ele>
<time>2019-06-15T03:57:46.039Z</time>
</trkpt>
<trkpt lat="22.2955588" lon="114.0058346">
<ele>179.744</ele>
<time>2019-06-15T03:57:56.144Z</time>
</trkpt>
<trkpt lat="22.2956391" lon="114.0058866">
<ele>178.805</ele>
<time>2019-06-15T03:58:07.047Z</time>
</trkpt>
<trkpt lat="22.2956766" lon="114.0059797">
<ele>176.657</ele>
<time>2019-06-15T03:58:19.081Z</time>
</trkpt>
<trkpt lat="22.2957218" lon="114.0060687">
<ele>173.784</ele>
<time>2019-06-15T03:58:31.319Z</time>
</trkpt>
<trkpt lat="22.2957396" lon="114.0061718">
<ele>171.699</ele>
<time>2019-06-15T03:58:42.281Z</time>
</trkpt>
<trkpt lat="22.2956849" lon="114.0062562">
<ele>171.281</ele>
<time>2019-06-15T03:58:51.288Z</time>
</trkpt>
<trkpt lat="22.2956210" lon="114.0063397">
<ele>171.926</ele>
<time>2019-06-15T03:58:59.353Z</time>
</trkpt>
<trkpt lat="22.2956334" lon="114.0064390">
<ele>172.454</ele>
<time>2019-06-15T03:59:05.883Z</time>
</trkpt>
<trkpt lat="22.2956505" lon="114.0065450">
<ele>172.189</ele>
<time>2019-06-15T03:59:12.813Z</time>
</trkpt>
<trkpt lat="22.2956432" lon="114.0066439">
<ele>171.477</ele>
<time>2019-06-15T03:59:21.068Z</time>
</trkpt>
<trkpt lat="22.2956148" lon="114.0067418">
<ele>170.910</ele>
<time>2019-06-15T03:59:29.966Z</time>
</trkpt>
<trkpt lat="22.2955528" lon="114.0068312">
<ele>170.636</ele>
<time>2019-06-15T03:59:38.933Z</time>
</trkpt>
<trkpt lat="22.2954924" lon="114.0069126">
<ele>170.541</ele>
<time>2019-06-15T03:59:46.444Z</time>
</trkpt>
<trkpt lat="22.2953952" lon="114.0069320">
<ele>170.477</ele>
<time>2019-06-15T03:59:53.917Z</time>
</trkpt>
<trkpt lat="22.2952969" lon="114.0069583">
<ele>170.274</ele>
<time>2019-06-15T04:00:01.663Z</time>
</trkpt>
<trkpt lat="22.2952046" lon="114.0069813">
<ele>169.806</ele>
<time>2019-06-15T04:00:09.354Z</time>
</trkpt>
<trkpt lat="22.2951197" lon="114.0070150">
<ele>169.135</ele>
<time>2019-06-15T04:00:17.021Z</time>
</trkpt>
<trkpt lat="22.2950255" lon="114.0070371">
<ele>168.319</ele>
<time>2019-06-15T04:00:24.989Z</time>
</trkpt>
<trkpt lat="22.2949387" lon="114.0070639">
<ele>167.268</ele>
<time>2019-06-15T04:00:31.951Z</time>
</trkpt>
<trkpt lat="22.2948411" lon="114.0070871">
<ele>166.019</ele>
<time>2019-06-15T04:00:39.144Z</time>
</trkpt>
<trkpt lat="22.2947407" lon="114.0071065">
<ele>164.785</ele>
<time>2019-06-15T04:00:46.084Z</time>
</trkpt>
<trkpt lat="22.2946489" lon="114.0071102">
<ele>163.812</ele>
<time>2019-06-15T04:00:52.196Z</time>
</trkpt>
<trkpt lat="22.2945516" lon="114.0070835">
<ele>163.278</ele>
<time>2019-06-15T04:00:59.322Z</time>
</trkpt>
<trkpt lat="22.2944555" lon="114.0070509">
<ele>163.166</ele>
<time>2019-06-15T04:01:07.045Z</time>
</trkpt>
<trkpt lat="22.2943642" lon="114.0070374">
<ele>163.403</ele>
<time>2019-06-15T04:01:14.580Z</time>
</trkpt>
<trkpt lat="22.2942720" lon="114.0070444">
<ele>164.027</ele>
<time>2019-06-15T04:01:22.312Z</time>
</trkpt>
<trkpt lat="22.2941811" lon="114.0070198">
<ele>164.945</ele>
<time>2019-06-15T04:01:30.135Z</time>
</trkpt>
<trkpt lat="22.2941089" lon="114.0069437">
<ele>165.897</ele>
<time>2019-06-15T04:01:38.266Z</time>
</trkpt>
<trkpt lat="22.2940382" lon="114.0068787">
<ele>166.707</ele>
<time>2019-06-15T04:01:45.970Z</time>
</trkpt>
<trkpt lat="22.2939644" lon="114.0068201">
<ele>167.422</ele>
<time>2019-06-15T04:01:54.126Z</time>
</trkpt>
<trkpt lat="22.2938748" lon="114.0067718">
<ele>168.166</ele>
<time>2019-06-15T04:02:03.456Z</time>
</trkpt>
<trkpt lat="22.2937943" lon="114.0067233">
<ele>169.036</ele>
<time>2019-06-15T04:02:12.166Z</time>
</trkpt>
<trkpt lat="22.2937041" lon="114.0066819">
<ele>170.073</ele>
<time>2019-06-15T04:02:21.794Z</time>
</trkpt>
<trkpt lat="22.2936179" lon="114.0066406">
<ele>171.213</ele>
<time>2019-06-15T04:02:30.997Z</time>
</trkpt>
<trkpt lat="22.2935307" lon="114.0066131">
<ele>172.313</ele>
<time>2019-06-15T04:02:39.755Z</time>
</trkpt>
<trkpt lat="22.2934441" lon="114.0065831">
<ele>173.396</ele>
<time>2019-06-15T04:02:48.950Z</time>
</trkpt>
<trkpt lat="22.2933547" lon="114.0065492">
<ele>174.425</ele>
<time>2019-06-15T04:02:58.439Z</time>
</trkpt>
<trkpt lat="22.2932628" lon="114.0065224">
<ele>175.270</ele>
<time>2019-06-15T04:03:06.894Z</time>
</trkpt>
<trkpt lat="22.2931734" lon="114.0064961">
<ele>176.008</ele>
<time>2019-06-15T04:03:14.264Z</time>
</trkpt>
<trkpt lat="22.2930783" lon="114.0064636">
<ele>176.695</ele>
<time>2019-06-15T04:03:21.977Z</time>
</trkpt>
<trkpt lat="22.2929890" lon="114.0064234">
<ele>177.226</ele>
<time>2019-06-15T04:03:29.587Z</time>
</trkpt>
<trkpt lat="22.2928999" lon="114.0063995">
<ele>177.596</ele>
<time>2019-06-15T04:03:36.751Z</time>
</trkpt>
<trkpt lat="22.2928058" lon="114.0063911">
<ele>177.817</ele>
<time>2019-06-15T04:03:43.893Z</time>
</trkpt>
<trkpt lat="22.2927156" lon="114.0063689">
<ele>177.947</ele>
<time>2019-06-15T04:03:50.782Z</time>
</trkpt>
<trkpt lat="22.2926416" lon="114.0063080">
<ele>178.094</ele>
<time>2019-06-15T04:03:57.757Z</time>
</trkpt>
<trkpt lat="22.2925745" lon="114.0062412">
<ele>178.227</ele>
<time>2019-06-15T04:04:04.650Z</time>
</trkpt>
<trkpt lat="22.2925218" lon="114.0061534">
<ele>178.258</ele>
<time>2019-06-15T04:04:12.110Z</time>
</trkpt>
<trkpt lat="22.2924671" lon="114.0060709">
<ele>178.199</ele>
<time>2019-06-15T04:04:19.395Z</time>
</trkpt>
<trkpt lat="22.2924161" lon="114.0059899">
<ele>178.156</ele>
<time>2019-06-15T04:04:26.251Z</time>
</trkpt>
<trkpt lat="22.2923435" lon="114.0059221">
<ele>178.212</ele>
<time>2019-06-15T04:04:33.367Z</time>
</trkpt>
<trkpt lat="22.2922611" lon="114.0058661">
<ele>178.325</ele>
<time>2019-06-15T04:04:40.432Z</time>
</trkpt>
<trkpt lat="22.2921908" lon="114.0057933">
<ele>178.401</ele>
<time>2019-06-15T04:04:47.394Z</time>
</trkpt>
<trkpt lat="22.2921236" lon="114.0057257">
<ele>178.384</ele>
<time>2019-06-15T04:04:54.040Z</time>
</trkpt>
<trkpt lat="22.2920654" lon="114.0056460">
<ele>178.270</ele>
<time>2019-06-15T04:05:01.005Z</time>
</trkpt>
<trkpt lat="22.2920159" lon="114.0055628">
<ele>178.103</ele>
<time>2019-06-15T04:05:07.999Z</time>
</trkpt>
<trkpt lat="22.2920159" lon="114.0055628">
<ele>177.956</ele>
<time>2019-06-15T04:05:12.999Z</time>
</trkpt>
<trkpt lat="22.2920159" lon="114.0055628">
<ele>177.860</ele>
<time>2019-06-15T04:05:57.000Z</time>
</trkpt>
<trkpt lat="22.2919661" lon="114.0054415">
<ele>177.795</ele>
<time>2019-06-15T04:06:07.473Z</time>
</trkpt>
<trkpt lat="22.2919327" lon="114.0053443">
<ele>177.659</ele>
<time>2019-06-15T04:06:13.515Z</time>
</trkpt>
<trkpt lat="22.2918904" lon="114.0052458">
<ele>177.262</ele>
<time>2019-06-15T04:06:20.684Z</time>
</trkpt>
<trkpt lat="22.2918599" lon="114.0051513">
<ele>176.653</ele>
<time>2019-06-15T04:06:27.790Z</time>
</trkpt>
<trkpt lat="22.2918057" lon="114.0050580">
<ele>176.095</ele>
<time>2019-06-15T04:06:35.543Z</time>
</trkpt>
<trkpt lat="22.2917411" lon="114.0049767">
<ele>175.771</ele>
<time>2019-06-15T04:06:43.126Z</time>
</trkpt>
<trkpt lat="22.2916700" lon="114.0049067">
<ele>175.711</ele>
<time>2019-06-15T04:06:50.608Z</time>
</trkpt>
<trkpt lat="22.2916011" lon="114.0048405">
<ele>175.798</ele>
<time>2019-06-15T04:06:57.998Z</time>
</trkpt>
<trkpt lat="22.2916011" lon="114.0048405">
<ele>175.871</ele>
<time>2019-06-15T04:07:02.998Z</time>
</trkpt>
<trkpt lat="22.2916011" lon="114.0048405">
<ele>175.867</ele>
<time>2019-06-15T04:07:10.341Z</time>
</trkpt>
<trkpt lat="22.2916812" lon="114.0048933">
<ele>175.701</ele>
<time>2019-06-15T04:07:22.998Z</time>
</trkpt>
<trkpt lat="22.2916812" lon="114.0048933">
<ele>175.659</ele>
<time>2019-06-15T04:07:30.998Z</time>
</trkpt>
<trkpt lat="22.2916812" lon="114.0048933">
<ele>175.629</ele>
<time>2019-06-15T04:07:31.852Z</time>
</trkpt>
<trkpt lat="22.2917504" lon="114.0049730">
<ele>175.574</ele>
<time>2019-06-15T04:07:42.998Z</time>
</trkpt>
<trkpt lat="22.2917504" lon="114.0049730">
<ele>175.513</ele>
<time>2019-06-15T04:07:47.998Z</time>
</trkpt>
<trkpt lat="22.2917504" lon="114.0049730">
<ele>175.459</ele>
<time>2019-06-15T04:07:53.844Z</time>
</trkpt>
<trkpt lat="22.2918004" lon="114.0048693">
<ele>175.345</ele>
<time>2019-06-15T04:08:03.997Z</time>
</trkpt>
<trkpt lat="22.2918004" lon="114.0048693">
<ele>175.311</ele>
<time>2019-06-15T04:08:13.997Z</time>
</trkpt>
<trkpt lat="22.2918004" lon="114.0048693">
<ele>175.278</ele>
<time>2019-06-15T04:08:14.097Z</time>
</trkpt>
<trkpt lat="22.2918637" lon="114.0047359">
<ele>175.220</ele>
<time>2019-06-15T04:08:23.997Z</time>
</trkpt>
<trkpt lat="22.2918637" lon="114.0047359">
<ele>175.158</ele>
<time>2019-06-15T04:08:26.997Z</time>
</trkpt>
<trkpt lat="22.2918637" lon="114.0047359">
<ele>175.106</ele>
<time>2019-06-15T04:08:27.097Z</time>
</trkpt>
<trkpt lat="22.2917674" lon="114.0047177">
<ele>174.991</ele>
<time>2019-06-15T04:08:58.493Z</time>
</trkpt>
<trkpt lat="22.2917037" lon="114.0046428">
<ele>175.180</ele>
<time>2019-06-15T04:09:18.864Z</time>
</trkpt>
<trkpt lat="22.2917840" lon="114.0046979">
<ele>175.900</ele>
<time>2019-06-15T04:09:38.789Z</time>
</trkpt>
<trkpt lat="22.2918740" lon="114.0047085">
<ele>176.897</ele>
<time>2019-06-15T04:09:57.754Z</time>
</trkpt>
<trkpt lat="22.2919620" lon="114.0047464">
<ele>177.696</ele>
<time>2019-06-15T04:10:17.605Z</time>
</trkpt>
<trkpt lat="22.2920564" lon="114.0047468">
<ele>178.226</ele>
<time>2019-06-15T04:10:31.645Z</time>
</trkpt>
<trkpt lat="22.2921496" lon="114.0047676">
<ele>179.028</ele>
<time>2019-06-15T04:10:44.774Z</time>
</trkpt>
<trkpt lat="22.2922410" lon="114.0047813">
<ele>180.905</ele>
<time>2019-06-15T04:11:00.290Z</time>
</trkpt>
<trkpt lat="22.2923218" lon="114.0047389">
<ele>183.989</ele>
<time>2019-06-15T04:11:18.592Z</time>
</trkpt>
<trkpt lat="22.2924107" lon="114.0047031">
<ele>188.020</ele>
<time>2019-06-15T04:11:39.311Z</time>
</trkpt>
<trkpt lat="22.2924699" lon="114.0046192">
<ele>192.233</ele>
<time>2019-06-15T04:12:01.276Z</time>
</trkpt>
<trkpt lat="22.2925098" lon="114.0045255">
<ele>195.120</ele>
<time>2019-06-15T04:12:14.885Z</time>
</trkpt>
<trkpt lat="22.2925485" lon="114.0044329">
<ele>196.360</ele>
<time>2019-06-15T04:12:25.999Z</time>
</trkpt>
<trkpt lat="22.2925485" lon="114.0044329">
<ele>196.959</ele>
<time>2019-06-15T04:12:32.999Z</time>
</trkpt>
<trkpt lat="22.2925485" lon="114.0044329">
<ele>197.239</ele>
<time>2019-06-15T04:12:36.176Z</time>
</trkpt>
<trkpt lat="22.2925505" lon="114.0042484">
<ele>197.130</ele>
<time>2019-06-15T04:13:01.136Z</time>
</trkpt>
<trkpt lat="22.2925342" lon="114.0041521">
<ele>197.376</ele>
<time>2019-06-15T04:13:09.712Z</time>
</trkpt>
<trkpt lat="22.2925074" lon="114.0040557">
<ele>198.504</ele>
<time>2019-06-15T04:13:17.725Z</time>
</trkpt>
<trkpt lat="22.2924867" lon="114.0039596">
<ele>199.836</ele>
<time>2019-06-15T04:13:25.921Z</time>
</trkpt>
<trkpt lat="22.2924811" lon="114.0038564">
<ele>200.784</ele>
<time>2019-06-15T04:13:34.724Z</time>
</trkpt>
<trkpt lat="22.2924768" lon="114.0037490">
<ele>201.657</ele>
<time>2019-06-15T04:13:43.447Z</time>
</trkpt>
<trkpt lat="22.2924508" lon="114.0036490">
<ele>202.643</ele>
<time>2019-06-15T04:13:51.505Z</time>
</trkpt>
<trkpt lat="22.2924294" lon="114.0035504">
<ele>203.493</ele>
<time>2019-06-15T04:13:59.146Z</time>
</trkpt>
<trkpt lat="22.2924243" lon="114.0034493">
<ele>204.050</ele>
<time>2019-06-15T04:14:06.949Z</time>
</trkpt>
<trkpt lat="22.2924101" lon="114.0033450">
<ele>204.592</ele>
<time>2019-06-15T04:14:15.462Z</time>
</trkpt>
<trkpt lat="22.2924096" lon="114.0032378">
<ele>205.272</ele>
<time>2019-06-15T04:14:24.176Z</time>
</trkpt>
<trkpt lat="22.2923942" lon="114.0031405">
<ele>205.917</ele>
<time>2019-06-15T04:14:31.987Z</time>
</trkpt>
<trkpt lat="22.2923468" lon="114.0030560">
<ele>206.711</ele>
<time>2019-06-15T04:14:39.913Z</time>
</trkpt>
<trkpt lat="22.2923077" lon="114.0029631">
<ele>207.937</ele>
<time>2019-06-15T04:14:48.073Z</time>
</trkpt>
<trkpt lat="22.2922755" lon="114.0028607">
<ele>209.283</ele>
<time>2019-06-15T04:14:56.369Z</time>
</trkpt>
<trkpt lat="22.2922475" lon="114.0027673">
<ele>210.326</ele>
<time>2019-06-15T04:15:03.759Z</time>
</trkpt>
<trkpt lat="22.2922335" lon="114.0026624">
<ele>211.027</ele>
<time>2019-06-15T04:15:11.850Z</time>
</trkpt>
<trkpt lat="22.2921899" lon="114.0025657">
<ele>211.454</ele>
<time>2019-06-15T04:15:20.176Z</time>
</trkpt>
<trkpt lat="22.2921514" lon="114.0024681">
<ele>211.810</ele>
<time>2019-06-15T04:15:28.300Z</time>
</trkpt>
<trkpt lat="22.2921129" lon="114.0023783">
<ele>212.482</ele>
<time>2019-06-15T04:15:36.567Z</time>
</trkpt>
<trkpt lat="22.2921319" lon="114.0022833">
<ele>213.574</ele>
<time>2019-06-15T04:15:45.997Z</time>
</trkpt>
<trkpt lat="22.2921319" lon="114.0022833">
<ele>214.657</ele>
<time>2019-06-15T04:15:56.997Z</time>
</trkpt>
<trkpt lat="22.2921319" lon="114.0022833">
<ele>215.175</ele>
<time>2019-06-15T04:15:57.097Z</time>
</trkpt>
<trkpt lat="22.2921319" lon="114.0022833">
<ele>214.662</ele>
<time>2019-06-15T04:16:18.997Z</time>
</trkpt>
<trkpt lat="22.2921319" lon="114.0022833">
<ele>214.422</ele>
<time>2019-06-15T04:17:53.350Z</time>
</trkpt>
<trkpt lat="22.2921832" lon="114.0021583">
<ele>214.400</ele>
<time>2019-06-15T04:18:52.350Z</time>
</trkpt>
<trkpt lat="22.2922563" lon="114.0020909">
<ele>215.979</ele>
<time>2019-06-15T04:19:07.910Z</time>
</trkpt>
<trkpt lat="22.2923115" lon="114.0020039">
<ele>220.505</ele>
<time>2019-06-15T04:19:19.943Z</time>
</trkpt>
<trkpt lat="22.2923601" lon="114.0019214">
<ele>226.373</ele>
<time>2019-06-15T04:19:29.959Z</time>
</trkpt>
<trkpt lat="22.2923682" lon="114.0018232">
<ele>231.185</ele>
<time>2019-06-15T04:19:39.481Z</time>
</trkpt>
<trkpt lat="22.2923833" lon="114.0017235">
<ele>234.483</ele>
<time>2019-06-15T04:19:48.999Z</time>
</trkpt>
<trkpt lat="22.2923833" lon="114.0017235">
<ele>236.359</ele>
<time>2019-06-15T04:20:02.999Z</time>
</trkpt>
<trkpt lat="22.2923833" lon="114.0017235">
<ele>236.927</ele>
<time>2019-06-15T04:23:09.750Z</time>
</trkpt>
<trkpt lat="22.2923640" lon="114.0015393">
<ele>236.703</ele>
<time>2019-06-15T04:23:33.082Z</time>
</trkpt>
<trkpt lat="22.2923862" lon="114.0014372">
<ele>237.225</ele>
<time>2019-06-15T04:23:44.003Z</time>
</trkpt>
<trkpt lat="22.2924133" lon="114.0013398">
<ele>240.358</ele>
<time>2019-06-15T04:23:58.997Z</time>
</trkpt>
<trkpt lat="22.2924133" lon="114.0013398">
<ele>245.304</ele>
<time>2019-06-15T04:24:11.997Z</time>
</trkpt>
<trkpt lat="22.2924133" lon="114.0013398">
<ele>248.453</ele>
<time>2019-06-15T04:28:12.408Z</time>
</trkpt>
<trkpt lat="22.2924761" lon="114.0012456">
<ele>248.184</ele>
<time>2019-06-15T04:28:30.227Z</time>
</trkpt>
<trkpt lat="22.2925193" lon="114.0011549">
<ele>248.082</ele>
<time>2019-06-15T04:28:43.004Z</time>
</trkpt>
<trkpt lat="22.2925825" lon="114.0010784">
<ele>251.822</ele>
<time>2019-06-15T04:28:56.205Z</time>
</trkpt>
<trkpt lat="22.2926199" lon="114.0009887">
<ele>257.935</ele>
<time>2019-06-15T04:29:06.771Z</time>
</trkpt>
<trkpt lat="22.2927069" lon="114.0009480">
<ele>263.014</ele>
<time>2019-06-15T04:29:18.999Z</time>
</trkpt>
<trkpt lat="22.2927069" lon="114.0009480">
<ele>265.811</ele>
<time>2019-06-15T04:29:28.999Z</time>
</trkpt>
<trkpt lat="22.2927069" lon="114.0009480">
<ele>266.599</ele>
<time>2019-06-15T04:29:46.460Z</time>
</trkpt>
<trkpt lat="22.2927069" lon="114.0009480">
<ele>265.788</ele>
<time>2019-06-15T04:29:59.999Z</time>
</trkpt>
<trkpt lat="22.2927069" lon="114.0009480">
<ele>265.493</ele>
<time>2019-06-15T04:31:45.787Z</time>
</trkpt>
<trkpt lat="22.2927779" lon="114.0008752">
<ele>265.430</ele>
<time>2019-06-15T04:32:03.414Z</time>
</trkpt>
<trkpt lat="22.2928445" lon="114.0007990">
<ele>266.627</ele>
<time>2019-06-15T04:32:12.097Z</time>
</trkpt>
<trkpt lat="22.2929295" lon="114.0007584">
<ele>269.681</ele>
<time>2019-06-15T04:32:19.098Z</time>
</trkpt>
<trkpt lat="22.2930276" lon="114.0007278">
<ele>272.640</ele>
<time>2019-06-15T04:32:26.641Z</time>
</trkpt>
<trkpt lat="22.2931189" lon="114.0006853">
<ele>273.694</ele>
<time>2019-06-15T04:32:34.864Z</time>
</trkpt>
<trkpt lat="22.2931994" lon="114.0006210">
<ele>273.645</ele>
<time>2019-06-15T04:32:44.683Z</time>
</trkpt>
<trkpt lat="22.2932551" lon="114.0005433">
<ele>273.872</ele>
<time>2019-06-15T04:32:55.239Z</time>
</trkpt>
<trkpt lat="22.2933025" lon="114.0004566">
<ele>274.999</ele>
<time>2019-06-15T04:33:06.409Z</time>
</trkpt>
<trkpt lat="22.2933674" lon="114.0003891">
<ele>276.932</ele>
<time>2019-06-15T04:33:17.156Z</time>
</trkpt>
<trkpt lat="22.2934134" lon="114.0003033">
<ele>279.077</ele>
<time>2019-06-15T04:33:28.997Z</time>
</trkpt>
<trkpt lat="22.2934134" lon="114.0003033">
<ele>280.629</ele>
<time>2019-06-15T04:33:36.997Z</time>
</trkpt>
<trkpt lat="22.2934134" lon="114.0003033">
<ele>281.166</ele>
<time>2019-06-15T04:37:40.985Z</time>
</trkpt>
<trkpt lat="22.2934255" lon="114.0002045">
<ele>280.549</ele>
<time>2019-06-15T04:37:57.044Z</time>
</trkpt>
<trkpt lat="22.2934336" lon="114.0001068">
<ele>281.593</ele>
<time>2019-06-15T04:38:05.998Z</time>
</trkpt>
<trkpt lat="22.2934726" lon="114.0000121">
<ele>284.982</ele>
<time>2019-06-15T04:38:15.000Z</time>
</trkpt>
<trkpt lat="22.2934726" lon="114.0000121">
<ele>288.706</ele>
<time>2019-06-15T04:38:21.000Z</time>
</trkpt>
<trkpt lat="22.2934726" lon="114.0000121">
<ele>290.368</ele>
<time>2019-06-15T04:38:42.469Z</time>
</trkpt>
<trkpt lat="22.2934881" lon="113.9998742">
<ele>290.051</ele>
<time>2019-06-15T04:39:03.658Z</time>
</trkpt>
<trkpt lat="22.2935445" lon="113.9997956">
<ele>289.777</ele>
<time>2019-06-15T04:39:12.999Z</time>
</trkpt>
<trkpt lat="22.2935445" lon="113.9997956">
<ele>290.977</ele>
<time>2019-06-15T04:39:24.999Z</time>
</trkpt>
<trkpt lat="22.2935445" lon="113.9997956">
<ele>292.272</ele>
<time>2019-06-15T04:39:27.572Z</time>
</trkpt>
<trkpt lat="22.2936442" lon="113.9997287">
<ele>292.169</ele>
<time>2019-06-15T04:40:23.069Z</time>
</trkpt>
<trkpt lat="22.2937259" lon="113.9996776">
<ele>292.625</ele>
<time>2019-06-15T04:41:12.087Z</time>
</trkpt>
<trkpt lat="22.2938020" lon="113.9996210">
<ele>295.422</ele>
<time>2019-06-15T04:41:59.985Z</time>
</trkpt>
<trkpt lat="22.2938429" lon="113.9995255">
<ele>298.725</ele>
<time>2019-06-15T04:42:50.542Z</time>
</trkpt>
<trkpt lat="22.2937787" lon="113.9994506">
<ele>300.338</ele>
<time>2019-06-15T04:43:39.560Z</time>
</trkpt>
<trkpt lat="22.2937425" lon="113.9993500">
<ele>300.442</ele>
<time>2019-06-15T04:44:31.422Z</time>
</trkpt>
<trkpt lat="22.2936988" lon="113.9992608">
<ele>300.105</ele>
<time>2019-06-15T04:45:19.880Z</time>
</trkpt>
<trkpt lat="22.2936448" lon="113.9991766">
<ele>300.073</ele>
<time>2019-06-15T04:46:09.092Z</time>
</trkpt>
<trkpt lat="22.2935880" lon="113.9990965">
<ele>300.373</ele>
<time>2019-06-15T04:46:42.999Z</time>
</trkpt>
<trkpt lat="22.2935880" lon="113.9990965">
<ele>300.776</ele>
<time>2019-06-15T04:46:49.999Z</time>
</trkpt>
<trkpt lat="22.2935880" lon="113.9990965">
<ele>300.985</ele>
<time>2019-06-15T04:47:03.123Z</time>
</trkpt>
<trkpt lat="22.2935642" lon="113.9990025">
<ele>300.585</ele>
<time>2019-06-15T04:47:19.934Z</time>
</trkpt>
<trkpt lat="22.2935677" lon="113.9988941">
<ele>300.382</ele>
<time>2019-06-15T04:47:29.805Z</time>
</trkpt>
<trkpt lat="22.2935314" lon="113.9988001">
<ele>300.094</ele>
<time>2019-06-15T04:47:38.983Z</time>
</trkpt>
<trkpt lat="22.2934857" lon="113.9987114">
<ele>299.312</ele>
<time>2019-06-15T04:47:48.806Z</time>
</trkpt>
<trkpt lat="22.2934819" lon="113.9986138">
<ele>298.023</ele>
<time>2019-06-15T04:47:59.047Z</time>
</trkpt>
<trkpt lat="22.2934295" lon="113.9985308">
<ele>296.838</ele>
<time>2019-06-15T04:48:09.726Z</time>
</trkpt>
<trkpt lat="22.2933968" lon="113.9984306">
<ele>296.189</ele>
<time>2019-06-15T04:48:20.821Z</time>
</trkpt>
<trkpt lat="22.2934227" lon="113.9983322">
<ele>296.077</ele>
<time>2019-06-15T04:48:32.020Z</time>
</trkpt>
<trkpt lat="22.2933707" lon="113.9982524">
<ele>296.640</ele>
<time>2019-06-15T04:48:43.728Z</time>
</trkpt>
<trkpt lat="22.2933286" lon="113.9981606">
<ele>298.039</ele>
<time>2019-06-15T04:48:55.960Z</time>
</trkpt>
<trkpt lat="22.2932769" lon="113.9980700">
<ele>299.945</ele>
<time>2019-06-15T04:49:08.591Z</time>
</trkpt>
<trkpt lat="22.2932709" lon="113.9979662">
<ele>301.590</ele>
<time>2019-06-15T04:49:22.304Z</time>
</trkpt>
<trkpt lat="22.2932651" lon="113.9978691">
<ele>302.802</ele>
<time>2019-06-15T04:49:34.723Z</time>
</trkpt>
<trkpt lat="22.2932664" lon="113.9977650">
<ele>303.940</ele>
<time>2019-06-15T04:49:46.572Z</time>
</trkpt>
<trkpt lat="22.2932530" lon="113.9976624">
<ele>305.140</ele>
<time>2019-06-15T04:49:58.997Z</time>
</trkpt>
<trkpt lat="22.2932530" lon="113.9976624">
<ele>306.214</ele>
<time>2019-06-15T04:50:01.997Z</time>
</trkpt>
<trkpt lat="22.2932530" lon="113.9976624">
<ele>306.754</ele>
<time>2019-06-15T04:54:32.535Z</time>
</trkpt>
<trkpt lat="22.2932148" lon="113.9975741">
<ele>306.580</ele>
<time>2019-06-15T04:54:50.216Z</time>
</trkpt>
<trkpt lat="22.2932228" lon="113.9974742">
<ele>306.880</ele>
<time>2019-06-15T04:55:04.510Z</time>
</trkpt>
<trkpt lat="22.2932472" lon="113.9973787">
<ele>308.918</ele>
<time>2019-06-15T04:55:19.898Z</time>
</trkpt>
<trkpt lat="22.2931695" lon="113.9973293">
<ele>312.238</ele>
<time>2019-06-15T04:55:32.683Z</time>
</trkpt>
<trkpt lat="22.2931041" lon="113.9972517">
<ele>315.502</ele>
<time>2019-06-15T04:55:44.620Z</time>
</trkpt>
<trkpt lat="22.2930549" lon="113.9971697">
<ele>318.011</ele>
<time>2019-06-15T04:55:55.662Z</time>
</trkpt>
<trkpt lat="22.2930851" lon="113.9970766">
<ele>319.801</ele>
<time>2019-06-15T04:56:07.164Z</time>
</trkpt>
<trkpt lat="22.2930996" lon="113.9969729">
<ele>321.364</ele>
<time>2019-06-15T04:56:19.136Z</time>
</trkpt>
<trkpt lat="22.2931147" lon="113.9968689">
<ele>323.084</ele>
<time>2019-06-15T04:56:31.281Z</time>
</trkpt>
<trkpt lat="22.2931423" lon="113.9967694">
<ele>324.865</ele>
<time>2019-06-15T04:56:44.320Z</time>
</trkpt>
<trkpt lat="22.2931691" lon="113.9966749">
<ele>326.372</ele>
<time>2019-06-15T04:56:57.546Z</time>
</trkpt>
<trkpt lat="22.2931954" lon="113.9965793">
<ele>327.682</ele>
<time>2019-06-15T04:57:11.998Z</time>
</trkpt>
<trkpt lat="22.2931954" lon="113.9965793">
<ele>328.918</ele>
<time>2019-06-15T04:57:16.998Z</time>
</trkpt>
<trkpt lat="22.2931954" lon="113.9965793">
<ele>329.585</ele>
<time>2019-06-15T04:57:19.720Z</time>
</trkpt>
<trkpt lat="22.2932103" lon="113.9964811">
<ele>328.888</ele>
<time>2019-06-15T04:58:52.783Z</time>
</trkpt>
<trkpt lat="22.2932538" lon="113.9963936">
<ele>329.835</ele>
<time>2019-06-15T04:59:12.226Z</time>
</trkpt>
<trkpt lat="22.2932813" lon="113.9963011">
<ele>333.546</ele>
<time>2019-06-15T04:59:24.997Z</time>
</trkpt>
<trkpt lat="22.2932813" lon="113.9963011">
<ele>338.242</ele>
<time>2019-06-15T04:59:25.997Z</time>
</trkpt>
<trkpt lat="22.2932813" lon="113.9963011">
<ele>340.726</ele>
<time>2019-06-15T04:59:34.860Z</time>
</trkpt>
<trkpt lat="22.2933226" lon="113.9962108">
<ele>338.932</ele>
<time>2019-06-15T04:59:58.971Z</time>
</trkpt>
<trkpt lat="22.2933540" lon="113.9961180">
<ele>339.382</ele>
<time>2019-06-15T05:00:10.070Z</time>
</trkpt>
<trkpt lat="22.2934134" lon="113.9960406">
<ele>343.092</ele>
<time>2019-06-15T05:00:18.996Z</time>
</trkpt>
<trkpt lat="22.2934134" lon="113.9960406">
<ele>347.745</ele>
<time>2019-06-15T05:00:25.996Z</time>
</trkpt>
<trkpt lat="22.2934134" lon="113.9960406">
<ele>350.063</ele>
<time>2019-06-15T05:07:10.716Z</time>
</trkpt>
<trkpt lat="22.2935120" lon="113.9961129">
<ele>349.697</ele>
<time>2019-06-15T05:07:25.040Z</time>
</trkpt>
<trkpt lat="22.2935767" lon="113.9961911">
<ele>349.545</ele>
<time>2019-06-15T05:07:33.084Z</time>
</trkpt>
<trkpt lat="22.2936436" lon="113.9962599">
<ele>351.795</ele>
<time>2019-06-15T05:07:41.328Z</time>
</trkpt>
<trkpt lat="22.2937185" lon="113.9963235">
<ele>355.189</ele>
<time>2019-06-15T05:07:48.999Z</time>
</trkpt>
<trkpt lat="22.2937185" lon="113.9963235">
<ele>357.870</ele>
<time>2019-06-15T05:07:55.999Z</time>
</trkpt>
<trkpt lat="22.2937185" lon="113.9963235">
<ele>359.085</ele>
<time>2019-06-15T05:08:11.987Z</time>
</trkpt>
<trkpt lat="22.2937999" lon="113.9964629">
<ele>358.799</ele>
<time>2019-06-15T05:08:29.185Z</time>
</trkpt>
<trkpt lat="22.2938706" lon="113.9965262">
<ele>358.576</ele>
<time>2019-06-15T05:08:37.745Z</time>
</trkpt>
<trkpt lat="22.2939585" lon="113.9965619">
<ele>359.721</ele>
<time>2019-06-15T05:08:47.593Z</time>
</trkpt>
<trkpt lat="22.2940554" lon="113.9965456">
<ele>361.848</ele>
<time>2019-06-15T05:08:58.830Z</time>
</trkpt>
<trkpt lat="22.2941448" lon="113.9965803">
<ele>364.130</ele>
<time>2019-06-15T05:09:08.825Z</time>
</trkpt>
<trkpt lat="22.2942181" lon="113.9966433">
<ele>366.205</ele>
<time>2019-06-15T05:09:17.553Z</time>
</trkpt>
<trkpt lat="22.2943052" lon="113.9966848">
<ele>367.876</ele>
<time>2019-06-15T05:09:25.442Z</time>
</trkpt>
<trkpt lat="22.2943824" lon="113.9967421">
<ele>369.220</ele>
<time>2019-06-15T05:09:32.999Z</time>
</trkpt>
<trkpt lat="22.2943824" lon="113.9967421">
<ele>370.256</ele>
<time>2019-06-15T05:09:36.999Z</time>
</trkpt>
<trkpt lat="22.2943824" lon="113.9967421">
<ele>370.696</ele>
<time>2019-06-15T05:10:03.998Z</time>
</trkpt>
<trkpt lat="22.2943824" lon="113.9967421">
<ele>370.491</ele>
<time>2019-06-15T05:10:06.310Z</time>
</trkpt>
<trkpt lat="22.2944233" lon="113.9966488">
<ele>370.049</ele>
<time>2019-06-15T05:10:29.379Z</time>
</trkpt>
<trkpt lat="22.2944762" lon="113.9965694">
<ele>370.640</ele>
<time>2019-06-15T05:10:39.746Z</time>
</trkpt>
<trkpt lat="22.2945606" lon="113.9965228">
<ele>372.286</ele>
<time>2019-06-15T05:10:49.998Z</time>
</trkpt>
<trkpt lat="22.2945606" lon="113.9965228">
<ele>374.320</ele>
<time>2019-06-15T05:10:52.998Z</time>
</trkpt>
<trkpt lat="22.2945606" lon="113.9965228">
<ele>375.381</ele>
<time>2019-06-15T05:11:57.397Z</time>
</trkpt>
<trkpt lat="22.2946598" lon="113.9965114">
<ele>375.138</ele>
<time>2019-06-15T05:12:09.998Z</time>
</trkpt>
<trkpt lat="22.2946598" lon="113.9965114">
<ele>374.516</ele>
<time>2019-06-15T05:12:10.998Z</time>
</trkpt>
<trkpt lat="22.2946598" lon="113.9965114">
<ele>374.327</ele>
<time>2019-06-15T05:12:16.540Z</time>
</trkpt>
<trkpt lat="22.2947404" lon="113.9964532">
<ele>374.475</ele>
<time>2019-06-15T05:12:26.997Z</time>
</trkpt>
<trkpt lat="22.2947404" lon="113.9964532">
<ele>374.555</ele>
<time>2019-06-15T05:12:29.997Z</time>
</trkpt>
<trkpt lat="22.2947404" lon="113.9964532">
<ele>374.418</ele>
<time>2019-06-15T05:12:33.060Z</time>
</trkpt>
<trkpt lat="22.2947404" lon="113.9964532">
<ele>374.110</ele>
<time>2019-06-15T05:12:47.997Z</time>
</trkpt>
<trkpt lat="22.2947404" lon="113.9964532">
<ele>374.040</ele>
<time>2019-06-15T05:12:48.097Z</time>
</trkpt>
<trkpt lat="22.2948218" lon="113.9963348">
<ele>373.932</ele>
<time>2019-06-15T05:13:10.244Z</time>
</trkpt>
<trkpt lat="22.2948822" lon="113.9962592">
<ele>376.245</ele>
<time>2019-06-15T05:13:21.049Z</time>
</trkpt>
<trkpt lat="22.2949531" lon="113.9961914">
<ele>382.871</ele>
<time>2019-06-15T05:13:31.025Z</time>
</trkpt>
<trkpt lat="22.2950187" lon="113.9961089">
<ele>390.731</ele>
<time>2019-06-15T05:13:41.221Z</time>
</trkpt>
<trkpt lat="22.2951063" lon="113.9960676">
<ele>396.102</ele>
<time>2019-06-15T05:13:52.083Z</time>
</trkpt>
<trkpt lat="22.2951978" lon="113.9960591">
<ele>399.256</ele>
<time>2019-06-15T05:14:04.244Z</time>
</trkpt>
<trkpt lat="22.2952244" lon="113.9961565">
<ele>401.756</ele>
<time>2019-06-15T05:14:16.997Z</time>
</trkpt>
<trkpt lat="22.2952244" lon="113.9961565">
<ele>404.053</ele>
<time>2019-06-15T05:14:30.997Z</time>
</trkpt>
<trkpt lat="22.2952244" lon="113.9961565">
<ele>405.204</ele>
<time>2019-06-15T05:14:40.247Z</time>
</trkpt>
<trkpt lat="22.2952941" lon="113.9962493">
<ele>404.932</ele>
<time>2019-06-15T05:15:03.117Z</time>
</trkpt>
<trkpt lat="22.2953686" lon="113.9963100">
<ele>405.221</ele>
<time>2019-06-15T05:15:17.118Z</time>
</trkpt>
<trkpt lat="22.2954602" lon="113.9963540">
<ele>407.870</ele>
<time>2019-06-15T05:15:29.922Z</time>
</trkpt>
<trkpt lat="22.2955498" lon="113.9963629">
<ele>411.740</ele>
<time>2019-06-15T05:15:39.874Z</time>
</trkpt>
<trkpt lat="22.2956322" lon="113.9964065">
<ele>414.724</ele>
<time>2019-06-15T05:15:49.308Z</time>
</trkpt>
<trkpt lat="22.2957190" lon="113.9964486">
<ele>416.429</ele>
<time>2019-06-15T05:15:57.941Z</time>
</trkpt>
<trkpt lat="22.2958177" lon="113.9964775">
<ele>417.595</ele>
<time>2019-06-15T05:16:06.756Z</time>
</trkpt>
<trkpt lat="22.2959094" lon="113.9964696">
<ele>418.673</ele>
<time>2019-06-15T05:16:15.017Z</time>
</trkpt>
<trkpt lat="22.2959950" lon="113.9964307">
<ele>419.585</ele>
<time>2019-06-15T05:16:23.859Z</time>
</trkpt>
<trkpt lat="22.2960874" lon="113.9963955">
<ele>420.376</ele>
<time>2019-06-15T05:16:34.041Z</time>
</trkpt>
<trkpt lat="22.2961734" lon="113.9963672">
<ele>421.220</ele>
<time>2019-06-15T05:16:44.667Z</time>
</trkpt>
<trkpt lat="22.2962395" lon="113.9962951">
<ele>422.610</ele>
<time>2019-06-15T05:16:56.526Z</time>
</trkpt>
<trkpt lat="22.2963112" lon="113.9962313">
<ele>424.672</ele>
<time>2019-06-15T05:17:08.999Z</time>
</trkpt>
<trkpt lat="22.2963112" lon="113.9962313">
<ele>426.474</ele>
<time>2019-06-15T05:17:22.999Z</time>
</trkpt>
<trkpt lat="22.2963112" lon="113.9962313">
<ele>427.154</ele>
<time>2019-06-15T05:17:23.099Z</time>
</trkpt>
<trkpt lat="22.2963934" lon="113.9961876">
<ele>426.873</ele>
<time>2019-06-15T05:17:50.734Z</time>
</trkpt>
<trkpt lat="22.2964653" lon="113.9961133">
<ele>427.690</ele>
<time>2019-06-15T05:18:01.880Z</time>
</trkpt>
<trkpt lat="22.2965377" lon="113.9960508">
<ele>431.200</ele>
<time>2019-06-15T05:18:10.151Z</time>
</trkpt>
<trkpt lat="22.2966290" lon="113.9960561">
<ele>435.542</ele>
<time>2019-06-15T05:18:18.765Z</time>
</trkpt>
<trkpt lat="22.2966740" lon="113.9959670">
<ele>438.199</ele>
<time>2019-06-15T05:18:27.509Z</time>
</trkpt>
<trkpt lat="22.2967577" lon="113.9959175">
<ele>439.131</ele>
<time>2019-06-15T05:18:35.492Z</time>
</trkpt>
<trkpt lat="22.2968516" lon="113.9959372">
<ele>439.358</ele>
<time>2019-06-15T05:18:42.662Z</time>
</trkpt>
<trkpt lat="22.2969466" lon="113.9959684">
<ele>439.617</ele>
<time>2019-06-15T05:18:50.178Z</time>
</trkpt>
<trkpt lat="22.2970172" lon="113.9960327">
<ele>440.084</ele>
<time>2019-06-15T05:18:57.256Z</time>
</trkpt>
<trkpt lat="22.2970922" lon="113.9960948">
<ele>440.921</ele>
<time>2019-06-15T05:19:04.154Z</time>
</trkpt>
<trkpt lat="22.2971630" lon="113.9961645">
<ele>442.080</ele>
<time>2019-06-15T05:19:10.886Z</time>
</trkpt>
<trkpt lat="22.2972356" lon="113.9962279">
<ele>443.015</ele>
<time>2019-06-15T05:19:17.484Z</time>
</trkpt>
<trkpt lat="22.2973094" lon="113.9962856">
<ele>443.364</ele>
<time>2019-06-15T05:19:24.035Z</time>
</trkpt>
<trkpt lat="22.2973910" lon="113.9963313">
<ele>443.317</ele>
<time>2019-06-15T05:19:30.795Z</time>
</trkpt>
<trkpt lat="22.2974864" lon="113.9963568">
<ele>443.169</ele>
<time>2019-06-15T05:19:38.119Z</time>
</trkpt>
<trkpt lat="22.2975749" lon="113.9963847">
<ele>443.110</ele>
<time>2019-06-15T05:19:45.199Z</time>
</trkpt>
<trkpt lat="22.2976634" lon="113.9964314">
<ele>443.221</ele>
<time>2019-06-15T05:19:53.164Z</time>
</trkpt>
<trkpt lat="22.2977332" lon="113.9965088">
<ele>443.583</ele>
<time>2019-06-15T05:20:01.631Z</time>
</trkpt>
<trkpt lat="22.2977804" lon="113.9965985">
<ele>444.186</ele>
<time>2019-06-15T05:20:09.436Z</time>
</trkpt>
<trkpt lat="22.2978511" lon="113.9966781">
<ele>444.841</ele>
<time>2019-06-15T05:20:17.321Z</time>
</trkpt>
<trkpt lat="22.2979102" lon="113.9967513">
<ele>445.311</ele>
<time>2019-06-15T05:20:24.025Z</time>
</trkpt>
<trkpt lat="22.2979544" lon="113.9968371">
<ele>445.485</ele>
<time>2019-06-15T05:20:30.700Z</time>
</trkpt>
<trkpt lat="22.2980016" lon="113.9969254">
<ele>445.375</ele>
<time>2019-06-15T05:20:37.545Z</time>
</trkpt>
<trkpt lat="22.2980594" lon="113.9970141">
<ele>445.116</ele>
<time>2019-06-15T05:20:44.827Z</time>
</trkpt>
<trkpt lat="22.2981211" lon="113.9971039">
<ele>444.867</ele>
<time>2019-06-15T05:20:52.500Z</time>
</trkpt>
<trkpt lat="22.2981904" lon="113.9971828">
<ele>444.647</ele>
<time>2019-06-15T05:21:00.047Z</time>
</trkpt>
<trkpt lat="22.2982792" lon="113.9972131">
<ele>444.120</ele>
<time>2019-06-15T05:21:06.997Z</time>
</trkpt>
<trkpt lat="22.2982792" lon="113.9972131">
<ele>443.158</ele>
<time>2019-06-15T05:21:14.997Z</time>
</trkpt>
<trkpt lat="22.2982792" lon="113.9972131">
<ele>442.360</ele>
<time>2019-06-15T05:21:21.561Z</time>
</trkpt>
<trkpt lat="22.2983833" lon="113.9972744">
<ele>442.197</ele>
<time>2019-06-15T05:21:35.868Z</time>
</trkpt>
<trkpt lat="22.2984635" lon="113.9973343">
<ele>441.989</ele>
<time>2019-06-15T05:21:44.339Z</time>
</trkpt>
<trkpt lat="22.2985514" lon="113.9973902">
<ele>441.027</ele>
<time>2019-06-15T05:21:52.612Z</time>
</trkpt>
<trkpt lat="22.2986294" lon="113.9974404">
<ele>439.766</ele>
<time>2019-06-15T05:21:59.396Z</time>
</trkpt>
<trkpt lat="22.2986851" lon="113.9975252">
<ele>438.939</ele>
<time>2019-06-15T05:22:06.440Z</time>
</trkpt>
<trkpt lat="22.2987246" lon="113.9976284">
<ele>438.590</ele>
<time>2019-06-15T05:22:14.084Z</time>
</trkpt>
<trkpt lat="22.2987489" lon="113.9977354">
<ele>438.539</ele>
<time>2019-06-15T05:22:21.713Z</time>
</trkpt>
<trkpt lat="22.2987681" lon="113.9978335">
<ele>438.730</ele>
<time>2019-06-15T05:22:28.554Z</time>
</trkpt>
<trkpt lat="22.2987825" lon="113.9979367">
<ele>439.113</ele>
<time>2019-06-15T05:22:35.451Z</time>
</trkpt>
<trkpt lat="22.2987990" lon="113.9980393">
<ele>439.526</ele>
<time>2019-06-15T05:22:42.187Z</time>
</trkpt>
<trkpt lat="22.2988229" lon="113.9981416">
<ele>439.841</ele>
<time>2019-06-15T05:22:49.047Z</time>
</trkpt>
<trkpt lat="22.2988510" lon="113.9982346">
<ele>440.071</ele>
<time>2019-06-15T05:22:55.711Z</time>
</trkpt>
<trkpt lat="22.2988850" lon="113.9983332">
<ele>440.339</ele>
<time>2019-06-15T05:23:03.082Z</time>
</trkpt>
<trkpt lat="22.2989166" lon="113.9984343">
<ele>440.698</ele>
<time>2019-06-15T05:23:10.370Z</time>
</trkpt>
<trkpt lat="22.2989316" lon="113.9985323">
<ele>441.189</ele>
<time>2019-06-15T05:23:17.025Z</time>
</trkpt>
<trkpt lat="22.2989556" lon="113.9986381">
<ele>441.875</ele>
<time>2019-06-15T05:23:24.509Z</time>
</trkpt>
<trkpt lat="22.2989974" lon="113.9987374">
<ele>442.670</ele>
<time>2019-06-15T05:23:32.300Z</time>
</trkpt>
<trkpt lat="22.2990226" lon="113.9988351">
<ele>443.426</ele>
<time>2019-06-15T05:23:39.804Z</time>
</trkpt>
<trkpt lat="22.2990734" lon="113.9989186">
<ele>444.059</ele>
<time>2019-06-15T05:23:47.436Z</time>
</trkpt>
<trkpt lat="22.2991078" lon="113.9990186">
<ele>444.449</ele>
<time>2019-06-15T05:23:55.528Z</time>
</trkpt>
<trkpt lat="22.2991264" lon="113.9991196">
<ele>444.634</ele>
<time>2019-06-15T05:24:03.184Z</time>
</trkpt>
<trkpt lat="22.2991541" lon="113.9992235">
<ele>444.902</ele>
<time>2019-06-15T05:24:11.564Z</time>
</trkpt>
<trkpt lat="22.2991734" lon="113.9993237">
<ele>445.684</ele>
<time>2019-06-15T05:24:20.389Z</time>
</trkpt>
<trkpt lat="22.2992452" lon="113.9993900">
<ele>447.148</ele>
<time>2019-06-15T05:24:29.766Z</time>
</trkpt>
<trkpt lat="22.2992950" lon="113.9994775">
<ele>448.950</ele>
<time>2019-06-15T05:24:38.999Z</time>
</trkpt>
<trkpt lat="22.2992950" lon="113.9994775">
<ele>450.470</ele>
<time>2019-06-15T05:24:48.999Z</time>
</trkpt>
<trkpt lat="22.2992950" lon="113.9994775">
<ele>451.119</ele>
<time>2019-06-15T05:24:59.953Z</time>
</trkpt>
<trkpt lat="22.2993535" lon="113.9995555">
<ele>450.854</ele>
<time>2019-06-15T05:25:08.998Z</time>
</trkpt>
<trkpt lat="22.2993535" lon="113.9995555">
<ele>450.351</ele>
<time>2019-06-15T05:25:17.998Z</time>
</trkpt>
<trkpt lat="22.2993535" lon="113.9995555">
<ele>450.146</ele>
<time>2019-06-15T05:44:38.669Z</time>
</trkpt>
<trkpt lat="22.2994632" lon="113.9996802">
<ele>450.189</ele>
<time>2019-06-15T05:44:54.802Z</time>
</trkpt>
<trkpt lat="22.2995324" lon="113.9997597">
<ele>450.621</ele>
<time>2019-06-15T05:45:01.900Z</time>
</trkpt>
<trkpt lat="22.2995478" lon="113.9998641">
<ele>451.794</ele>
<time>2019-06-15T05:45:09.069Z</time>
</trkpt>
<trkpt lat="22.2995228" lon="113.9999713">
<ele>453.896</ele>
<time>2019-06-15T05:45:16.383Z</time>
</trkpt>
<trkpt lat="22.2995407" lon="114.0000790">
<ele>456.615</ele>
<time>2019-06-15T05:45:23.425Z</time>
</trkpt>
<trkpt lat="22.2996056" lon="114.0001468">
<ele>458.954</ele>
<time>2019-06-15T05:45:29.999Z</time>
</trkpt>
<trkpt lat="22.2996056" lon="114.0001468">
<ele>459.906</ele>
<time>2019-06-15T05:45:42.999Z</time>
</trkpt>
<trkpt lat="22.2996056" lon="114.0001468">
<ele>459.587</ele>
<time>2019-06-15T05:51:13.137Z</time>
</trkpt>
<trkpt lat="22.2995920" lon="114.0002689">
<ele>458.949</ele>
<time>2019-06-15T05:51:25.998Z</time>
</trkpt>
<trkpt lat="22.2995920" lon="114.0002689">
<ele>458.693</ele>
<time>2019-06-15T05:51:31.998Z</time>
</trkpt>
<trkpt lat="22.2995920" lon="114.0002689">
<ele>458.681</ele>
<time>2019-06-15T05:51:44.546Z</time>
</trkpt>
<trkpt lat="22.2995606" lon="114.0001750">
<ele>458.362</ele>
<time>2019-06-15T05:51:59.998Z</time>
</trkpt>
<trkpt lat="22.2995606" lon="114.0001750">
<ele>458.196</ele>
<time>2019-06-15T05:52:06.998Z</time>
</trkpt>
<trkpt lat="22.2995606" lon="114.0001750">
<ele>458.087</ele>
<time>2019-06-15T05:52:18.000Z</time>
</trkpt>
<trkpt lat="22.2995606" lon="114.0001750">
<ele>457.944</ele>
<time>2019-06-15T05:52:19.076Z</time>
</trkpt>
<trkpt lat="22.2995385" lon="114.0000634">
<ele>457.619</ele>
<time>2019-06-15T05:52:34.346Z</time>
</trkpt>
<trkpt lat="22.2995056" lon="113.9999640">
<ele>457.864</ele>
<time>2019-06-15T05:52:42.290Z</time>
</trkpt>
<trkpt lat="22.2995192" lon="113.9998610">
<ele>458.677</ele>
<time>2019-06-15T05:52:49.311Z</time>
</trkpt>
<trkpt lat="22.2995147" lon="113.9997543">
<ele>459.473</ele>
<time>2019-06-15T05:52:56.153Z</time>
</trkpt>
<trkpt lat="22.2994592" lon="113.9996690">
<ele>459.475</ele>
<time>2019-06-15T05:53:02.617Z</time>
</trkpt>
<trkpt lat="22.2993958" lon="113.9995893">
<ele>458.456</ele>
<time>2019-06-15T05:53:08.999Z</time>
</trkpt>
<trkpt lat="22.2993958" lon="113.9995893">
<ele>456.939</ele>
<time>2019-06-15T05:53:10.999Z</time>
</trkpt>
<trkpt lat="22.2993958" lon="113.9995893">
<ele>455.923</ele>
<time>2019-06-15T05:53:38.197Z</time>
</trkpt>
<trkpt lat="22.2993005" lon="113.9995157">
<ele>456.083</ele>
<time>2019-06-15T05:53:55.080Z</time>
</trkpt>
<trkpt lat="22.2992720" lon="113.9994186">
<ele>456.115</ele>
<time>2019-06-15T05:54:03.031Z</time>
</trkpt>
<trkpt lat="22.2992453" lon="113.9993224">
<ele>455.438</ele>
<time>2019-06-15T05:54:10.093Z</time>
</trkpt>
<trkpt lat="22.2991747" lon="113.9992478">
<ele>454.305</ele>
<time>2019-06-15T05:54:17.376Z</time>
</trkpt>
<trkpt lat="22.2991475" lon="113.9991428">
<ele>453.054</ele>
<time>2019-06-15T05:54:24.646Z</time>
</trkpt>
<trkpt lat="22.2991237" lon="113.9990489">
<ele>451.460</ele>
<time>2019-06-15T05:54:30.881Z</time>
</trkpt>
<trkpt lat="22.2990967" lon="113.9989534">
<ele>449.584</ele>
<time>2019-06-15T05:54:37.409Z</time>
</trkpt>
<trkpt lat="22.2990475" lon="113.9988602">
<ele>448.095</ele>
<time>2019-06-15T05:54:44.988Z</time>
</trkpt>
<trkpt lat="22.2990027" lon="113.9987641">
<ele>447.384</ele>
<time>2019-06-15T05:54:52.998Z</time>
</trkpt>
<trkpt lat="22.2990027" lon="113.9987641">
<ele>447.271</ele>
<time>2019-06-15T05:54:54.998Z</time>
</trkpt>
<trkpt lat="22.2990027" lon="113.9987641">
<ele>447.293</ele>
<time>2019-06-15T05:54:57.157Z</time>
</trkpt>
<trkpt lat="22.2989824" lon="113.9986655">
<ele>446.916</ele>
<time>2019-06-15T05:55:10.188Z</time>
</trkpt>
<trkpt lat="22.2989427" lon="113.9985695">
<ele>446.717</ele>
<time>2019-06-15T05:55:18.319Z</time>
</trkpt>
<trkpt lat="22.2989266" lon="113.9984629">
<ele>446.354</ele>
<time>2019-06-15T05:55:25.970Z</time>
</trkpt>
<trkpt lat="22.2989075" lon="113.9983625">
<ele>445.620</ele>
<time>2019-06-15T05:55:32.981Z</time>
</trkpt>
<trkpt lat="22.2988736" lon="113.9982680">
<ele>444.732</ele>
<time>2019-06-15T05:55:39.849Z</time>
</trkpt>
<trkpt lat="22.2988516" lon="113.9981703">
<ele>444.029</ele>
<time>2019-06-15T05:55:46.601Z</time>
</trkpt>
<trkpt lat="22.2988177" lon="113.9980706">
<ele>443.563</ele>
<time>2019-06-15T05:55:53.670Z</time>
</trkpt>
<trkpt lat="22.2988013" lon="113.9979681">
<ele>443.222</ele>
<time>2019-06-15T05:56:00.588Z</time>
</trkpt>
<trkpt lat="22.2987848" lon="113.9978679">
<ele>442.901</ele>
<time>2019-06-15T05:56:07.458Z</time>
</trkpt>
<trkpt lat="22.2987768" lon="113.9977684">
<ele>442.502</ele>
<time>2019-06-15T05:56:14.420Z</time>
</trkpt>
<trkpt lat="22.2987551" lon="113.9976641">
<ele>441.966</ele>
<time>2019-06-15T05:56:22.129Z</time>
</trkpt>
<trkpt lat="22.2987282" lon="113.9975625">
<ele>441.348</ele>
<time>2019-06-15T05:56:30.379Z</time>
</trkpt>
<trkpt lat="22.2987632" lon="113.9974723">
<ele>440.807</ele>
<time>2019-06-15T05:56:39.611Z</time>
</trkpt>
<trkpt lat="22.2987081" lon="113.9973935">
<ele>440.426</ele>
<time>2019-06-15T05:56:49.969Z</time>
</trkpt>
<trkpt lat="22.2986170" lon="113.9973684">
<ele>440.174</ele>
<time>2019-06-15T05:56:59.805Z</time>
</trkpt>
<trkpt lat="22.2985217" lon="113.9973770">
<ele>439.990</ele>
<time>2019-06-15T05:57:08.905Z</time>
</trkpt>
<trkpt lat="22.2984403" lon="113.9973267">
<ele>439.772</ele>
<time>2019-06-15T05:57:18.144Z</time>
</trkpt>
<trkpt lat="22.2983544" lon="113.9972778">
<ele>439.481</ele>
<time>2019-06-15T05:57:27.933Z</time>
</trkpt>
<trkpt lat="22.2982700" lon="113.9972216">
<ele>439.251</ele>
<time>2019-06-15T05:57:37.269Z</time>
</trkpt>
<trkpt lat="22.2981789" lon="113.9971783">
<ele>439.141</ele>
<time>2019-06-15T05:57:45.402Z</time>
</trkpt>
<trkpt lat="22.2981136" lon="113.9971045">
<ele>439.087</ele>
<time>2019-06-15T05:57:53.103Z</time>
</trkpt>
<trkpt lat="22.2980756" lon="113.9970053">
<ele>439.169</ele>
<time>2019-06-15T05:58:01.636Z</time>
</trkpt>
<trkpt lat="22.2980221" lon="113.9969256">
<ele>439.588</ele>
<time>2019-06-15T05:58:09.594Z</time>
</trkpt>
<trkpt lat="22.2979687" lon="113.9968414">
<ele>440.242</ele>
<time>2019-06-15T05:58:17.997Z</time>
</trkpt>
<trkpt lat="22.2979687" lon="113.9968414">
<ele>440.710</ele>
<time>2019-06-15T05:58:23.997Z</time>
</trkpt>
<trkpt lat="22.2979687" lon="113.9968414">
<ele>440.752</ele>
<time>2019-06-15T05:59:12.441Z</time>
</trkpt>
<trkpt lat="22.2980080" lon="113.9967180">
<ele>440.455</ele>
<time>2019-06-15T05:59:19.997Z</time>
</trkpt>
<trkpt lat="22.2980080" lon="113.9967180">
<ele>440.081</ele>
<time>2019-06-15T05:59:28.999Z</time>
</trkpt>
<trkpt lat="22.2980080" lon="113.9967180">
<ele>439.823</ele>
<time>2019-06-15T06:00:11.561Z</time>
</trkpt>
<trkpt lat="22.2979485" lon="113.9966442">
<ele>439.575</ele>
<time>2019-06-15T06:00:25.949Z</time>
</trkpt>
<trkpt lat="22.2978613" lon="113.9966154">
<ele>439.548</ele>
<time>2019-06-15T06:00:34.033Z</time>
</trkpt>
<trkpt lat="22.2977686" lon="113.9965840">
<ele>439.904</ele>
<time>2019-06-15T06:00:42.437Z</time>
</trkpt>
<trkpt lat="22.2977092" lon="113.9965033">
<ele>441.056</ele>
<time>2019-06-15T06:00:50.999Z</time>
</trkpt>
<trkpt lat="22.2977092" lon="113.9965033">
<ele>442.595</ele>
<time>2019-06-15T06:00:53.999Z</time>
</trkpt>
<trkpt lat="22.2977092" lon="113.9965033">
<ele>443.421</ele>
<time>2019-06-15T06:00:59.269Z</time>
</trkpt>
<trkpt lat="22.2976456" lon="113.9964287">
<ele>442.525</ele>
<time>2019-06-15T06:01:13.727Z</time>
</trkpt>
<trkpt lat="22.2975610" lon="113.9963708">
<ele>442.315</ele>
<time>2019-06-15T06:01:21.668Z</time>
</trkpt>
<trkpt lat="22.2974699" lon="113.9963447">
<ele>442.732</ele>
<time>2019-06-15T06:01:28.189Z</time>
</trkpt>
<trkpt lat="22.2973744" lon="113.9963264">
<ele>443.296</ele>
<time>2019-06-15T06:01:34.546Z</time>
</trkpt>
<trkpt lat="22.2972915" lon="113.9962833">
<ele>443.561</ele>
<time>2019-06-15T06:01:40.082Z</time>
</trkpt>
<trkpt lat="22.2972097" lon="113.9962367">
<ele>443.510</ele>
<time>2019-06-15T06:01:44.999Z</time>
</trkpt>
<trkpt lat="22.2972097" lon="113.9962367">
<ele>443.280</ele>
<time>2019-06-15T06:01:50.999Z</time>
</trkpt>
<trkpt lat="22.2972097" lon="113.9962367">
<ele>443.061</ele>
<time>2019-06-15T06:01:52.214Z</time>
</trkpt>
<trkpt lat="22.2971249" lon="113.9961500">
<ele>442.931</ele>
<time>2019-06-15T06:02:06.889Z</time>
</trkpt>
<trkpt lat="22.2970590" lon="113.9960705">
<ele>442.798</ele>
<time>2019-06-15T06:02:14.881Z</time>
</trkpt>
<trkpt lat="22.2969850" lon="113.9960135">
<ele>442.627</ele>
<time>2019-06-15T06:02:22.275Z</time>
</trkpt>
<trkpt lat="22.2969168" lon="113.9959499">
<ele>442.495</ele>
<time>2019-06-15T06:02:29.412Z</time>
</trkpt>
<trkpt lat="22.2968299" lon="113.9959229">
<ele>442.332</ele>
<time>2019-06-15T06:02:36.061Z</time>
</trkpt>
<trkpt lat="22.2967302" lon="113.9959146">
<ele>442.040</ele>
<time>2019-06-15T06:02:42.998Z</time>
</trkpt>
<trkpt lat="22.2967302" lon="113.9959146">
<ele>441.736</ele>
<time>2019-06-15T06:02:53.998Z</time>
</trkpt>
<trkpt lat="22.2967302" lon="113.9959146">
<ele>441.558</ele>
<time>2019-06-15T06:04:16.541Z</time>
</trkpt>
<trkpt lat="22.2966374" lon="113.9960139">
<ele>441.451</ele>
<time>2019-06-15T06:04:29.342Z</time>
</trkpt>
<trkpt lat="22.2965627" lon="113.9960698">
<ele>441.343</ele>
<time>2019-06-15T06:04:35.279Z</time>
</trkpt>
<trkpt lat="22.2964666" lon="113.9960623">
<ele>441.168</ele>
<time>2019-06-15T06:04:41.851Z</time>
</trkpt>
<trkpt lat="22.2964011" lon="113.9961503">
<ele>440.865</ele>
<time>2019-06-15T06:04:48.998Z</time>
</trkpt>
<trkpt lat="22.2964011" lon="113.9961503">
<ele>440.251</ele>
<time>2019-06-15T06:04:53.997Z</time>
</trkpt>
<trkpt lat="22.2964011" lon="113.9961503">
<ele>440.084</ele>
<time>2019-06-15T06:05:23.445Z</time>
</trkpt>
<trkpt lat="22.2962776" lon="113.9962430">
<ele>439.959</ele>
<time>2019-06-15T06:05:36.871Z</time>
</trkpt>
<trkpt lat="22.2961881" lon="113.9962783">
<ele>439.810</ele>
<time>2019-06-15T06:05:41.738Z</time>
</trkpt>
<trkpt lat="22.2961416" lon="113.9963782">
<ele>439.593</ele>
<time>2019-06-15T06:05:46.995Z</time>
</trkpt>
<trkpt lat="22.2960419" lon="113.9963930">
<ele>439.098</ele>
<time>2019-06-15T06:05:52.152Z</time>
</trkpt>
<trkpt lat="22.2959390" lon="113.9964341">
<ele>438.680</ele>
<time>2019-06-15T06:05:57.289Z</time>
</trkpt>
<trkpt lat="22.2958403" lon="113.9964783">
<ele>438.015</ele>
<time>2019-06-15T06:06:01.692Z</time>
</trkpt>
<trkpt lat="22.2957229" lon="113.9964611">
<ele>436.818</ele>
<time>2019-06-15T06:06:06.065Z</time>
</trkpt>
<trkpt lat="22.2956288" lon="113.9964042">
<ele>436.022</ele>
<time>2019-06-15T06:06:09.838Z</time>
</trkpt>
<trkpt lat="22.2955336" lon="113.9963634">
<ele>434.907</ele>
<time>2019-06-15T06:06:13.436Z</time>
</trkpt>
<trkpt lat="22.2954271" lon="113.9963415">
<ele>433.640</ele>
<time>2019-06-15T06:06:17.418Z</time>
</trkpt>
<trkpt lat="22.2953334" lon="113.9963203">
<ele>432.338</ele>
<time>2019-06-15T06:06:21.236Z</time>
</trkpt>
<trkpt lat="22.2952770" lon="113.9962358">
<ele>431.179</ele>
<time>2019-06-15T06:06:25.727Z</time>
</trkpt>
<trkpt lat="22.2951851" lon="113.9961934">
<ele>430.247</ele>
<time>2019-06-15T06:06:31.031Z</time>
</trkpt>
<trkpt lat="22.2951709" lon="113.9960822">
<ele>429.253</ele>
<time>2019-06-15T06:06:36.955Z</time>
</trkpt>
<trkpt lat="22.2950621" lon="113.9960934">
<ele>427.755</ele>
<time>2019-06-15T06:06:44.137Z</time>
</trkpt>
<trkpt lat="22.2949831" lon="113.9961436">
<ele>425.573</ele>
<time>2019-06-15T06:06:50.066Z</time>
</trkpt>
<trkpt lat="22.2949200" lon="113.9962139">
<ele>423.098</ele>
<time>2019-06-15T06:06:54.999Z</time>
</trkpt>
<trkpt lat="22.2949200" lon="113.9962139">
<ele>420.239</ele>
<time>2019-06-15T06:06:58.999Z</time>
</trkpt>
<trkpt lat="22.2949200" lon="113.9962139">
<ele>420.174</ele>
<time>2019-06-15T06:06:59.099Z</time>
</trkpt>
<trkpt lat="22.2948343" lon="113.9962873">
<ele>420.288</ele>
<time>2019-06-15T06:07:10.157Z</time>
</trkpt>
<trkpt lat="22.2947612" lon="113.9963564">
<ele>419.463</ele>
<time>2019-06-15T06:07:17.434Z</time>
</trkpt>
<trkpt lat="22.2946951" lon="113.9964363">
<ele>417.086</ele>
<time>2019-06-15T06:07:24.569Z</time>
</trkpt>
<trkpt lat="22.2946272" lon="113.9965101">
<ele>412.107</ele>
<time>2019-06-15T06:07:31.271Z</time>
</trkpt>
<trkpt lat="22.2945301" lon="113.9965275">
<ele>410.127</ele>
<time>2019-06-15T06:07:37.887Z</time>
</trkpt>
<trkpt lat="22.2944534" lon="113.9965881">
<ele>407.778</ele>
<time>2019-06-15T06:07:44.912Z</time>
</trkpt>
<trkpt lat="22.2943858" lon="113.9966568">
<ele>403.665</ele>
<time>2019-06-15T06:07:51.640Z</time>
</trkpt>
<trkpt lat="22.2942861" lon="113.9966834">
<ele>401.273</ele>
<time>2019-06-15T06:07:56.953Z</time>
</trkpt>
<trkpt lat="22.2941964" lon="113.9966893">
<ele>399.240</ele>
<time>2019-06-15T06:08:01.558Z</time>
</trkpt>
<trkpt lat="22.2941255" lon="113.9966286">
<ele>394.694</ele>
<time>2019-06-15T06:08:07.405Z</time>
</trkpt>
<trkpt lat="22.2940398" lon="113.9965757">
<ele>393.066</ele>
<time>2019-06-15T06:08:14.703Z</time>
</trkpt>
<trkpt lat="22.2939473" lon="113.9966122">
<ele>390.315</ele>
<time>2019-06-15T06:08:21.899Z</time>
</trkpt>
<trkpt lat="22.2938385" lon="113.9965983">
<ele>388.813</ele>
<time>2019-06-15T06:08:28.061Z</time>
</trkpt>
<trkpt lat="22.2937552" lon="113.9965027">
<ele>387.134</ele>
<time>2019-06-15T06:08:33.568Z</time>
</trkpt>
<trkpt lat="22.2937154" lon="113.9964032">
<ele>384.864</ele>
<time>2019-06-15T06:08:38.505Z</time>
</trkpt>
<trkpt lat="22.2936652" lon="113.9963125">
<ele>384.161</ele>
<time>2019-06-15T06:08:43.598Z</time>
</trkpt>
<trkpt lat="22.2935827" lon="113.9962329">
<ele>382.761</ele>
<time>2019-06-15T06:08:48.945Z</time>
</trkpt>
<trkpt lat="22.2935009" lon="113.9961363">
<ele>381.961</ele>
<time>2019-06-15T06:08:53.627Z</time>
</trkpt>
<trkpt lat="22.2934395" lon="113.9960620">
<ele>380.770</ele>
<time>2019-06-15T06:08:57.273Z</time>
</trkpt>
<trkpt lat="22.2933684" lon="113.9959946">
<ele>379.418</ele>
<time>2019-06-15T06:09:01.446Z</time>
</trkpt>
<trkpt lat="22.2932831" lon="113.9959414">
<ele>377.596</ele>
<time>2019-06-15T06:09:06.999Z</time>
</trkpt>
<trkpt lat="22.2932831" lon="113.9959414">
<ele>377.006</ele>
<time>2019-06-15T06:09:14.999Z</time>
</trkpt>
<trkpt lat="22.2932831" lon="113.9959414">
<ele>376.705</ele>
<time>2019-06-15T06:09:20.906Z</time>
</trkpt>
<trkpt lat="22.2931822" lon="113.9958769">
<ele>376.630</ele>
<time>2019-06-15T06:09:36.405Z</time>
</trkpt>
<trkpt lat="22.2931097" lon="113.9958163">
<ele>375.888</ele>
<time>2019-06-15T06:09:44.005Z</time>
</trkpt>
<trkpt lat="22.2930170" lon="113.9958052">
<ele>373.426</ele>
<time>2019-06-15T06:09:50.634Z</time>
</trkpt>
<trkpt lat="22.2929144" lon="113.9957532">
<ele>369.517</ele>
<time>2019-06-15T06:09:57.304Z</time>
</trkpt>
<trkpt lat="22.2928457" lon="113.9956772">
<ele>365.745</ele>
<time>2019-06-15T06:10:02.946Z</time>
</trkpt>
<trkpt lat="22.2928204" lon="113.9955723">
<ele>363.167</ele>
<time>2019-06-15T06:10:08.958Z</time>
</trkpt>
<trkpt lat="22.2927955" lon="113.9954680">
<ele>361.876</ele>
<time>2019-06-15T06:10:15.193Z</time>
</trkpt>
<trkpt lat="22.2927648" lon="113.9953764">
<ele>361.959</ele>
<time>2019-06-15T06:10:20.778Z</time>
</trkpt>
<trkpt lat="22.2926807" lon="113.9953208">
<ele>363.222</ele>
<time>2019-06-15T06:10:26.998Z</time>
</trkpt>
<trkpt lat="22.2926807" lon="113.9953208">
<ele>364.503</ele>
<time>2019-06-15T06:10:33.998Z</time>
</trkpt>
<trkpt lat="22.2926807" lon="113.9953208">
<ele>364.881</ele>
<time>2019-06-15T06:10:34.098Z</time>
</trkpt>
<trkpt lat="22.2925271" lon="113.9952058">
<ele>364.437</ele>
<time>2019-06-15T06:10:47.742Z</time>
</trkpt>
<trkpt lat="22.2924497" lon="113.9951520">
<ele>363.451</ele>
<time>2019-06-15T06:10:51.998Z</time>
</trkpt>
<trkpt lat="22.2924497" lon="113.9951520">
<ele>362.353</ele>
<time>2019-06-15T06:10:57.998Z</time>
</trkpt>
<trkpt lat="22.2924497" lon="113.9951520">
<ele>361.688</ele>
<time>2019-06-15T06:11:21.471Z</time>
</trkpt>
<trkpt lat="22.2923715" lon="113.9950699">
<ele>361.743</ele>
<time>2019-06-15T06:11:37.206Z</time>
</trkpt>
<trkpt lat="22.2923398" lon="113.9949670">
<ele>361.387</ele>
<time>2019-06-15T06:11:45.102Z</time>
</trkpt>
<trkpt lat="22.2923257" lon="113.9948559">
<ele>360.141</ele>
<time>2019-06-15T06:11:50.998Z</time>
</trkpt>
<trkpt lat="22.2923257" lon="113.9948559">
<ele>358.888</ele>
<time>2019-06-15T06:11:56.998Z</time>
</trkpt>
<trkpt lat="22.2923257" lon="113.9948559">
<ele>358.463</ele>
<time>2019-06-15T06:11:57.098Z</time>
</trkpt>
<trkpt lat="22.2922626" lon="113.9947345">
<ele>358.525</ele>
<time>2019-06-15T06:12:06.998Z</time>
</trkpt>
<trkpt lat="22.2922626" lon="113.9947345">
<ele>358.528</ele>
<time>2019-06-15T06:12:10.998Z</time>
</trkpt>
<trkpt lat="22.2922626" lon="113.9947345">
<ele>358.358</ele>
<time>2019-06-15T06:12:15.728Z</time>
</trkpt>
<trkpt lat="22.2922461" lon="113.9946339">
<ele>358.094</ele>
<time>2019-06-15T06:12:26.983Z</time>
</trkpt>
<trkpt lat="22.2921721" lon="113.9945641">
<ele>357.978</ele>
<time>2019-06-15T06:12:33.891Z</time>
</trkpt>
<trkpt lat="22.2921520" lon="113.9944617">
<ele>357.631</ele>
<time>2019-06-15T06:12:39.998Z</time>
</trkpt>
<trkpt lat="22.2921520" lon="113.9944617">
<ele>357.198</ele>
<time>2019-06-15T06:12:43.998Z</time>
</trkpt>
<trkpt lat="22.2921520" lon="113.9944617">
<ele>356.953</ele>
<time>2019-06-15T06:12:47.018Z</time>
</trkpt>
<trkpt lat="22.2921048" lon="113.9943607">
<ele>356.855</ele>
<time>2019-06-15T06:12:58.482Z</time>
</trkpt>
<trkpt lat="22.2920257" lon="113.9943143">
<ele>356.546</ele>
<time>2019-06-15T06:13:04.997Z</time>
</trkpt>
<trkpt lat="22.2920257" lon="113.9943143">
<ele>355.887</ele>
<time>2019-06-15T06:13:11.997Z</time>
</trkpt>
<trkpt lat="22.2920257" lon="113.9943143">
<ele>355.298</ele>
<time>2019-06-15T06:13:13.541Z</time>
</trkpt>
<trkpt lat="22.2919624" lon="113.9944157">
<ele>355.291</ele>
<time>2019-06-15T06:13:31.899Z</time>
</trkpt>
<trkpt lat="22.2918764" lon="113.9944706">
<ele>354.667</ele>
<time>2019-06-15T06:13:40.655Z</time>
</trkpt>
<trkpt lat="22.2918255" lon="113.9945520">
<ele>352.536</ele>
<time>2019-06-15T06:13:47.000Z</time>
</trkpt>
<trkpt lat="22.2917501" lon="113.9946137">
<ele>348.391</ele>
<time>2019-06-15T06:13:52.241Z</time>
</trkpt>
<trkpt lat="22.2916600" lon="113.9946348">
<ele>347.762</ele>
<time>2019-06-15T06:13:56.748Z</time>
</trkpt>
<trkpt lat="22.2915761" lon="113.9946911">
<ele>347.107</ele>
<time>2019-06-15T06:14:01.093Z</time>
</trkpt>
<trkpt lat="22.2914836" lon="113.9947121">
<ele>345.807</ele>
<time>2019-06-15T06:14:05.384Z</time>
</trkpt>
<trkpt lat="22.2913901" lon="113.9946742">
<ele>342.786</ele>
<time>2019-06-15T06:14:09.999Z</time>
</trkpt>
<trkpt lat="22.2913901" lon="113.9946742">
<ele>341.892</ele>
<time>2019-06-15T06:14:11.999Z</time>
</trkpt>
<trkpt lat="22.2913901" lon="113.9946742">
<ele>341.588</ele>
<time>2019-06-15T06:14:13.775Z</time>
</trkpt>
<trkpt lat="22.2913034" lon="113.9946058">
<ele>341.532</ele>
<time>2019-06-15T06:14:26.825Z</time>
</trkpt>
<trkpt lat="22.2912169" lon="113.9945549">
<ele>340.580</ele>
<time>2019-06-15T06:14:34.275Z</time>
</trkpt>
<trkpt lat="22.2911283" lon="113.9945182">
<ele>338.172</ele>
<time>2019-06-15T06:14:40.845Z</time>
</trkpt>
<trkpt lat="22.2910632" lon="113.9944482">
<ele>335.751</ele>
<time>2019-06-15T06:14:46.873Z</time>
</trkpt>
<trkpt lat="22.2909731" lon="113.9943974">
<ele>334.691</ele>
<time>2019-06-15T06:14:53.501Z</time>
</trkpt>
<trkpt lat="22.2908766" lon="113.9943603">
<ele>334.171</ele>
<time>2019-06-15T06:15:00.124Z</time>
</trkpt>
<trkpt lat="22.2908003" lon="113.9943054">
<ele>333.212</ele>
<time>2019-06-15T06:15:05.891Z</time>
</trkpt>
<trkpt lat="22.2907478" lon="113.9942156">
<ele>332.122</ele>
<time>2019-06-15T06:15:11.994Z</time>
</trkpt>
<trkpt lat="22.2906691" lon="113.9941457">
<ele>331.516</ele>
<time>2019-06-15T06:15:18.549Z</time>
</trkpt>
<trkpt lat="22.2905823" lon="113.9941204">
<ele>331.312</ele>
<time>2019-06-15T06:15:25.367Z</time>
</trkpt>
<trkpt lat="22.2906110" lon="113.9940203">
<ele>331.206</ele>
<time>2019-06-15T06:15:33.999Z</time>
</trkpt>
<trkpt lat="22.2906110" lon="113.9940203">
<ele>331.039</ele>
<time>2019-06-15T06:15:40.999Z</time>
</trkpt>
<trkpt lat="22.2906110" lon="113.9940203">
<ele>330.854</ele>
<time>2019-06-15T06:15:44.219Z</time>
</trkpt>
<trkpt lat="22.2905949" lon="113.9941172">
<ele>330.649</ele>
<time>2019-06-15T06:16:00.072Z</time>
</trkpt>
<trkpt lat="22.2905044" lon="113.9941753">
<ele>330.239</ele>
<time>2019-06-15T06:16:06.733Z</time>
</trkpt>
<trkpt lat="22.2904143" lon="113.9942443">
<ele>328.120</ele>
<time>2019-06-15T06:16:12.071Z</time>
</trkpt>
<trkpt lat="22.2903201" lon="113.9942369">
<ele>327.416</ele>
<time>2019-06-15T06:16:17.122Z</time>
</trkpt>
<trkpt lat="22.2902299" lon="113.9942485">
<ele>326.820</ele>
<time>2019-06-15T06:16:22.991Z</time>
</trkpt>
<trkpt lat="22.2901538" lon="113.9943109">
<ele>326.539</ele>
<time>2019-06-15T06:16:29.952Z</time>
</trkpt>
<trkpt lat="22.2900677" lon="113.9943637">
<ele>326.111</ele>
<time>2019-06-15T06:16:37.090Z</time>
</trkpt>
<trkpt lat="22.2899797" lon="113.9943276">
<ele>325.648</ele>
<time>2019-06-15T06:16:43.999Z</time>
</trkpt>
<trkpt lat="22.2899797" lon="113.9943276">
<ele>325.258</ele>
<time>2019-06-15T06:16:50.999Z</time>
</trkpt>
<trkpt lat="22.2899797" lon="113.9943276">
<ele>325.002</ele>
<time>2019-06-15T06:17:15.701Z</time>
</trkpt>
<trkpt lat="22.2898517" lon="113.9943012">
<ele>324.885</ele>
<time>2019-06-15T06:17:34.943Z</time>
</trkpt>
<trkpt lat="22.2897605" lon="113.9942639">
<ele>324.705</ele>
<time>2019-06-15T06:17:42.457Z</time>
</trkpt>
<trkpt lat="22.2896674" lon="113.9942632">
<ele>324.308</ele>
<time>2019-06-15T06:17:48.887Z</time>
</trkpt>
<trkpt lat="22.2895787" lon="113.9943166">
<ele>323.867</ele>
<time>2019-06-15T06:17:55.684Z</time>
</trkpt>
<trkpt lat="22.2895056" lon="113.9943796">
<ele>323.371</ele>
<time>2019-06-15T06:18:02.090Z</time>
</trkpt>
<trkpt lat="22.2894113" lon="113.9944179">
<ele>322.640</ele>
<time>2019-06-15T06:18:09.631Z</time>
</trkpt>
<trkpt lat="22.2893135" lon="113.9944089">
<ele>321.688</ele>
<time>2019-06-15T06:18:17.024Z</time>
</trkpt>
<trkpt lat="22.2892141" lon="113.9943997">
<ele>320.548</ele>
<time>2019-06-15T06:18:23.959Z</time>
</trkpt>
<trkpt lat="22.2891210" lon="113.9944116">
<ele>319.424</ele>
<time>2019-06-15T06:18:30.151Z</time>
</trkpt>
<trkpt lat="22.2890221" lon="113.9944287">
<ele>318.621</ele>
<time>2019-06-15T06:18:36.161Z</time>
</trkpt>
<trkpt lat="22.2889235" lon="113.9944762">
<ele>317.862</ele>
<time>2019-06-15T06:18:41.100Z</time>
</trkpt>
<trkpt lat="22.2888156" lon="113.9944761">
<ele>316.789</ele>
<time>2019-06-15T06:18:45.303Z</time>
</trkpt>
<trkpt lat="22.2887335" lon="113.9944238">
<ele>315.588</ele>
<time>2019-06-15T06:18:48.650Z</time>
</trkpt>
<trkpt lat="22.2886596" lon="113.9943663">
<ele>314.631</ele>
<time>2019-06-15T06:18:51.836Z</time>
</trkpt>
<trkpt lat="22.2885869" lon="113.9942757">
<ele>313.780</ele>
<time>2019-06-15T06:18:56.002Z</time>
</trkpt>
<trkpt lat="22.2885199" lon="113.9942049">
<ele>313.664</ele>
<time>2019-06-15T06:19:00.570Z</time>
</trkpt>
<trkpt lat="22.2884413" lon="113.9941321">
<ele>313.418</ele>
<time>2019-06-15T06:19:07.008Z</time>
</trkpt>
<trkpt lat="22.2883550" lon="113.9941051">
<ele>313.281</ele>
<time>2019-06-15T06:19:13.985Z</time>
</trkpt>
<trkpt lat="22.2882588" lon="113.9940718">
<ele>313.146</ele>
<time>2019-06-15T06:19:22.017Z</time>
</trkpt>
<trkpt lat="22.2881598" lon="113.9940778">
<ele>313.466</ele>
<time>2019-06-15T06:19:29.800Z</time>
</trkpt>
<trkpt lat="22.2880642" lon="113.9941091">
<ele>314.661</ele>
<time>2019-06-15T06:19:37.471Z</time>
</trkpt>
<trkpt lat="22.2879733" lon="113.9941389">
<ele>316.211</ele>
<time>2019-06-15T06:19:44.533Z</time>
</trkpt>
<trkpt lat="22.2878862" lon="113.9941634">
<ele>317.367</ele>
<time>2019-06-15T06:19:51.262Z</time>
</trkpt>
<trkpt lat="22.2877951" lon="113.9942022">
<ele>318.263</ele>
<time>2019-06-15T06:19:58.874Z</time>
</trkpt>
<trkpt lat="22.2877309" lon="113.9942835">
<ele>319.183</ele>
<time>2019-06-15T06:20:06.720Z</time>
</trkpt>
<trkpt lat="22.2877155" lon="113.9943811">
<ele>319.490</ele>
<time>2019-06-15T06:20:13.628Z</time>
</trkpt>
<trkpt lat="22.2876636" lon="113.9944817">
<ele>318.367</ele>
<time>2019-06-15T06:20:20.890Z</time>
</trkpt>
<trkpt lat="22.2875962" lon="113.9945554">
<ele>316.059</ele>
<time>2019-06-15T06:20:26.625Z</time>
</trkpt>
<trkpt lat="22.2875366" lon="113.9946345">
<ele>311.500</ele>
<time>2019-06-15T06:20:32.141Z</time>
</trkpt>
<trkpt lat="22.2874452" lon="113.9946673">
<ele>309.159</ele>
<time>2019-06-15T06:20:37.947Z</time>
</trkpt>
<trkpt lat="22.2873504" lon="113.9946782">
<ele>306.574</ele>
<time>2019-06-15T06:20:43.819Z</time>
</trkpt>
<trkpt lat="22.2872660" lon="113.9947354">
<ele>302.335</ele>
<time>2019-06-15T06:20:50.091Z</time>
</trkpt>
<trkpt lat="22.2871999" lon="113.9948077">
<ele>300.718</ele>
<time>2019-06-15T06:20:56.203Z</time>
</trkpt>
<trkpt lat="22.2870907" lon="113.9948247">
<ele>298.506</ele>
<time>2019-06-15T06:21:03.007Z</time>
</trkpt>
<trkpt lat="22.2869915" lon="113.9948460">
<ele>295.638</ele>
<time>2019-06-15T06:21:09.334Z</time>
</trkpt>
<trkpt lat="22.2869418" lon="113.9949294">
<ele>292.401</ele>
<time>2019-06-15T06:21:16.002Z</time>
</trkpt>
<trkpt lat="22.2868475" lon="113.9949582">
<ele>289.493</ele>
<time>2019-06-15T06:21:25.679Z</time>
</trkpt>
<trkpt lat="22.2867692" lon="113.9949050">
<ele>288.351</ele>
<time>2019-06-15T06:21:33.822Z</time>
</trkpt>
<trkpt lat="22.2867109" lon="113.9948255">
<ele>289.331</ele>
<time>2019-06-15T06:21:40.143Z</time>
</trkpt>
<trkpt lat="22.2866470" lon="113.9947445">
<ele>290.728</ele>
<time>2019-06-15T06:21:46.353Z</time>
</trkpt>
<trkpt lat="22.2865921" lon="113.9946623">
<ele>290.587</ele>
<time>2019-06-15T06:21:52.517Z</time>
</trkpt>
<trkpt lat="22.2865800" lon="113.9945572">
<ele>288.639</ele>
<time>2019-06-15T06:21:59.456Z</time>
</trkpt>
<trkpt lat="22.2865484" lon="113.9944523">
<ele>285.987</ele>
<time>2019-06-15T06:22:06.826Z</time>
</trkpt>
<trkpt lat="22.2864676" lon="113.9943809">
<ele>283.674</ele>
<time>2019-06-15T06:22:13.597Z</time>
</trkpt>
<trkpt lat="22.2863967" lon="113.9943200">
<ele>281.837</ele>
<time>2019-06-15T06:22:19.136Z</time>
</trkpt>
<trkpt lat="22.2863420" lon="113.9942296">
<ele>280.302</ele>
<time>2019-06-15T06:22:25.222Z</time>
</trkpt>
<trkpt lat="22.2862743" lon="113.9941657">
<ele>278.951</ele>
<time>2019-06-15T06:22:30.800Z</time>
</trkpt>
<trkpt lat="22.2861926" lon="113.9941129">
<ele>277.711</ele>
<time>2019-06-15T06:22:36.788Z</time>
</trkpt>
<trkpt lat="22.2861295" lon="113.9940400">
<ele>276.585</ele>
<time>2019-06-15T06:22:42.653Z</time>
</trkpt>
<trkpt lat="22.2860776" lon="113.9939517">
<ele>275.566</ele>
<time>2019-06-15T06:22:48.991Z</time>
</trkpt>
<trkpt lat="22.2860317" lon="113.9938557">
<ele>274.687</ele>
<time>2019-06-15T06:22:55.830Z</time>
</trkpt>
<trkpt lat="22.2860049" lon="113.9937525">
<ele>274.080</ele>
<time>2019-06-15T06:23:02.672Z</time>
</trkpt>
<trkpt lat="22.2859862" lon="113.9936436">
<ele>273.730</ele>
<time>2019-06-15T06:23:09.776Z</time>
</trkpt>
<trkpt lat="22.2859657" lon="113.9935386">
<ele>273.494</ele>
<time>2019-06-15T06:23:17.842Z</time>
</trkpt>
<trkpt lat="22.2859210" lon="113.9934506">
<ele>273.254</ele>
<time>2019-06-15T06:23:26.212Z</time>
</trkpt>
<trkpt lat="22.2858951" lon="113.9933491">
<ele>272.815</ele>
<time>2019-06-15T06:23:33.999Z</time>
</trkpt>
<trkpt lat="22.2858500" lon="113.9932529">
<ele>272.106</ele>
<time>2019-06-15T06:23:41.073Z</time>
</trkpt>
<trkpt lat="22.2857748" lon="113.9931809">
<ele>271.309</ele>
<time>2019-06-15T06:23:47.997Z</time>
</trkpt>
<trkpt lat="22.2857748" lon="113.9931809">
<ele>270.692</ele>
<time>2019-06-15T06:23:56.997Z</time>
</trkpt>
<trkpt lat="22.2857748" lon="113.9931809">
<ele>270.376</ele>
<time>2019-06-15T06:23:57.351Z</time>
</trkpt>
<trkpt lat="22.2857039" lon="113.9930788">
<ele>270.297</ele>
<time>2019-06-15T06:24:13.010Z</time>
</trkpt>
<trkpt lat="22.2856251" lon="113.9930191">
<ele>270.103</ele>
<time>2019-06-15T06:24:21.274Z</time>
</trkpt>
<trkpt lat="22.2855822" lon="113.9929258">
<ele>269.435</ele>
<time>2019-06-15T06:24:28.800Z</time>
</trkpt>
<trkpt lat="22.2855209" lon="113.9928546">
<ele>268.386</ele>
<time>2019-06-15T06:24:35.695Z</time>
</trkpt>
<trkpt lat="22.2854418" lon="113.9927991">
<ele>267.333</ele>
<time>2019-06-15T06:24:42.810Z</time>
</trkpt>
<trkpt lat="22.2853980" lon="113.9927020">
<ele>266.497</ele>
<time>2019-06-15T06:24:50.438Z</time>
</trkpt>
<trkpt lat="22.2853592" lon="113.9926037">
<ele>265.814</ele>
<time>2019-06-15T06:24:57.839Z</time>
</trkpt>
<trkpt lat="22.2853121" lon="113.9925107">
<ele>265.069</ele>
<time>2019-06-15T06:25:05.904Z</time>
</trkpt>
<trkpt lat="22.2853240" lon="113.9924062">
<ele>264.318</ele>
<time>2019-06-15T06:25:14.732Z</time>
</trkpt>
<trkpt lat="22.2853037" lon="113.9923066">
<ele>263.832</ele>
<time>2019-06-15T06:25:23.262Z</time>
</trkpt>
<trkpt lat="22.2852717" lon="113.9922133">
<ele>263.676</ele>
<time>2019-06-15T06:25:30.112Z</time>
</trkpt>
<trkpt lat="22.2852271" lon="113.9921114">
<ele>263.496</ele>
<time>2019-06-15T06:25:36.569Z</time>
</trkpt>
<trkpt lat="22.2851631" lon="113.9920379">
<ele>263.195</ele>
<time>2019-06-15T06:25:42.114Z</time>
</trkpt>
<trkpt lat="22.2850743" lon="113.9919877">
<ele>262.484</ele>
<time>2019-06-15T06:25:48.529Z</time>
</trkpt>
<trkpt lat="22.2850217" lon="113.9918947">
<ele>261.842</ele>
<time>2019-06-15T06:25:55.866Z</time>
</trkpt>
<trkpt lat="22.2849744" lon="113.9918043">
<ele>260.904</ele>
<time>2019-06-15T06:26:03.657Z</time>
</trkpt>
<trkpt lat="22.2848812" lon="113.9917552">
<ele>260.045</ele>
<time>2019-06-15T06:26:12.053Z</time>
</trkpt>
<trkpt lat="22.2847811" lon="113.9917436">
<ele>259.547</ele>
<time>2019-06-15T06:26:19.348Z</time>
</trkpt>
<trkpt lat="22.2846786" lon="113.9917233">
<ele>259.266</ele>
<time>2019-06-15T06:26:26.594Z</time>
</trkpt>
<trkpt lat="22.2845988" lon="113.9916673">
<ele>258.828</ele>
<time>2019-06-15T06:26:33.266Z</time>
</trkpt>
<trkpt lat="22.2845176" lon="113.9916061">
<ele>258.001</ele>
<time>2019-06-15T06:26:40.107Z</time>
</trkpt>
<trkpt lat="22.2844153" lon="113.9915959">
<ele>256.055</ele>
<time>2019-06-15T06:26:47.091Z</time>
</trkpt>
<trkpt lat="22.2843246" lon="113.9916250">
<ele>254.945</ele>
<time>2019-06-15T06:26:53.519Z</time>
</trkpt>
<trkpt lat="22.2842491" lon="113.9916843">
<ele>252.630</ele>
<time>2019-06-15T06:26:59.996Z</time>
</trkpt>
<trkpt lat="22.2842491" lon="113.9916843">
<ele>252.005</ele>
<time>2019-06-15T06:27:07.996Z</time>
</trkpt>
<trkpt lat="22.2842491" lon="113.9916843">
<ele>251.800</ele>
<time>2019-06-15T06:27:08.096Z</time>
</trkpt>
<trkpt lat="22.2840798" lon="113.9917516">
<ele>251.783</ele>
<time>2019-06-15T06:27:30.409Z</time>
</trkpt>
<trkpt lat="22.2840059" lon="113.9916838">
<ele>250.837</ele>
<time>2019-06-15T06:27:37.849Z</time>
</trkpt>
<trkpt lat="22.2839433" lon="113.9915942">
<ele>248.134</ele>
<time>2019-06-15T06:27:45.169Z</time>
</trkpt>
<trkpt lat="22.2838707" lon="113.9915357">
<ele>244.574</ele>
<time>2019-06-15T06:27:50.879Z</time>
</trkpt>
<trkpt lat="22.2837978" lon="113.9914529">
<ele>241.676</ele>
<time>2019-06-15T06:27:57.369Z</time>
</trkpt>
<trkpt lat="22.2837392" lon="113.9913634">
<ele>239.895</ele>
<time>2019-06-15T06:28:03.716Z</time>
</trkpt>
<trkpt lat="22.2836809" lon="113.9912852">
<ele>239.001</ele>
<time>2019-06-15T06:28:09.805Z</time>
</trkpt>
<trkpt lat="22.2836404" lon="113.9911914">
<ele>238.478</ele>
<time>2019-06-15T06:28:16.230Z</time>
</trkpt>
<trkpt lat="22.2835969" lon="113.9910976">
<ele>237.889</ele>
<time>2019-06-15T06:28:22.669Z</time>
</trkpt>
<trkpt lat="22.2835628" lon="113.9909988">
<ele>237.192</ele>
<time>2019-06-15T06:28:29.020Z</time>
</trkpt>
<trkpt lat="22.2835163" lon="113.9909032">
<ele>236.585</ele>
<time>2019-06-15T06:28:35.474Z</time>
</trkpt>
<trkpt lat="22.2834706" lon="113.9908066">
<ele>236.049</ele>
<time>2019-06-15T06:28:41.903Z</time>
</trkpt>
<trkpt lat="22.2834250" lon="113.9907179">
<ele>235.497</ele>
<time>2019-06-15T06:28:47.999Z</time>
</trkpt>
<trkpt lat="22.2834250" lon="113.9907179">
<ele>235.052</ele>
<time>2019-06-15T06:28:57.999Z</time>
</trkpt>
<trkpt lat="22.2834250" lon="113.9907179">
<ele>234.817</ele>
<time>2019-06-15T06:28:59.417Z</time>
</trkpt>
<trkpt lat="22.2833699" lon="113.9906211">
<ele>234.744</ele>
<time>2019-06-15T06:29:16.481Z</time>
</trkpt>
<trkpt lat="22.2833328" lon="113.9905236">
<ele>234.312</ele>
<time>2019-06-15T06:29:26.179Z</time>
</trkpt>
<trkpt lat="22.2833213" lon="113.9904189">
<ele>232.979</ele>
<time>2019-06-15T06:29:33.935Z</time>
</trkpt>
<trkpt lat="22.2833296" lon="113.9903046">
<ele>231.165</ele>
<time>2019-06-15T06:29:41.072Z</time>
</trkpt>
<trkpt lat="22.2833318" lon="113.9902073">
<ele>229.698</ele>
<time>2019-06-15T06:29:46.665Z</time>
</trkpt>
<trkpt lat="22.2833369" lon="113.9901057">
<ele>228.676</ele>
<time>2019-06-15T06:29:52.562Z</time>
</trkpt>
<trkpt lat="22.2833368" lon="113.9899958">
<ele>227.922</ele>
<time>2019-06-15T06:29:59.266Z</time>
</trkpt>
<trkpt lat="22.2833265" lon="113.9898970">
<ele>227.316</ele>
<time>2019-06-15T06:30:05.631Z</time>
</trkpt>
<trkpt lat="22.2833001" lon="113.9897924">
<ele>226.448</ele>
<time>2019-06-15T06:30:12.754Z</time>
</trkpt>
<trkpt lat="22.2832136" lon="113.9897400">
<ele>225.046</ele>
<time>2019-06-15T06:30:19.889Z</time>
</trkpt>
<trkpt lat="22.2831555" lon="113.9896633">
<ele>223.426</ele>
<time>2019-06-15T06:30:26.624Z</time>
</trkpt>
<trkpt lat="22.2831409" lon="113.9895648">
<ele>221.976</ele>
<time>2019-06-15T06:30:33.457Z</time>
</trkpt>
<trkpt lat="22.2831382" lon="113.9894605">
<ele>220.793</ele>
<time>2019-06-15T06:30:40.776Z</time>
</trkpt>
<trkpt lat="22.2831113" lon="113.9893597">
<ele>219.751</ele>
<time>2019-06-15T06:30:48.556Z</time>
</trkpt>
<trkpt lat="22.2831417" lon="113.9892560">
<ele>218.616</ele>
<time>2019-06-15T06:30:57.008Z</time>
</trkpt>
<trkpt lat="22.2831335" lon="113.9891529">
<ele>217.308</ele>
<time>2019-06-15T06:31:04.980Z</time>
</trkpt>
<trkpt lat="22.2830840" lon="113.9890591">
<ele>215.732</ele>
<time>2019-06-15T06:31:13.073Z</time>
</trkpt>
<trkpt lat="22.2830042" lon="113.9889916">
<ele>213.748</ele>
<time>2019-06-15T06:31:20.522Z</time>
</trkpt>
<trkpt lat="22.2829383" lon="113.9889149">
<ele>211.441</ele>
<time>2019-06-15T06:31:27.174Z</time>
</trkpt>
<trkpt lat="22.2829018" lon="113.9888105">
<ele>209.127</ele>
<time>2019-06-15T06:31:34.261Z</time>
</trkpt>
<trkpt lat="22.2828571" lon="113.9887240">
<ele>207.074</ele>
<time>2019-06-15T06:31:40.684Z</time>
</trkpt>
<trkpt lat="22.2828134" lon="113.9886324">
<ele>205.346</ele>
<time>2019-06-15T06:31:47.514Z</time>
</trkpt>
<trkpt lat="22.2828160" lon="113.9885328">
<ele>203.712</ele>
<time>2019-06-15T06:31:54.296Z</time>
</trkpt>
<trkpt lat="22.2828426" lon="113.9884309">
<ele>201.989</ele>
<time>2019-06-15T06:32:01.807Z</time>
</trkpt>
<trkpt lat="22.2828997" lon="113.9883463">
<ele>200.310</ele>
<time>2019-06-15T06:32:09.750Z</time>
</trkpt>
<trkpt lat="22.2828847" lon="113.9882491">
<ele>198.881</ele>
<time>2019-06-15T06:32:17.511Z</time>
</trkpt>
<trkpt lat="22.2828343" lon="113.9881658">
<ele>197.583</ele>
<time>2019-06-15T06:32:24.708Z</time>
</trkpt>
<trkpt lat="22.2827586" lon="113.9881109">
<ele>196.273</ele>
<time>2019-06-15T06:32:31.576Z</time>
</trkpt>
<trkpt lat="22.2826886" lon="113.9880340">
<ele>194.897</ele>
<time>2019-06-15T06:32:39.719Z</time>
</trkpt>
<trkpt lat="22.2827129" lon="113.9879394">
<ele>193.205</ele>
<time>2019-06-15T06:32:47.250Z</time>
</trkpt>
<trkpt lat="22.2827330" lon="113.9878407">
<ele>191.200</ele>
<time>2019-06-15T06:32:53.988Z</time>
</trkpt>
<trkpt lat="22.2827444" lon="113.9877403">
<ele>189.437</ele>
<time>2019-06-15T06:33:00.472Z</time>
</trkpt>
<trkpt lat="22.2827095" lon="113.9876346">
<ele>188.190</ele>
<time>2019-06-15T06:33:08.395Z</time>
</trkpt>
<trkpt lat="22.2826725" lon="113.9875404">
<ele>187.204</ele>
<time>2019-06-15T06:33:15.689Z</time>
</trkpt>
<trkpt lat="22.2826501" lon="113.9874374">
<ele>186.347</ele>
<time>2019-06-15T06:33:22.626Z</time>
</trkpt>
<trkpt lat="22.2826869" lon="113.9873442">
<ele>185.695</ele>
<time>2019-06-15T06:33:29.254Z</time>
</trkpt>
<trkpt lat="22.2827053" lon="113.9872369">
<ele>185.258</ele>
<time>2019-06-15T06:33:36.155Z</time>
</trkpt>
<trkpt lat="22.2826411" lon="113.9871672">
<ele>185.002</ele>
<time>2019-06-15T06:33:42.183Z</time>
</trkpt>
<trkpt lat="22.2825491" lon="113.9871598">
<ele>184.886</ele>
<time>2019-06-15T06:33:48.639Z</time>
</trkpt>
<trkpt lat="22.2825394" lon="113.9870584">
<ele>184.876</ele>
<time>2019-06-15T06:33:56.053Z</time>
</trkpt>
<trkpt lat="22.2825942" lon="113.9869670">
<ele>184.956</ele>
<time>2019-06-15T06:34:03.713Z</time>
</trkpt>
<trkpt lat="22.2826526" lon="113.9868912">
<ele>185.073</ele>
<time>2019-06-15T06:34:09.805Z</time>
</trkpt>
<trkpt lat="22.2827054" lon="113.9868026">
<ele>185.154</ele>
<time>2019-06-15T06:34:15.953Z</time>
</trkpt>
<trkpt lat="22.2826970" lon="113.9867025">
<ele>185.493</ele>
<time>2019-06-15T06:34:21.998Z</time>
</trkpt>
<trkpt lat="22.2826970" lon="113.9867025">
<ele>186.300</ele>
<time>2019-06-15T06:34:27.998Z</time>
</trkpt>
<trkpt lat="22.2826970" lon="113.9867025">
<ele>186.937</ele>
<time>2019-06-15T06:34:41.291Z</time>
</trkpt>
<trkpt lat="22.2826218" lon="113.9865845">
<ele>186.745</ele>
<time>2019-06-15T06:34:58.733Z</time>
</trkpt>
<trkpt lat="22.2826690" lon="113.9864848">
<ele>186.121</ele>
<time>2019-06-15T06:35:07.183Z</time>
</trkpt>
<trkpt lat="22.2827050" lon="113.9863869">
<ele>185.670</ele>
<time>2019-06-15T06:35:13.607Z</time>
</trkpt>
<trkpt lat="22.2827101" lon="113.9862880">
<ele>184.863</ele>
<time>2019-06-15T06:35:19.329Z</time>
</trkpt>
<trkpt lat="22.2827053" lon="113.9861831">
<ele>183.235</ele>
<time>2019-06-15T06:35:25.359Z</time>
</trkpt>
<trkpt lat="22.2826723" lon="113.9860775">
<ele>181.661</ele>
<time>2019-06-15T06:35:31.952Z</time>
</trkpt>
<trkpt lat="22.2826066" lon="113.9859875">
<ele>181.053</ele>
<time>2019-06-15T06:35:38.944Z</time>
</trkpt>
<trkpt lat="22.2825663" lon="113.9858947">
<ele>181.251</ele>
<time>2019-06-15T06:35:45.394Z</time>
</trkpt>
<trkpt lat="22.2825441" lon="113.9857878">
<ele>181.681</ele>
<time>2019-06-15T06:35:52.275Z</time>
</trkpt>
<trkpt lat="22.2825068" lon="113.9856945">
<ele>181.945</ele>
<time>2019-06-15T06:35:58.454Z</time>
</trkpt>
<trkpt lat="22.2824783" lon="113.9855917">
<ele>182.123</ele>
<time>2019-06-15T06:36:04.926Z</time>
</trkpt>
<trkpt lat="22.2824681" lon="113.9854806">
<ele>182.421</ele>
<time>2019-06-15T06:36:11.716Z</time>
</trkpt>
<trkpt lat="22.2824422" lon="113.9853752">
<ele>182.778</ele>
<time>2019-06-15T06:36:18.439Z</time>
</trkpt>
<trkpt lat="22.2824128" lon="113.9852686">
<ele>183.005</ele>
<time>2019-06-15T06:36:25.309Z</time>
</trkpt>
<trkpt lat="22.2823796" lon="113.9851665">
<ele>183.169</ele>
<time>2019-06-15T06:36:32.086Z</time>
</trkpt>
<trkpt lat="22.2823330" lon="113.9850790">
<ele>183.568</ele>
<time>2019-06-15T06:36:38.585Z</time>
</trkpt>
<trkpt lat="22.2822775" lon="113.9849952">
<ele>184.225</ele>
<time>2019-06-15T06:36:45.336Z</time>
</trkpt>
<trkpt lat="22.2822320" lon="113.9849010">
<ele>184.821</ele>
<time>2019-06-15T06:36:52.270Z</time>
</trkpt>
<trkpt lat="22.2821796" lon="113.9848121">
<ele>185.173</ele>
<time>2019-06-15T06:36:59.091Z</time>
</trkpt>
<trkpt lat="22.2821286" lon="113.9847236">
<ele>185.316</ele>
<time>2019-06-15T06:37:05.813Z</time>
</trkpt>
<trkpt lat="22.2820921" lon="113.9846269">
<ele>185.395</ele>
<time>2019-06-15T06:37:12.650Z</time>
</trkpt>
<trkpt lat="22.2820249" lon="113.9845452">
<ele>185.546</ele>
<time>2019-06-15T06:37:20.009Z</time>
</trkpt>
<trkpt lat="22.2819531" lon="113.9844731">
<ele>185.549</ele>
<time>2019-06-15T06:37:27.053Z</time>
</trkpt>
<trkpt lat="22.2818813" lon="113.9844138">
<ele>185.211</ele>
<time>2019-06-15T06:37:33.158Z</time>
</trkpt>
<trkpt lat="22.2818035" lon="113.9843632">
<ele>184.891</ele>
<time>2019-06-15T06:37:39.038Z</time>
</trkpt>
<trkpt lat="22.2817207" lon="113.9843181">
<ele>184.931</ele>
<time>2019-06-15T06:37:44.954Z</time>
</trkpt>
<trkpt lat="22.2816675" lon="113.9842263">
<ele>185.166</ele>
<time>2019-06-15T06:37:51.548Z</time>
</trkpt>
<trkpt lat="22.2816257" lon="113.9841368">
<ele>185.384</ele>
<time>2019-06-15T06:37:58.084Z</time>
</trkpt>
<trkpt lat="22.2815375" lon="113.9840915">
<ele>185.516</ele>
<time>2019-06-15T06:38:05.536Z</time>
</trkpt>
<trkpt lat="22.2814521" lon="113.9840533">
<ele>185.509</ele>
<time>2019-06-15T06:38:12.365Z</time>
</trkpt>
<trkpt lat="22.2814051" lon="113.9839557">
<ele>185.371</ele>
<time>2019-06-15T06:38:19.421Z</time>
</trkpt>
<trkpt lat="22.2814043" lon="113.9838538">
<ele>185.187</ele>
<time>2019-06-15T06:38:25.741Z</time>
</trkpt>
<trkpt lat="22.2814343" lon="113.9837526">
<ele>184.960</ele>
<time>2019-06-15T06:38:32.249Z</time>
</trkpt>
<trkpt lat="22.2814359" lon="113.9836490">
<ele>184.682</ele>
<time>2019-06-15T06:38:38.999Z</time>
</trkpt>
<trkpt lat="22.2814359" lon="113.9836490">
<ele>184.453</ele>
<time>2019-06-15T06:38:40.999Z</time>
</trkpt>
<trkpt lat="22.2814359" lon="113.9836490">
<ele>184.338</ele>
<time>2019-06-15T06:51:49.676Z</time>
</trkpt>
<trkpt lat="22.2815463" lon="113.9835952">
<ele>184.239</ele>
<time>2019-06-15T06:52:08.331Z</time>
</trkpt>
<trkpt lat="22.2816350" lon="113.9835648">
<ele>184.191</ele>
<time>2019-06-15T06:52:16.860Z</time>
</trkpt>
<trkpt lat="22.2817283" lon="113.9835321">
<ele>184.068</ele>
<time>2019-06-15T06:52:24.762Z</time>
</trkpt>
<trkpt lat="22.2818186" lon="113.9835216">
<ele>183.863</ele>
<time>2019-06-15T06:52:31.748Z</time>
</trkpt>
<trkpt lat="22.2819103" lon="113.9835055">
<ele>183.570</ele>
<time>2019-06-15T06:52:38.401Z</time>
</trkpt>
<trkpt lat="22.2819884" lon="113.9834508">
<ele>182.885</ele>
<time>2019-06-15T06:52:44.947Z</time>
</trkpt>
<trkpt lat="22.2820697" lon="113.9833954">
<ele>181.674</ele>
<time>2019-06-15T06:52:52.078Z</time>
</trkpt>
<trkpt lat="22.2821463" lon="113.9833384">
<ele>180.412</ele>
<time>2019-06-15T06:52:58.839Z</time>
</trkpt>
<trkpt lat="22.2822333" lon="113.9832902">
<ele>179.449</ele>
<time>2019-06-15T06:53:04.985Z</time>
</trkpt>
<trkpt lat="22.2823216" lon="113.9832237">
<ele>178.631</ele>
<time>2019-06-15T06:53:10.831Z</time>
</trkpt>
<trkpt lat="22.2824236" lon="113.9831798">
<ele>177.416</ele>
<time>2019-06-15T06:53:16.027Z</time>
</trkpt>
<trkpt lat="22.2825181" lon="113.9831250">
<ele>176.734</ele>
<time>2019-06-15T06:53:20.711Z</time>
</trkpt>
<trkpt lat="22.2826133" lon="113.9830941">
<ele>175.674</ele>
<time>2019-06-15T06:53:24.951Z</time>
</trkpt>
<trkpt lat="22.2827141" lon="113.9830703">
<ele>174.385</ele>
<time>2019-06-15T06:53:29.663Z</time>
</trkpt>
<trkpt lat="22.2828152" lon="113.9830648">
<ele>172.635</ele>
<time>2019-06-15T06:53:34.960Z</time>
</trkpt>
<trkpt lat="22.2828923" lon="113.9831263">
<ele>172.009</ele>
<time>2019-06-15T06:53:40.342Z</time>
</trkpt>
<trkpt lat="22.2829629" lon="113.9832033">
<ele>171.003</ele>
<time>2019-06-15T06:53:45.997Z</time>
</trkpt>
<trkpt lat="22.2830553" lon="113.9832037">
<ele>169.600</ele>
<time>2019-06-15T06:53:51.877Z</time>
</trkpt>
<trkpt lat="22.2831389" lon="113.9831549">
<ele>167.985</ele>
<time>2019-06-15T06:53:58.817Z</time>
</trkpt>
<trkpt lat="22.2832255" lon="113.9831981">
<ele>166.136</ele>
<time>2019-06-15T06:54:06.456Z</time>
</trkpt>
<trkpt lat="22.2832684" lon="113.9832948">
<ele>163.944</ele>
<time>2019-06-15T06:54:13.728Z</time>
</trkpt>
<trkpt lat="22.2832895" lon="113.9833913">
<ele>161.674</ele>
<time>2019-06-15T06:54:19.807Z</time>
</trkpt>
<trkpt lat="22.2833343" lon="113.9834839">
<ele>159.882</ele>
<time>2019-06-15T06:54:26.730Z</time>
</trkpt>
<trkpt lat="22.2834302" lon="113.9834930">
<ele>158.633</ele>
<time>2019-06-15T06:54:34.405Z</time>
</trkpt>
<trkpt lat="22.2835116" lon="113.9834275">
<ele>156.481</ele>
<time>2019-06-15T06:54:42.784Z</time>
</trkpt>
<trkpt lat="22.2835962" lon="113.9833834">
<ele>152.748</ele>
<time>2019-06-15T06:54:49.872Z</time>
</trkpt>
<trkpt lat="22.2836822" lon="113.9833252">
<ele>149.451</ele>
<time>2019-06-15T06:54:57.657Z</time>
</trkpt>
<trkpt lat="22.2837674" lon="113.9832680">
<ele>148.561</ele>
<time>2019-06-15T06:55:05.117Z</time>
</trkpt>
<trkpt lat="22.2838519" lon="113.9832074">
<ele>149.568</ele>
<time>2019-06-15T06:55:12.480Z</time>
</trkpt>
<trkpt lat="22.2839226" lon="113.9831390">
<ele>150.836</ele>
<time>2019-06-15T06:55:19.013Z</time>
</trkpt>
<trkpt lat="22.2839938" lon="113.9830725">
<ele>150.969</ele>
<time>2019-06-15T06:55:24.804Z</time>
</trkpt>
<trkpt lat="22.2840655" lon="113.9829955">
<ele>149.691</ele>
<time>2019-06-15T06:55:30.997Z</time>
</trkpt>
<trkpt lat="22.2840655" lon="113.9829955">
<ele>148.115</ele>
<time>2019-06-15T06:55:32.997Z</time>
</trkpt>
<trkpt lat="22.2840655" lon="113.9829955">
<ele>147.455</ele>
<time>2019-06-15T06:55:43.801Z</time>
</trkpt>
<trkpt lat="22.2841498" lon="113.9829059">
<ele>147.569</ele>
<time>2019-06-15T06:55:57.719Z</time>
</trkpt>
<trkpt lat="22.2842213" lon="113.9828341">
<ele>147.527</ele>
<time>2019-06-15T06:56:05.063Z</time>
</trkpt>
<trkpt lat="22.2842704" lon="113.9827443">
<ele>146.943</ele>
<time>2019-06-15T06:56:12.143Z</time>
</trkpt>
<trkpt lat="22.2842356" lon="113.9826535">
<ele>146.022</ele>
<time>2019-06-15T06:56:18.584Z</time>
</trkpt>
<trkpt lat="22.2842184" lon="113.9825503">
<ele>145.082</ele>
<time>2019-06-15T06:56:25.094Z</time>
</trkpt>
<trkpt lat="22.2842508" lon="113.9824560">
<ele>144.252</ele>
<time>2019-06-15T06:56:30.997Z</time>
</trkpt>
<trkpt lat="22.2842508" lon="113.9824560">
<ele>143.633</ele>
<time>2019-06-15T06:56:36.997Z</time>
</trkpt>
<trkpt lat="22.2842508" lon="113.9824560">
<ele>143.305</ele>
<time>2019-06-15T06:58:12.028Z</time>
</trkpt>
<trkpt lat="22.2843074" lon="113.9823083">
<ele>143.276</ele>
<time>2019-06-15T06:58:28.934Z</time>
</trkpt>
<trkpt lat="22.2843477" lon="113.9822122">
<ele>143.174</ele>
<time>2019-06-15T06:58:35.857Z</time>
</trkpt>
<trkpt lat="22.2843888" lon="113.9821128">
<ele>142.383</ele>
<time>2019-06-15T06:58:42.413Z</time>
</trkpt>
<trkpt lat="22.2844173" lon="113.9820143">
<ele>140.898</ele>
<time>2019-06-15T06:58:47.999Z</time>
</trkpt>
<trkpt lat="22.2844173" lon="113.9820143">
<ele>139.600</ele>
<time>2019-06-15T06:58:53.999Z</time>
</trkpt>
<trkpt lat="22.2844173" lon="113.9820143">
<ele>139.091</ele>
<time>2019-06-15T06:58:54.099Z</time>
</trkpt>
<trkpt lat="22.2845318" lon="113.9819392">
<ele>139.132</ele>
<time>2019-06-15T06:59:06.785Z</time>
</trkpt>
<trkpt lat="22.2846088" lon="113.9818748">
<ele>139.000</ele>
<time>2019-06-15T06:59:13.875Z</time>
</trkpt>
<trkpt lat="22.2847013" lon="113.9818882">
<ele>138.321</ele>
<time>2019-06-15T06:59:20.550Z</time>
</trkpt>
<trkpt lat="22.2847942" lon="113.9818957">
<ele>137.471</ele>
<time>2019-06-15T06:59:26.341Z</time>
</trkpt>
<trkpt lat="22.2848897" lon="113.9818963">
<ele>136.718</ele>
<time>2019-06-15T06:59:31.668Z</time>
</trkpt>
<trkpt lat="22.2849796" lon="113.9818855">
<ele>135.996</ele>
<time>2019-06-15T06:59:36.596Z</time>
</trkpt>
<trkpt lat="22.2850605" lon="113.9818294">
<ele>135.490</ele>
<time>2019-06-15T06:59:41.999Z</time>
</trkpt>
<trkpt lat="22.2850605" lon="113.9818294">
<ele>135.301</ele>
<time>2019-06-15T06:59:50.999Z</time>
</trkpt>
<trkpt lat="22.2850605" lon="113.9818294">
<ele>135.253</ele>
<time>2019-06-15T06:59:51.099Z</time>
</trkpt>
<trkpt lat="22.2851945" lon="113.9818477">
<ele>135.208</ele>
<time>2019-06-15T07:00:04.071Z</time>
</trkpt>
<trkpt lat="22.2852746" lon="113.9819100">
<ele>134.761</ele>
<time>2019-06-15T07:00:11.632Z</time>
</trkpt>
<trkpt lat="22.2853525" lon="113.9819761">
<ele>133.680</ele>
<time>2019-06-15T07:00:19.359Z</time>
</trkpt>
<trkpt lat="22.2854425" lon="113.9820035">
<ele>132.335</ele>
<time>2019-06-15T07:00:26.478Z</time>
</trkpt>
<trkpt lat="22.2855348" lon="113.9819937">
<ele>130.886</ele>
<time>2019-06-15T07:00:33.411Z</time>
</trkpt>
<trkpt lat="22.2856330" lon="113.9819753">
<ele>129.392</ele>
<time>2019-06-15T07:00:40.956Z</time>
</trkpt>
<trkpt lat="22.2857302" lon="113.9819419">
<ele>128.135</ele>
<time>2019-06-15T07:00:48.699Z</time>
</trkpt>
<trkpt lat="22.2857943" lon="113.9818702">
<ele>126.887</ele>
<time>2019-06-15T07:01:00.356Z</time>
</trkpt>
<trkpt lat="22.2858432" lon="113.9817865">
<ele>125.498</ele>
<time>2019-06-15T07:01:12.998Z</time>
</trkpt>
<trkpt lat="22.2858432" lon="113.9817865">
<ele>124.486</ele>
<time>2019-06-15T07:01:20.998Z</time>
</trkpt>
<trkpt lat="22.2858432" lon="113.9817865">
<ele>124.142</ele>
<time>2019-06-15T07:01:39.927Z</time>
</trkpt>
<trkpt lat="22.2859360" lon="113.9817833">
<ele>124.178</ele>
<time>2019-06-15T07:01:53.406Z</time>
</trkpt>
<trkpt lat="22.2860323" lon="113.9817464">
<ele>123.584</ele>
<time>2019-06-15T07:02:01.723Z</time>
</trkpt>
<trkpt lat="22.2861382" lon="113.9817173">
<ele>121.667</ele>
<time>2019-06-15T07:02:07.496Z</time>
</trkpt>
<trkpt lat="22.2862449" lon="113.9817015">
<ele>117.975</ele>
<time>2019-06-15T07:02:12.436Z</time>
</trkpt>
<trkpt lat="22.2863538" lon="113.9816711">
<ele>117.222</ele>
<time>2019-06-15T07:02:17.308Z</time>
</trkpt>
<trkpt lat="22.2864456" lon="113.9816257">
<ele>116.346</ele>
<time>2019-06-15T07:02:21.806Z</time>
</trkpt>
<trkpt lat="22.2865299" lon="113.9815869">
<ele>114.403</ele>
<time>2019-06-15T07:02:28.841Z</time>
</trkpt>
<trkpt lat="22.2866237" lon="113.9815717">
<ele>113.264</ele>
<time>2019-06-15T07:02:36.269Z</time>
</trkpt>
<trkpt lat="22.2867104" lon="113.9816068">
<ele>111.093</ele>
<time>2019-06-15T07:02:46.356Z</time>
</trkpt>
<trkpt lat="22.2867900" lon="113.9816685">
<ele>107.937</ele>
<time>2019-06-15T07:02:57.283Z</time>
</trkpt>
<trkpt lat="22.2868879" lon="113.9817087">
<ele>103.474</ele>
<time>2019-06-15T07:03:06.225Z</time>
</trkpt>
<trkpt lat="22.2869884" lon="113.9817126">
<ele>102.605</ele>
<time>2019-06-15T07:03:12.473Z</time>
</trkpt>
<trkpt lat="22.2870855" lon="113.9816769">
<ele>101.760</ele>
<time>2019-06-15T07:03:17.331Z</time>
</trkpt>
<trkpt lat="22.2871877" lon="113.9816533">
<ele>100.745</ele>
<time>2019-06-15T07:03:21.611Z</time>
</trkpt>
<trkpt lat="22.2872823" lon="113.9816644">
<ele>99.728</ele>
<time>2019-06-15T07:03:25.468Z</time>
</trkpt>
<trkpt lat="22.2873805" lon="113.9816892">
<ele>98.911</ele>
<time>2019-06-15T07:03:29.831Z</time>
</trkpt>
<trkpt lat="22.2874817" lon="113.9817000">
<ele>98.038</ele>
<time>2019-06-15T07:03:34.739Z</time>
</trkpt>
<trkpt lat="22.2875565" lon="113.9816425">
<ele>97.555</ele>
<time>2019-06-15T07:03:40.084Z</time>
</trkpt>
<trkpt lat="22.2876126" lon="113.9815644">
<ele>96.485</ele>
<time>2019-06-15T07:03:46.111Z</time>
</trkpt>
<trkpt lat="22.2876663" lon="113.9814819">
<ele>94.925</ele>
<time>2019-06-15T07:03:52.455Z</time>
</trkpt>
<trkpt lat="22.2877405" lon="113.9814137">
<ele>93.399</ele>
<time>2019-06-15T07:03:59.390Z</time>
</trkpt>
<trkpt lat="22.2878339" lon="113.9813857">
<ele>92.174</ele>
<time>2019-06-15T07:04:06.161Z</time>
</trkpt>
<trkpt lat="22.2879118" lon="113.9813179">
<ele>91.129</ele>
<time>2019-06-15T07:04:12.629Z</time>
</trkpt>
<trkpt lat="22.2879902" lon="113.9812510">
<ele>90.056</ele>
<time>2019-06-15T07:04:19.024Z</time>
</trkpt>
<trkpt lat="22.2880422" lon="113.9811672">
<ele>88.818</ele>
<time>2019-06-15T07:04:24.999Z</time>
</trkpt>
<trkpt lat="22.2880422" lon="113.9811672">
<ele>87.616</ele>
<time>2019-06-15T07:04:25.999Z</time>
</trkpt>
<trkpt lat="22.2880422" lon="113.9811672">
<ele>86.955</ele>
<time>2019-06-15T07:04:26.253Z</time>
</trkpt>
<trkpt lat="22.2880977" lon="113.9810871">
<ele>86.972</ele>
<time>2019-06-15T07:04:32.999Z</time>
</trkpt>
<trkpt lat="22.2880977" lon="113.9810871">
<ele>87.177</ele>
<time>2019-06-15T07:04:35.999Z</time>
</trkpt>
<trkpt lat="22.2880977" lon="113.9810871">
<ele>87.162</ele>
<time>2019-06-15T07:04:36.961Z</time>
</trkpt>
<trkpt lat="22.2881511" lon="113.9809768">
<ele>86.990</ele>
<time>2019-06-15T07:04:51.227Z</time>
</trkpt>
<trkpt lat="22.2882444" lon="113.9809247">
<ele>84.358</ele>
<time>2019-06-15T07:05:00.141Z</time>
</trkpt>
<trkpt lat="22.2883354" lon="113.9808886">
<ele>77.311</ele>
<time>2019-06-15T07:05:07.044Z</time>
</trkpt>
<trkpt lat="22.2884115" lon="113.9808285">
<ele>69.612</ele>
<time>2019-06-15T07:05:13.211Z</time>
</trkpt>
<trkpt lat="22.2885025" lon="113.9807976">
<ele>65.163</ele>
<time>2019-06-15T07:05:19.428Z</time>
</trkpt>
<trkpt lat="22.2885681" lon="113.9807219">
<ele>63.584</ele>
<time>2019-06-15T07:05:25.491Z</time>
</trkpt>
<trkpt lat="22.2886161" lon="113.9806311">
<ele>64.060</ele>
<time>2019-06-15T07:05:31.390Z</time>
</trkpt>
<trkpt lat="22.2886576" lon="113.9805445">
<ele>65.800</ele>
<time>2019-06-15T07:05:36.883Z</time>
</trkpt>
<trkpt lat="22.2887133" lon="113.9804646">
<ele>67.246</ele>
<time>2019-06-15T07:05:42.717Z</time>
</trkpt>
<trkpt lat="22.2887620" lon="113.9803785">
<ele>67.151</ele>
<time>2019-06-15T07:05:48.911Z</time>
</trkpt>
<trkpt lat="22.2887627" lon="113.9802738">
<ele>65.683</ele>
<time>2019-06-15T07:05:55.725Z</time>
</trkpt>
<trkpt lat="22.2887848" lon="113.9801656">
<ele>63.720</ele>
<time>2019-06-15T07:06:03.199Z</time>
</trkpt>
<trkpt lat="22.2888432" lon="113.9800784">
<ele>61.739</ele>
<time>2019-06-15T07:06:10.616Z</time>
</trkpt>
<trkpt lat="22.2888791" lon="113.9799782">
<ele>59.604</ele>
<time>2019-06-15T07:06:17.782Z</time>
</trkpt>
<trkpt lat="22.2889391" lon="113.9798832">
<ele>56.916</ele>
<time>2019-06-15T07:06:24.676Z</time>
</trkpt>
<trkpt lat="22.2889789" lon="113.9797906">
<ele>53.844</ele>
<time>2019-06-15T07:06:29.369Z</time>
</trkpt>
<trkpt lat="22.2890254" lon="113.9797015">
<ele>50.785</ele>
<time>2019-06-15T07:06:33.204Z</time>
</trkpt>
<trkpt lat="22.2890919" lon="113.9796158">
<ele>51.046</ele>
<time>2019-06-15T07:06:37.666Z</time>
</trkpt>
<trkpt lat="22.2890903" lon="113.9795106">
<ele>51.168</ele>
<time>2019-06-15T07:06:42.520Z</time>
</trkpt>
<trkpt lat="22.2891037" lon="113.9794101">
<ele>50.248</ele>
<time>2019-06-15T07:06:48.219Z</time>
</trkpt>
<trkpt lat="22.2890714" lon="113.9793076">
<ele>48.135</ele>
<time>2019-06-15T07:06:53.999Z</time>
</trkpt>
<trkpt lat="22.2890714" lon="113.9793076">
<ele>47.750</ele>
<time>2019-06-15T07:06:55.999Z</time>
</trkpt>
<trkpt lat="22.2890714" lon="113.9793076">
<ele>47.709</ele>
<time>2019-06-15T07:06:56.099Z</time>
</trkpt>
<trkpt lat="22.2890247" lon="113.9792134">
<ele>47.743</ele>
<time>2019-06-15T07:07:08.438Z</time>
</trkpt>
<trkpt lat="22.2890623" lon="113.9791188">
<ele>47.242</ele>
<time>2019-06-15T07:07:15.239Z</time>
</trkpt>
<trkpt lat="22.2891336" lon="113.9790560">
<ele>45.580</ele>
<time>2019-06-15T07:07:20.998Z</time>
</trkpt>
<trkpt lat="22.2891336" lon="113.9790560">
<ele>43.291</ele>
<time>2019-06-15T07:07:26.998Z</time>
</trkpt>
<trkpt lat="22.2891336" lon="113.9790560">
<ele>41.912</ele>
<time>2019-06-15T07:07:28.342Z</time>
</trkpt>
<trkpt lat="22.2892098" lon="113.9789175">
<ele>41.982</ele>
<time>2019-06-15T07:07:42.215Z</time>
</trkpt>
<trkpt lat="22.2892948" lon="113.9788519">
<ele>42.043</ele>
<time>2019-06-15T07:07:47.998Z</time>
</trkpt>
<trkpt lat="22.2892948" lon="113.9788519">
<ele>40.903</ele>
<time>2019-06-15T07:07:57.998Z</time>
</trkpt>
<trkpt lat="22.2892948" lon="113.9788519">
<ele>39.698</ele>
<time>2019-06-15T07:07:58.098Z</time>
</trkpt>
<trkpt lat="22.2894403" lon="113.9788066">
<ele>39.672</ele>
<time>2019-06-15T07:08:05.998Z</time>
</trkpt>
<trkpt lat="22.2894403" lon="113.9788066">
<ele>40.126</ele>
<time>2019-06-15T07:08:27.998Z</time>
</trkpt>
<trkpt lat="22.2894403" lon="113.9788066">
<ele>40.159</ele>
<time>2019-06-15T07:08:28.098Z</time>
</trkpt>
<trkpt lat="22.2893316" lon="113.9787527">
<ele>39.885</ele>
<time>2019-06-15T07:08:36.998Z</time>
</trkpt>
<trkpt lat="22.2893316" lon="113.9787527">
<ele>39.698</ele>
<time>2019-06-15T07:08:44.998Z</time>
</trkpt>
<trkpt lat="22.2893316" lon="113.9787527">
<ele>39.665</ele>
<time>2019-06-15T07:08:48.932Z</time>
</trkpt>
<trkpt lat="22.2894219" lon="113.9787850">
<ele>39.666</ele>
<time>2019-06-15T07:09:03.705Z</time>
</trkpt>
<trkpt lat="22.2895222" lon="113.9787796">
<ele>38.869</ele>
<time>2019-06-15T07:09:12.531Z</time>
</trkpt>
<trkpt lat="22.2896128" lon="113.9787824">
<ele>36.787</ele>
<time>2019-06-15T07:09:19.756Z</time>
</trkpt>
<trkpt lat="22.2897115" lon="113.9788004">
<ele>34.570</ele>
<time>2019-06-15T07:09:27.436Z</time>
</trkpt>
<trkpt lat="22.2898071" lon="113.9787820">
<ele>33.389</ele>
<time>2019-06-15T07:09:34.522Z</time>
</trkpt>
<trkpt lat="22.2898994" lon="113.9787902">
<ele>33.024</ele>
<time>2019-06-15T07:09:40.877Z</time>
</trkpt>
<trkpt lat="22.2899937" lon="113.9788223">
<ele>32.658</ele>
<time>2019-06-15T07:09:47.976Z</time>
</trkpt>
<trkpt lat="22.2900839" lon="113.9788550">
<ele>31.719</ele>
<time>2019-06-15T07:09:55.269Z</time>
</trkpt>
<trkpt lat="22.2901821" lon="113.9788787">
<ele>30.488</ele>
<time>2019-06-15T07:10:03.057Z</time>
</trkpt>
<trkpt lat="22.2902691" lon="113.9788475">
<ele>29.554</ele>
<time>2019-06-15T07:10:09.879Z</time>
</trkpt>
<trkpt lat="22.2903678" lon="113.9788159">
<ele>29.047</ele>
<time>2019-06-15T07:10:17.530Z</time>
</trkpt>
<trkpt lat="22.2904687" lon="113.9788178">
<ele>28.754</ele>
<time>2019-06-15T07:10:24.722Z</time>
</trkpt>
<trkpt lat="22.2905588" lon="113.9788096">
<ele>28.515</ele>
<time>2019-06-15T07:10:30.795Z</time>
</trkpt>
<trkpt lat="22.2906617" lon="113.9788073">
<ele>28.320</ele>
<time>2019-06-15T07:10:37.587Z</time>
</trkpt>
<trkpt lat="22.2907607" lon="113.9788233">
<ele>28.129</ele>
<time>2019-06-15T07:10:44.428Z</time>
</trkpt>
<trkpt lat="22.2908137" lon="113.9787323">
<ele>27.884</ele>
<time>2019-06-15T07:10:51.717Z</time>
</trkpt>
<trkpt lat="22.2908339" lon="113.9786304">
<ele>27.477</ele>
<time>2019-06-15T07:10:58.696Z</time>
</trkpt>
<trkpt lat="22.2908221" lon="113.9785212">
<ele>26.905</ele>
<time>2019-06-15T07:11:05.568Z</time>
</trkpt>
<trkpt lat="22.2908100" lon="113.9784220">
<ele>26.264</ele>
<time>2019-06-15T07:11:11.555Z</time>
</trkpt>
<trkpt lat="22.2907863" lon="113.9783129">
<ele>25.478</ele>
<time>2019-06-15T07:11:18.244Z</time>
</trkpt>
<trkpt lat="22.2907621" lon="113.9782077">
<ele>24.570</ele>
<time>2019-06-15T07:11:25.038Z</time>
</trkpt>
<trkpt lat="22.2908107" lon="113.9781139">
<ele>23.889</ele>
<time>2019-06-15T07:11:32.396Z</time>
</trkpt>
<trkpt lat="22.2908646" lon="113.9780319">
<ele>23.613</ele>
<time>2019-06-15T07:11:39.543Z</time>
</trkpt>
<trkpt lat="22.2908997" lon="113.9779340">
<ele>23.602</ele>
<time>2019-06-15T07:11:46.592Z</time>
</trkpt>
<trkpt lat="22.2909398" lon="113.9778416">
<ele>23.671</ele>
<time>2019-06-15T07:11:53.356Z</time>
</trkpt>
<trkpt lat="22.2910215" lon="113.9777783">
<ele>23.624</ele>
<time>2019-06-15T07:12:00.866Z</time>
</trkpt>
<trkpt lat="22.2911149" lon="113.9777361">
<ele>23.287</ele>
<time>2019-06-15T07:12:08.682Z</time>
</trkpt>
<trkpt lat="22.2912096" lon="113.9777342">
<ele>22.705</ele>
<time>2019-06-15T07:12:15.797Z</time>
</trkpt>
<trkpt lat="22.2913059" lon="113.9777501">
<ele>22.133</ele>
<time>2019-06-15T07:12:22.846Z</time>
</trkpt>
<trkpt lat="22.2913986" lon="113.9777601">
<ele>21.650</ele>
<time>2019-06-15T07:12:29.494Z</time>
</trkpt>
<trkpt lat="22.2914898" lon="113.9777441">
<ele>21.141</ele>
<time>2019-06-15T07:12:36.251Z</time>
</trkpt>
<trkpt lat="22.2915883" lon="113.9777419">
<ele>20.570</ele>
<time>2019-06-15T07:12:43.388Z</time>
</trkpt>
<trkpt lat="22.2916787" lon="113.9777558">
<ele>20.008</ele>
<time>2019-06-15T07:12:49.915Z</time>
</trkpt>
<trkpt lat="22.2917686" lon="113.9777030">
<ele>19.490</ele>
<time>2019-06-15T07:12:57.602Z</time>
</trkpt>
<trkpt lat="22.2918237" lon="113.9776152">
<ele>19.024</ele>
<time>2019-06-15T07:13:04.999Z</time>
</trkpt>
<trkpt lat="22.2918237" lon="113.9776152">
<ele>18.657</ele>
<time>2019-06-15T07:13:13.999Z</time>
</trkpt>
<trkpt lat="22.2918237" lon="113.9776152">
<ele>18.485</ele>
<time>2019-06-15T07:13:46.563Z</time>
</trkpt>
<trkpt lat="22.2918780" lon="113.9775254">
<ele>18.497</ele>
<time>2019-06-15T07:13:59.386Z</time>
</trkpt>
<trkpt lat="22.2919140" lon="113.9774195">
<ele>18.469</ele>
<time>2019-06-15T07:14:08.521Z</time>
</trkpt>
<trkpt lat="22.2919126" lon="113.9773207">
<ele>18.251</ele>
<time>2019-06-15T07:14:15.506Z</time>
</trkpt>
<trkpt lat="22.2919050" lon="113.9772135">
<ele>18.037</ele>
<time>2019-06-15T07:14:22.378Z</time>
</trkpt>
<trkpt lat="22.2918737" lon="113.9771178">
<ele>18.071</ele>
<time>2019-06-15T07:14:28.701Z</time>
</trkpt>
<trkpt lat="22.2918722" lon="113.9770117">
<ele>18.249</ele>
<time>2019-06-15T07:14:35.564Z</time>
</trkpt>
<trkpt lat="22.2918902" lon="113.9769137">
<ele>18.470</ele>
<time>2019-06-15T07:14:42.110Z</time>
</trkpt>
<trkpt lat="22.2919012" lon="113.9768164">
<ele>18.772</ele>
<time>2019-06-15T07:14:48.304Z</time>
</trkpt>
<trkpt lat="22.2919249" lon="113.9767209">
<ele>19.076</ele>
<time>2019-06-15T07:14:54.673Z</time>
</trkpt>
<trkpt lat="22.2919682" lon="113.9766218">
<ele>19.320</ele>
<time>2019-06-15T07:15:02.168Z</time>
</trkpt>
<trkpt lat="22.2920154" lon="113.9765371">
<ele>19.516</ele>
<time>2019-06-15T07:15:09.125Z</time>
</trkpt>
<trkpt lat="22.2920738" lon="113.9764591">
<ele>19.624</ele>
<time>2019-06-15T07:15:15.951Z</time>
</trkpt>
<trkpt lat="22.2921427" lon="113.9763827">
<ele>19.745</ele>
<time>2019-06-15T07:15:23.097Z</time>
</trkpt>
<trkpt lat="22.2921896" lon="113.9762978">
<ele>20.061</ele>
<time>2019-06-15T07:15:29.861Z</time>
</trkpt>
<trkpt lat="22.2922410" lon="113.9762154">
<ele>20.514</ele>
<time>2019-06-15T07:15:36.700Z</time>
</trkpt>
<trkpt lat="22.2922853" lon="113.9761269">
<ele>20.957</ele>
<time>2019-06-15T07:15:43.557Z</time>
</trkpt>
<trkpt lat="22.2923248" lon="113.9760318">
<ele>21.337</ele>
<time>2019-06-15T07:15:50.537Z</time>
</trkpt>
<trkpt lat="22.2923466" lon="113.9759257">
<ele>21.610</ele>
<time>2019-06-15T07:15:57.719Z</time>
</trkpt>
<trkpt lat="22.2923905" lon="113.9758380">
<ele>21.727</ele>
<time>2019-06-15T07:16:04.447Z</time>
</trkpt>
<trkpt lat="22.2924305" lon="113.9757496">
<ele>21.742</ele>
<time>2019-06-15T07:16:11.253Z</time>
</trkpt>
<trkpt lat="22.2924718" lon="113.9756605">
<ele>21.751</ele>
<time>2019-06-15T07:16:18.107Z</time>
</trkpt>
<trkpt lat="22.2925175" lon="113.9755690">
<ele>22.194</ele>
<time>2019-06-15T07:16:25.163Z</time>
</trkpt>
<trkpt lat="22.2925212" lon="113.9754653">
<ele>23.305</ele>
<time>2019-06-15T07:16:32.122Z</time>
</trkpt>
<trkpt lat="22.2925239" lon="113.9753595">
<ele>24.470</ele>
<time>2019-06-15T07:16:39.208Z</time>
</trkpt>
<trkpt lat="22.2925880" lon="113.9752808">
<ele>25.201</ele>
<time>2019-06-15T07:16:46.369Z</time>
</trkpt>
<trkpt lat="22.2926535" lon="113.9752141">
<ele>25.678</ele>
<time>2019-06-15T07:16:53.250Z</time>
</trkpt>
<trkpt lat="22.2927392" lon="113.9751761">
<ele>26.011</ele>
<time>2019-06-15T07:17:00.686Z</time>
</trkpt>
<trkpt lat="22.2928274" lon="113.9752339">
<ele>26.287</ele>
<time>2019-06-15T07:17:09.008Z</time>
</trkpt>
<trkpt lat="22.2928987" lon="113.9752997">
<ele>26.655</ele>
<time>2019-06-15T07:17:16.043Z</time>
</trkpt>
<trkpt lat="22.2929873" lon="113.9753354">
<ele>27.051</ele>
<time>2019-06-15T07:17:22.922Z</time>
</trkpt>
<trkpt lat="22.2930738" lon="113.9753824">
<ele>27.366</ele>
<time>2019-06-15T07:17:30.042Z</time>
</trkpt>
<trkpt lat="22.2931721" lon="113.9754002">
<ele>27.674</ele>
<time>2019-06-15T07:17:37.685Z</time>
</trkpt>
<trkpt lat="22.2932635" lon="113.9753598">
<ele>28.054</ele>
<time>2019-06-15T07:17:45.483Z</time>
</trkpt>
<trkpt lat="22.2933525" lon="113.9753221">
<ele>28.603</ele>
<time>2019-06-15T07:17:53.335Z</time>
</trkpt>
<trkpt lat="22.2933860" lon="113.9752232">
<ele>29.423</ele>
<time>2019-06-15T07:18:01.744Z</time>
</trkpt>
<trkpt lat="22.2933491" lon="113.9751272">
<ele>30.295</ele>
<time>2019-06-15T07:18:09.530Z</time>
</trkpt>
<trkpt lat="22.2933539" lon="113.9750295">
<ele>31.012</ele>
<time>2019-06-15T07:18:15.894Z</time>
</trkpt>
<trkpt lat="22.2933837" lon="113.9749275">
<ele>31.711</ele>
<time>2019-06-15T07:18:22.819Z</time>
</trkpt>
<trkpt lat="22.2933638" lon="113.9748306">
<ele>32.459</ele>
<time>2019-06-15T07:18:29.582Z</time>
</trkpt>
<trkpt lat="22.2933414" lon="113.9747217">
<ele>33.084</ele>
<time>2019-06-15T07:18:37.356Z</time>
</trkpt>
<trkpt lat="22.2933697" lon="113.9746276">
<ele>33.487</ele>
<time>2019-06-15T07:18:44.067Z</time>
</trkpt>
<trkpt lat="22.2934347" lon="113.9745571">
<ele>33.784</ele>
<time>2019-06-15T07:18:50.730Z</time>
</trkpt>
<trkpt lat="22.2935129" lon="113.9744940">
<ele>34.096</ele>
<time>2019-06-15T07:18:57.689Z</time>
</trkpt>
<trkpt lat="22.2935953" lon="113.9744407">
<ele>34.438</ele>
<time>2019-06-15T07:19:04.529Z</time>
</trkpt>
<trkpt lat="22.2936735" lon="113.9743820">
<ele>34.774</ele>
<time>2019-06-15T07:19:11.355Z</time>
</trkpt>
<trkpt lat="22.2937304" lon="113.9742911">
<ele>35.072</ele>
<time>2019-06-15T07:19:18.596Z</time>
</trkpt>
<trkpt lat="22.2937405" lon="113.9741873">
<ele>35.377</ele>
<time>2019-06-15T07:19:25.473Z</time>
</trkpt>
<trkpt lat="22.2937802" lon="113.9740906">
<ele>35.800</ele>
<time>2019-06-15T07:19:32.407Z</time>
</trkpt>
<trkpt lat="22.2938281" lon="113.9739941">
<ele>36.425</ele>
<time>2019-06-15T07:19:39.559Z</time>
</trkpt>
<trkpt lat="22.2938838" lon="113.9739179">
<ele>37.186</ele>
<time>2019-06-15T07:19:46.085Z</time>
</trkpt>
<trkpt lat="22.2939350" lon="113.9738365">
<ele>37.812</ele>
<time>2019-06-15T07:19:52.932Z</time>
</trkpt>
<trkpt lat="22.2939758" lon="113.9737454">
<ele>38.003</ele>
<time>2019-06-15T07:20:00.096Z</time>
</trkpt>
<trkpt lat="22.2940436" lon="113.9736667">
<ele>37.736</ele>
<time>2019-06-15T07:20:07.972Z</time>
</trkpt>
<trkpt lat="22.2940961" lon="113.9735870">
<ele>37.294</ele>
<time>2019-06-15T07:20:15.428Z</time>
</trkpt>
<trkpt lat="22.2941389" lon="113.9734975">
<ele>36.697</ele>
<time>2019-06-15T07:20:22.740Z</time>
</trkpt>
<trkpt lat="22.2941848" lon="113.9733986">
<ele>35.786</ele>
<time>2019-06-15T07:20:30.014Z</time>
</trkpt>
<trkpt lat="22.2942285" lon="113.9732953">
<ele>34.686</ele>
<time>2019-06-15T07:20:37.064Z</time>
</trkpt>
<trkpt lat="22.2942884" lon="113.9732198">
<ele>33.632</ele>
<time>2019-06-15T07:20:43.143Z</time>
</trkpt>
<trkpt lat="22.2943653" lon="113.9731508">
<ele>32.846</ele>
<time>2019-06-15T07:20:49.859Z</time>
</trkpt>
<trkpt lat="22.2944427" lon="113.9730855">
<ele>32.432</ele>
<time>2019-06-15T07:20:56.744Z</time>
</trkpt>
<trkpt lat="22.2945254" lon="113.9730189">
<ele>32.236</ele>
<time>2019-06-15T07:21:04.263Z</time>
</trkpt>
<trkpt lat="22.2945963" lon="113.9729441">
<ele>32.073</ele>
<time>2019-06-15T07:21:11.732Z</time>
</trkpt>
<trkpt lat="22.2946557" lon="113.9728711">
<ele>31.785</ele>
<time>2019-06-15T07:21:18.958Z</time>
</trkpt>
<trkpt lat="22.2947469" lon="113.9728467">
<ele>31.150</ele>
<time>2019-06-15T07:21:27.491Z</time>
</trkpt>
<trkpt lat="22.2947935" lon="113.9727431">
<ele>30.229</ele>
<time>2019-06-15T07:21:36.104Z</time>
</trkpt>
<trkpt lat="22.2948211" lon="113.9726463">
<ele>29.454</ele>
<time>2019-06-15T07:21:42.385Z</time>
</trkpt>
<trkpt lat="22.2948813" lon="113.9725708">
<ele>28.903</ele>
<time>2019-06-15T07:21:48.433Z</time>
</trkpt>
<trkpt lat="22.2949608" lon="113.9725196">
<ele>28.165</ele>
<time>2019-06-15T07:21:54.812Z</time>
</trkpt>
<trkpt lat="22.2950359" lon="113.9724492">
<ele>27.259</ele>
<time>2019-06-15T07:22:01.846Z</time>
</trkpt>
<trkpt lat="22.2951186" lon="113.9724069">
<ele>26.595</ele>
<time>2019-06-15T07:22:08.097Z</time>
</trkpt>
<trkpt lat="22.2951987" lon="113.9723597">
<ele>26.309</ele>
<time>2019-06-15T07:22:14.176Z</time>
</trkpt>
<trkpt lat="22.2952900" lon="113.9723209">
<ele>26.244</ele>
<time>2019-06-15T07:22:20.846Z</time>
</trkpt>
<trkpt lat="22.2953510" lon="113.9722411">
<ele>26.056</ele>
<time>2019-06-15T07:22:27.690Z</time>
</trkpt>
<trkpt lat="22.2954288" lon="113.9721791">
<ele>25.395</ele>
<time>2019-06-15T07:22:34.590Z</time>
</trkpt>
<trkpt lat="22.2955132" lon="113.9721178">
<ele>24.457</ele>
<time>2019-06-15T07:22:41.223Z</time>
</trkpt>
<trkpt lat="22.2955748" lon="113.9720415">
<ele>23.685</ele>
<time>2019-06-15T07:22:47.185Z</time>
</trkpt>
<trkpt lat="22.2956255" lon="113.9719573">
<ele>23.145</ele>
<time>2019-06-15T07:22:53.324Z</time>
</trkpt>
<trkpt lat="22.2956590" lon="113.9718598">
<ele>22.732</ele>
<time>2019-06-15T07:22:59.858Z</time>
</trkpt>
<trkpt lat="22.2957077" lon="113.9717705">
<ele>22.450</ele>
<time>2019-06-15T07:23:06.750Z</time>
</trkpt>
<trkpt lat="22.2957574" lon="113.9716882">
<ele>22.312</ele>
<time>2019-06-15T07:23:13.998Z</time>
</trkpt>
<trkpt lat="22.2957574" lon="113.9716882">
<ele>22.282</ele>
<time>2019-06-15T07:23:18.998Z</time>
</trkpt>
<trkpt lat="22.2957574" lon="113.9716882">
<ele>22.279</ele>
<time>2019-06-15T07:23:19.098Z</time>
</trkpt>
<trkpt lat="22.2957574" lon="113.9716882">
<ele>22.260</ele>
<time>2019-06-15T07:23:29.998Z</time>
</trkpt>
<trkpt lat="22.2957574" lon="113.9716882">
<ele>22.253</ele>
<time>2019-06-15T07:23:36.619Z</time>
</trkpt>
<trkpt lat="22.2957461" lon="113.9715367">
<ele>22.247</ele>
<time>2019-06-15T07:23:52.860Z</time>
</trkpt>
<trkpt lat="22.2957805" lon="113.9714430">
<ele>21.906</ele>
<time>2019-06-15T07:23:59.878Z</time>
</trkpt>
<trkpt lat="22.2957947" lon="113.9713335">
<ele>20.767</ele>
<time>2019-06-15T07:24:07.574Z</time>
</trkpt>
<trkpt lat="22.2957769" lon="113.9712373">
<ele>18.987</ele>
<time>2019-06-15T07:24:13.998Z</time>
</trkpt>
<trkpt lat="22.2957769" lon="113.9712373">
<ele>17.345</ele>
<time>2019-06-15T07:24:13.998Z</time>
</trkpt>
<trkpt lat="22.2957769" lon="113.9712373">
<ele>16.537</ele>
<time>2019-06-15T07:24:21.466Z</time>
</trkpt>
<trkpt lat="22.2958195" lon="113.9711514">
<ele>17.013</ele>
<time>2019-06-15T07:24:32.489Z</time>
</trkpt>
<trkpt lat="22.2958411" lon="113.9710442">
<ele>16.778</ele>
<time>2019-06-15T07:24:39.457Z</time>
</trkpt>
<trkpt lat="22.2958665" lon="113.9709481">
<ele>15.494</ele>
<time>2019-06-15T07:24:44.998Z</time>
</trkpt>
<trkpt lat="22.2958665" lon="113.9709481">
<ele>14.013</ele>
<time>2019-06-15T07:24:51.998Z</time>
</trkpt>
<trkpt lat="22.2958665" lon="113.9709481">
<ele>13.321</ele>
<time>2019-06-15T07:25:11.481Z</time>
</trkpt>
<trkpt lat="22.2957470" lon="113.9708457">
<ele>13.597</ele>
<time>2019-06-15T07:25:32.997Z</time>
</trkpt>
<trkpt lat="22.2957470" lon="113.9708457">
<ele>14.268</ele>
<time>2019-06-15T07:25:47.000Z</time>
</trkpt>
<trkpt lat="22.2957470" lon="113.9708457">
<ele>14.555</ele>
<time>2019-06-15T07:25:52.890Z</time>
</trkpt>
<trkpt lat="22.2956554" lon="113.9710143">
<ele>14.440</ele>
<time>2019-06-15T07:26:17.069Z</time>
</trkpt>
<trkpt lat="22.2956671" lon="113.9709166">
<ele>14.307</ele>
<time>2019-06-15T07:26:24.999Z</time>
</trkpt>
<trkpt lat="22.2956671" lon="113.9709166">
<ele>14.245</ele>
<time>2019-06-15T07:26:35.999Z</time>
</trkpt>
<trkpt lat="22.2956671" lon="113.9709166">
<ele>14.237</ele>
<time>2019-06-15T07:26:36.099Z</time>
</trkpt>
<trkpt lat="22.2957624" lon="113.9709080">
<ele>14.239</ele>
<time>2019-06-15T07:26:44.999Z</time>
</trkpt>
<trkpt lat="22.2957624" lon="113.9709080">
<ele>14.233</ele>
<time>2019-06-15T07:26:58.999Z</time>
</trkpt>
<trkpt lat="22.2957624" lon="113.9709080">
<ele>14.226</ele>
<time>2019-06-15T07:27:01.012Z</time>
</trkpt>
<trkpt lat="22.2958341" lon="113.9708389">
<ele>14.220</ele>
<time>2019-06-15T07:27:13.767Z</time>
</trkpt>
<trkpt lat="22.2958294" lon="113.9707357">
<ele>13.806</ele>
<time>2019-06-15T07:27:21.710Z</time>
</trkpt>
<trkpt lat="22.2958346" lon="113.9706349">
<ele>12.550</ele>
<time>2019-06-15T07:27:29.276Z</time>
</trkpt>
<trkpt lat="22.2959111" lon="113.9705776">
<ele>10.800</ele>
<time>2019-06-15T07:27:36.294Z</time>
</trkpt>
<trkpt lat="22.2960080" lon="113.9705687">
<ele>9.321</ele>
<time>2019-06-15T07:27:43.185Z</time>
</trkpt>
<trkpt lat="22.2960790" lon="113.9705085">
<ele>8.499</ele>
<time>2019-06-15T07:27:49.503Z</time>
</trkpt>
<trkpt lat="22.2961045" lon="113.9704061">
<ele>8.326</ele>
<time>2019-06-15T07:27:56.393Z</time>
</trkpt>
<trkpt lat="22.2961013" lon="113.9703056">
<ele>8.553</ele>
<time>2019-06-15T07:28:02.862Z</time>
</trkpt>
<trkpt lat="22.2961233" lon="113.9702094">
<ele>8.896</ele>
<time>2019-06-15T07:28:09.272Z</time>
</trkpt>
<trkpt lat="22.2961813" lon="113.9701315">
<ele>9.345</ele>
<time>2019-06-15T07:28:15.916Z</time>
</trkpt>
<trkpt lat="22.2962725" lon="113.9700986">
<ele>10.070</ele>
<time>2019-06-15T07:28:22.997Z</time>
</trkpt>
<trkpt lat="22.2963558" lon="113.9700547">
<ele>10.873</ele>
<time>2019-06-15T07:28:29.998Z</time>
</trkpt>
<trkpt lat="22.2963558" lon="113.9700547">
<ele>11.369</ele>
<time>2019-06-15T07:28:32.998Z</time>
</trkpt>
<trkpt lat="22.2963558" lon="113.9700547">
<ele>11.510</ele>
<time>2019-06-15T07:28:46.232Z</time>
</trkpt>
<trkpt lat="22.2964448" lon="113.9700365">
<ele>11.398</ele>
<time>2019-06-15T07:29:03.577Z</time>
</trkpt>
<trkpt lat="22.2965311" lon="113.9699912">
<ele>11.422</ele>
<time>2019-06-15T07:29:10.964Z</time>
</trkpt>
<trkpt lat="22.2966298" lon="113.9699624">
<ele>11.587</ele>
<time>2019-06-15T07:29:17.981Z</time>
</trkpt>
<trkpt lat="22.2967084" lon="113.9699117">
<ele>11.774</ele>
<time>2019-06-15T07:29:24.457Z</time>
</trkpt>
<trkpt lat="22.2967763" lon="113.9698392">
<ele>11.853</ele>
<time>2019-06-15T07:29:30.960Z</time>
</trkpt>
<trkpt lat="22.2968403" lon="113.9697685">
<ele>11.836</ele>
<time>2019-06-15T07:29:37.031Z</time>
</trkpt>
<trkpt lat="22.2969216" lon="113.9697154">
<ele>11.742</ele>
<time>2019-06-15T07:29:44.029Z</time>
</trkpt>
<trkpt lat="22.2969982" lon="113.9696412">
<ele>11.517</ele>
<time>2019-06-15T07:29:52.188Z</time>
</trkpt>
<trkpt lat="22.2970681" lon="113.9695752">
<ele>11.124</ele>
<time>2019-06-15T07:29:59.555Z</time>
</trkpt>
<trkpt lat="22.2971181" lon="113.9694889">
<ele>10.502</ele>
<time>2019-06-15T07:30:06.748Z</time>
</trkpt>
<trkpt lat="22.2971849" lon="113.9694107">
<ele>9.499</ele>
<time>2019-06-15T07:30:14.014Z</time>
</trkpt>
<trkpt lat="22.2972276" lon="113.9693144">
<ele>8.162</ele>
<time>2019-06-15T07:30:20.961Z</time>
</trkpt>
<trkpt lat="22.2972402" lon="113.9692097">
<ele>6.888</ele>
<time>2019-06-15T07:30:27.902Z</time>
</trkpt>
<trkpt lat="22.2972900" lon="113.9691179">
<ele>6.043</ele>
<time>2019-06-15T07:30:35.280Z</time>
</trkpt>
<trkpt lat="22.2973138" lon="113.9690123">
<ele>5.665</ele>
<time>2019-06-15T07:30:42.848Z</time>
</trkpt>
<trkpt lat="22.2973040" lon="113.9689148">
<ele>5.571</ele>
<time>2019-06-15T07:30:49.154Z</time>
</trkpt>
<trkpt lat="22.2973026" lon="113.9688099">
<ele>5.575</ele>
<time>2019-06-15T07:30:55.645Z</time>
</trkpt>
<trkpt lat="22.2973292" lon="113.9687037">
<ele>5.604</ele>
<time>2019-06-15T07:31:02.420Z</time>
</trkpt>
<trkpt lat="22.2973513" lon="113.9686001">
<ele>5.649</ele>
<time>2019-06-15T07:31:09.094Z</time>
</trkpt>
<trkpt lat="22.2973861" lon="113.9685086">
<ele>5.592</ele>
<time>2019-06-15T07:31:15.540Z</time>
</trkpt>
<trkpt lat="22.2973926" lon="113.9684105">
<ele>5.353</ele>
<time>2019-06-15T07:31:22.163Z</time>
</trkpt>
<trkpt lat="22.2974203" lon="113.9683163">
<ele>5.077</ele>
<time>2019-06-15T07:31:28.884Z</time>
</trkpt>
<trkpt lat="22.2974561" lon="113.9682229">
<ele>4.908</ele>
<time>2019-06-15T07:31:35.704Z</time>
</trkpt>
<trkpt lat="22.2974956" lon="113.9681227">
<ele>4.810</ele>
<time>2019-06-15T07:31:43.124Z</time>
</trkpt>
<trkpt lat="22.2975651" lon="113.9680498">
<ele>4.721</ele>
<time>2019-06-15T07:31:50.488Z</time>
</trkpt>
<trkpt lat="22.2976525" lon="113.9680123">
<ele>4.675</ele>
<time>2019-06-15T07:31:57.682Z</time>
</trkpt>
<trkpt lat="22.2977396" lon="113.9679655">
<ele>4.715</ele>
<time>2019-06-15T07:32:04.997Z</time>
</trkpt>
<trkpt lat="22.2977396" lon="113.9679655">
<ele>4.769</ele>
<time>2019-06-15T07:32:15.997Z</time>
</trkpt>
<trkpt lat="22.2977396" lon="113.9679655">
<ele>4.769</ele>
<time>2019-06-15T07:32:16.097Z</time>
</trkpt>
<trkpt lat="22.2977681" lon="113.9678565">
<ele>4.740</ele>
<time>2019-06-15T07:32:25.997Z</time>
</trkpt>
<trkpt lat="22.2977681" lon="113.9678565">
<ele>4.752</ele>
<time>2019-06-15T07:32:49.997Z</time>
</trkpt>
<trkpt lat="22.2977681" lon="113.9678565">
<ele>4.759</ele>
<time>2019-06-15T07:33:31.999Z</time>
</trkpt>
<trkpt lat="22.2977681" lon="113.9678565">
<ele>4.757</ele>
<time>2019-06-15T07:37:31.625Z</time>
</trkpt>
<trkpt lat="22.2976754" lon="113.9679631">
<ele>4.750</ele>
<time>2019-06-15T07:37:53.123Z</time>
</trkpt>
<trkpt lat="22.2976024" lon="113.9679001">
<ele>4.865</ele>
<time>2019-06-15T07:38:06.167Z</time>
</trkpt>
<trkpt lat="22.2975240" lon="113.9678378">
<ele>5.466</ele>
<time>2019-06-15T07:38:22.390Z</time>
</trkpt>
<trkpt lat="22.2975518" lon="113.9677441">
<ele>6.707</ele>
<time>2019-06-15T07:38:37.997Z</time>
</trkpt>
<trkpt lat="22.2975518" lon="113.9677441">
<ele>8.042</ele>
<time>2019-06-15T07:38:47.997Z</time>
</trkpt>
<trkpt lat="22.2975518" lon="113.9677441">
<ele>8.728</ele>
<time>2019-06-15T07:38:48.097Z</time>
</trkpt>
<trkpt lat="22.2975362" lon="113.9676319">
<ele>8.662</ele>
<time>2019-06-15T07:39:08.769Z</time>
</trkpt>
<trkpt lat="22.2975377" lon="113.9675305">
<ele>9.425</ele>
<time>2019-06-15T07:39:18.845Z</time>
</trkpt>
<trkpt lat="22.2975261" lon="113.9674312">
<ele>12.305</ele>
<time>2019-06-15T07:39:26.968Z</time>
</trkpt>
<trkpt lat="22.2974799" lon="113.9673462">
<ele>15.818</ele>
<time>2019-06-15T07:39:35.034Z</time>
</trkpt>
<trkpt lat="22.2974553" lon="113.9672422">
<ele>18.035</ele>
<time>2019-06-15T07:39:44.125Z</time>
</trkpt>
<trkpt lat="22.2974931" lon="113.9671469">
<ele>18.983</ele>
<time>2019-06-15T07:39:52.581Z</time>
</trkpt>
<trkpt lat="22.2974878" lon="113.9670452">
<ele>19.261</ele>
<time>2019-06-15T07:40:00.209Z</time>
</trkpt>
<trkpt lat="22.2974902" lon="113.9669393">
<ele>19.253</ele>
<time>2019-06-15T07:40:08.385Z</time>
</trkpt>
<trkpt lat="22.2974470" lon="113.9668498">
<ele>19.200</ele>
<time>2019-06-15T07:40:16.785Z</time>
</trkpt>
<trkpt lat="22.2974958" lon="113.9667549">
<ele>19.220</ele>
<time>2019-06-15T07:40:25.884Z</time>
</trkpt>
<trkpt lat="22.2975424" lon="113.9666570">
<ele>19.252</ele>
<time>2019-06-15T07:40:34.090Z</time>
</trkpt>
<trkpt lat="22.2975685" lon="113.9665479">
<ele>19.214</ele>
<time>2019-06-15T07:40:41.542Z</time>
</trkpt>
<trkpt lat="22.2976018" lon="113.9664435">
<ele>19.162</ele>
<time>2019-06-15T07:40:48.597Z</time>
</trkpt>
<trkpt lat="22.2976291" lon="113.9663373">
<ele>19.163</ele>
<time>2019-06-15T07:40:55.486Z</time>
</trkpt>
<trkpt lat="22.2976434" lon="113.9662358">
<ele>19.076</ele>
<time>2019-06-15T07:41:02.199Z</time>
</trkpt>
<trkpt lat="22.2976855" lon="113.9661466">
<ele>18.652</ele>
<time>2019-06-15T07:41:09.446Z</time>
</trkpt>
<trkpt lat="22.2976614" lon="113.9660488">
<ele>18.008</ele>
<time>2019-06-15T07:41:18.158Z</time>
</trkpt>
<trkpt lat="22.2976377" lon="113.9659503">
<ele>17.554</ele>
<time>2019-06-15T07:41:27.286Z</time>
</trkpt>
<trkpt lat="22.2976128" lon="113.9658520">
<ele>17.625</ele>
<time>2019-06-15T07:41:35.999Z</time>
</trkpt>
<trkpt lat="22.2976128" lon="113.9658520">
<ele>18.190</ele>
<time>2019-06-15T07:41:46.999Z</time>
</trkpt>
<trkpt lat="22.2976128" lon="113.9658520">
<ele>18.680</ele>
<time>2019-06-15T07:41:47.099Z</time>
</trkpt>
<trkpt lat="22.2975510" lon="113.9657535">
<ele>18.667</ele>
<time>2019-06-15T07:42:06.060Z</time>
</trkpt>
<trkpt lat="22.2974869" lon="113.9656837">
<ele>19.279</ele>
<time>2019-06-15T07:42:15.999Z</time>
</trkpt>
<trkpt lat="22.2974869" lon="113.9656837">
<ele>21.377</ele>
<time>2019-06-15T07:42:23.999Z</time>
</trkpt>
<trkpt lat="22.2974869" lon="113.9656837">
<ele>23.221</ele>
<time>2019-06-15T07:42:24.099Z</time>
</trkpt>
<trkpt lat="22.2974077" lon="113.9656276">
<ele>22.203</ele>
<time>2019-06-15T07:43:04.095Z</time>
</trkpt>
<trkpt lat="22.2973377" lon="113.9655640">
<ele>23.006</ele>
<time>2019-06-15T07:43:20.685Z</time>
</trkpt>
<trkpt lat="22.2972648" lon="113.9654984">
<ele>27.247</ele>
<time>2019-06-15T07:43:34.025Z</time>
</trkpt>
<trkpt lat="22.2972032" lon="113.9654152">
<ele>33.046</ele>
<time>2019-06-15T07:43:43.939Z</time>
</trkpt>
<trkpt lat="22.2971717" lon="113.9653117">
<ele>37.415</ele>
<time>2019-06-15T07:43:53.128Z</time>
</trkpt>
<trkpt lat="22.2971355" lon="113.9652129">
<ele>39.682</ele>
<time>2019-06-15T07:44:01.640Z</time>
</trkpt>
<trkpt lat="22.2971031" lon="113.9651207">
<ele>40.577</ele>
<time>2019-06-15T07:44:09.242Z</time>
</trkpt>
<trkpt lat="22.2970836" lon="113.9650138">
<ele>40.853</ele>
<time>2019-06-15T07:44:17.242Z</time>
</trkpt>
<trkpt lat="22.2970494" lon="113.9649160">
<ele>40.896</ele>
<time>2019-06-15T07:44:24.667Z</time>
</trkpt>
<trkpt lat="22.2970168" lon="113.9648204">
<ele>40.913</ele>
<time>2019-06-15T07:44:31.800Z</time>
</trkpt>
<trkpt lat="22.2969934" lon="113.9647230">
<ele>40.870</ele>
<time>2019-06-15T07:44:39.093Z</time>
</trkpt>
<trkpt lat="22.2969853" lon="113.9646142">
<ele>39.895</ele>
<time>2019-06-15T07:44:47.031Z</time>
</trkpt>
<trkpt lat="22.2969844" lon="113.9645150">
<ele>37.532</ele>
<time>2019-06-15T07:44:53.998Z</time>
</trkpt>
<trkpt lat="22.2970266" lon="113.9644277">
<ele>35.108</ele>
<time>2019-06-15T07:45:00.960Z</time>
</trkpt>
<trkpt lat="22.2970753" lon="113.9643312">
<ele>33.701</ele>
<time>2019-06-15T07:45:08.540Z</time>
</trkpt>
<trkpt lat="22.2971082" lon="113.9642320">
<ele>32.938</ele>
<time>2019-06-15T07:45:15.603Z</time>
</trkpt>
<trkpt lat="22.2971098" lon="113.9641340">
<ele>32.548</ele>
<time>2019-06-15T07:45:22.977Z</time>
</trkpt>
<trkpt lat="22.2970756" lon="113.9640296">
<ele>32.085</ele>
<time>2019-06-15T07:45:31.236Z</time>
</trkpt>
<trkpt lat="22.2970525" lon="113.9639236">
<ele>31.174</ele>
<time>2019-06-15T07:45:37.954Z</time>
</trkpt>
<trkpt lat="22.2970454" lon="113.9638264">
<ele>30.367</ele>
<time>2019-06-15T07:45:44.204Z</time>
</trkpt>
<trkpt lat="22.2970388" lon="113.9637286">
<ele>30.207</ele>
<time>2019-06-15T07:45:51.167Z</time>
</trkpt>
<trkpt lat="22.2970296" lon="113.9636213">
<ele>30.412</ele>
<time>2019-06-15T07:45:59.363Z</time>
</trkpt>
<trkpt lat="22.2969954" lon="113.9635266">
<ele>30.602</ele>
<time>2019-06-15T07:46:07.162Z</time>
</trkpt>
<trkpt lat="22.2969486" lon="113.9634365">
<ele>30.871</ele>
<time>2019-06-15T07:46:14.849Z</time>
</trkpt>
<trkpt lat="22.2969660" lon="113.9633297">
<ele>31.429</ele>
<time>2019-06-15T07:46:22.574Z</time>
</trkpt>
<trkpt lat="22.2969439" lon="113.9632317">
<ele>32.123</ele>
<time>2019-06-15T07:46:29.759Z</time>
</trkpt>
<trkpt lat="22.2968973" lon="113.9631352">
<ele>32.653</ele>
<time>2019-06-15T07:46:38.104Z</time>
</trkpt>
<trkpt lat="22.2968340" lon="113.9630522">
<ele>33.155</ele>
<time>2019-06-15T07:46:46.835Z</time>
</trkpt>
<trkpt lat="22.2967769" lon="113.9629641">
<ele>33.918</ele>
<time>2019-06-15T07:46:54.662Z</time>
</trkpt>
<trkpt lat="22.2967243" lon="113.9628693">
<ele>34.837</ele>
<time>2019-06-15T07:47:01.827Z</time>
</trkpt>
<trkpt lat="22.2966722" lon="113.9627850">
<ele>35.611</ele>
<time>2019-06-15T07:47:08.346Z</time>
</trkpt>
<trkpt lat="22.2966315" lon="113.9626978">
<ele>36.199</ele>
<time>2019-06-15T07:47:15.038Z</time>
</trkpt>
<trkpt lat="22.2965770" lon="113.9626056">
<ele>36.647</ele>
<time>2019-06-15T07:47:23.054Z</time>
</trkpt>
<trkpt lat="22.2965009" lon="113.9625483">
<ele>37.013</ele>
<time>2019-06-15T07:47:30.470Z</time>
</trkpt>
<trkpt lat="22.2964264" lon="113.9624852">
<ele>37.300</ele>
<time>2019-06-15T07:47:37.540Z</time>
</trkpt>
<trkpt lat="22.2963487" lon="113.9624344">
<ele>37.470</ele>
<time>2019-06-15T07:47:44.153Z</time>
</trkpt>
<trkpt lat="22.2962906" lon="113.9623547">
<ele>37.559</ele>
<time>2019-06-15T07:47:51.069Z</time>
</trkpt>
<trkpt lat="22.2962643" lon="113.9622520">
<ele>37.655</ele>
<time>2019-06-15T07:47:58.351Z</time>
</trkpt>
<trkpt lat="22.2962241" lon="113.9621621">
<ele>37.794</ele>
<time>2019-06-15T07:48:05.549Z</time>
</trkpt>
<trkpt lat="22.2961571" lon="113.9620857">
<ele>38.207</ele>
<time>2019-06-15T07:48:14.627Z</time>
</trkpt>
<trkpt lat="22.2961167" lon="113.9619976">
<ele>39.279</ele>
<time>2019-06-15T07:48:23.999Z</time>
</trkpt>
<trkpt lat="22.2961167" lon="113.9619976">
<ele>40.797</ele>
<time>2019-06-15T07:48:26.999Z</time>
</trkpt>
<trkpt lat="22.2961167" lon="113.9619976">
<ele>41.761</ele>
<time>2019-06-15T07:48:27.099Z</time>
</trkpt>
<trkpt lat="22.2960604" lon="113.9618832">
<ele>41.170</ele>
<time>2019-06-15T07:48:44.575Z</time>
</trkpt>
<trkpt lat="22.2960178" lon="113.9617948">
<ele>41.519</ele>
<time>2019-06-15T07:48:53.228Z</time>
</trkpt>
<trkpt lat="22.2959725" lon="113.9617084">
<ele>43.466</ele>
<time>2019-06-15T07:49:01.785Z</time>
</trkpt>
<trkpt lat="22.2959512" lon="113.9616060">
<ele>45.932</ele>
<time>2019-06-15T07:49:10.803Z</time>
</trkpt>
<trkpt lat="22.2959118" lon="113.9615114">
<ele>47.545</ele>
<time>2019-06-15T07:49:19.411Z</time>
</trkpt>
<trkpt lat="22.2958403" lon="113.9614331">
<ele>48.346</ele>
<time>2019-06-15T07:49:28.145Z</time>
</trkpt>
<trkpt lat="22.2958165" lon="113.9613218">
<ele>48.773</ele>
<time>2019-06-15T07:49:36.722Z</time>
</trkpt>
<trkpt lat="22.2958028" lon="113.9612132">
<ele>48.960</ele>
<time>2019-06-15T07:49:44.281Z</time>
</trkpt>
<trkpt lat="22.2957723" lon="113.9611111">
<ele>48.963</ele>
<time>2019-06-15T07:49:51.317Z</time>
</trkpt>
<trkpt lat="22.2957547" lon="113.9610065">
<ele>48.909</ele>
<time>2019-06-15T07:49:58.755Z</time>
</trkpt>
<trkpt lat="22.2957388" lon="113.9609010">
<ele>49.035</ele>
<time>2019-06-15T07:50:07.236Z</time>
</trkpt>
<trkpt lat="22.2957092" lon="113.9607972">
<ele>49.600</ele>
<time>2019-06-15T07:50:16.859Z</time>
</trkpt>
<trkpt lat="22.2956745" lon="113.9607018">
<ele>50.552</ele>
<time>2019-06-15T07:50:25.135Z</time>
</trkpt>
<trkpt lat="22.2956396" lon="113.9606102">
<ele>51.687</ele>
<time>2019-06-15T07:50:32.999Z</time>
</trkpt>
<trkpt lat="22.2956396" lon="113.9606102">
<ele>52.776</ele>
<time>2019-06-15T07:50:38.999Z</time>
</trkpt>
<trkpt lat="22.2956396" lon="113.9606102">
<ele>53.372</ele>
<time>2019-06-15T07:50:39.307Z</time>
</trkpt>
<trkpt lat="22.2955565" lon="113.9605168">
<ele>53.303</ele>
<time>2019-06-15T07:50:53.763Z</time>
</trkpt>
<trkpt lat="22.2954794" lon="113.9604562">
<ele>53.036</ele>
<time>2019-06-15T07:51:01.742Z</time>
</trkpt>
<trkpt lat="22.2954075" lon="113.9603897">
<ele>53.150</ele>
<time>2019-06-15T07:51:10.459Z</time>
</trkpt>
<trkpt lat="22.2953242" lon="113.9603405">
<ele>53.822</ele>
<time>2019-06-15T07:51:18.999Z</time>
</trkpt>
<trkpt lat="22.2953242" lon="113.9603405">
<ele>54.696</ele>
<time>2019-06-15T07:51:28.998Z</time>
</trkpt>
<trkpt lat="22.2953242" lon="113.9603405">
<ele>55.187</ele>
<time>2019-06-15T07:53:54.881Z</time>
</trkpt>
<trkpt lat="22.2952659" lon="113.9602598">
<ele>55.129</ele>
<time>2019-06-15T07:54:47.998Z</time>
</trkpt>
<trkpt lat="22.2952659" lon="113.9602598">
<ele>54.908</ele>
<time>2019-06-15T07:54:54.000Z</time>
</trkpt>
<trkpt lat="22.2952659" lon="113.9602598">
<ele>54.869</ele>
<time>2019-06-15T07:54:54.827Z</time>
</trkpt>
<trkpt lat="22.2953019" lon="113.9601362">
<ele>54.934</ele>
<time>2019-06-15T07:55:11.887Z</time>
</trkpt>
<trkpt lat="22.2952841" lon="113.9600375">
<ele>55.533</ele>
<time>2019-06-15T07:55:19.274Z</time>
</trkpt>
<trkpt lat="22.2952553" lon="113.9599451">
<ele>57.207</ele>
<time>2019-06-15T07:55:26.368Z</time>
</trkpt>
<trkpt lat="22.2951941" lon="113.9598695">
<ele>59.015</ele>
<time>2019-06-15T07:55:34.097Z</time>
</trkpt>
<trkpt lat="22.2951340" lon="113.9597941">
<ele>60.134</ele>
<time>2019-06-15T07:55:42.999Z</time>
</trkpt>
<trkpt lat="22.2951340" lon="113.9597941">
<ele>60.787</ele>
<time>2019-06-15T07:55:49.999Z</time>
</trkpt>
<trkpt lat="22.2951340" lon="113.9597941">
<ele>61.074</ele>
<time>2019-06-15T07:55:55.237Z</time>
</trkpt>
<trkpt lat="22.2951488" lon="113.9596766">
<ele>61.014</ele>
<time>2019-06-15T07:56:09.568Z</time>
</trkpt>
<trkpt lat="22.2951747" lon="113.9595812">
<ele>60.839</ele>
<time>2019-06-15T07:56:18.302Z</time>
</trkpt>
<trkpt lat="22.2951800" lon="113.9594812">
<ele>60.695</ele>
<time>2019-06-15T07:56:27.264Z</time>
</trkpt>
<trkpt lat="22.2951787" lon="113.9593750">
<ele>60.583</ele>
<time>2019-06-15T07:56:36.392Z</time>
</trkpt>
<trkpt lat="22.2952215" lon="113.9592815">
<ele>60.438</ele>
<time>2019-06-15T07:56:45.448Z</time>
</trkpt>
<trkpt lat="22.2952164" lon="113.9591821">
<ele>60.192</ele>
<time>2019-06-15T07:56:53.999Z</time>
</trkpt>
<trkpt lat="22.2952164" lon="113.9591821">
<ele>59.909</ele>
<time>2019-06-15T07:57:04.999Z</time>
</trkpt>
<trkpt lat="22.2952164" lon="113.9591821">
<ele>59.746</ele>
<time>2019-06-15T07:57:36.086Z</time>
</trkpt>
<trkpt lat="22.2951480" lon="113.9590749">
<ele>59.734</ele>
<time>2019-06-15T07:57:53.927Z</time>
</trkpt>
<trkpt lat="22.2951138" lon="113.9589812">
<ele>59.769</ele>
<time>2019-06-15T07:58:03.011Z</time>
</trkpt>
<trkpt lat="22.2950971" lon="113.9588766">
<ele>59.717</ele>
<time>2019-06-15T07:58:11.665Z</time>
</trkpt>
<trkpt lat="22.2950890" lon="113.9587701">
<ele>59.515</ele>
<time>2019-06-15T07:58:20.129Z</time>
</trkpt>
<trkpt lat="22.2950931" lon="113.9586623">
<ele>59.242</ele>
<time>2019-06-15T07:58:28.813Z</time>
</trkpt>
<trkpt lat="22.2950615" lon="113.9585700">
<ele>59.048</ele>
<time>2019-06-15T07:58:36.726Z</time>
</trkpt>
<trkpt lat="22.2950180" lon="113.9584798">
<ele>58.915</ele>
<time>2019-06-15T07:58:44.545Z</time>
</trkpt>
<trkpt lat="22.2949731" lon="113.9583951">
<ele>58.535</ele>
<time>2019-06-15T07:58:52.119Z</time>
</trkpt>
<trkpt lat="22.2949257" lon="113.9583005">
<ele>57.762</ele>
<time>2019-06-15T07:59:00.835Z</time>
</trkpt>
<trkpt lat="22.2949105" lon="113.9581977">
<ele>56.946</ele>
<time>2019-06-15T07:59:09.609Z</time>
</trkpt>
<trkpt lat="22.2949409" lon="113.9580965">
<ele>56.321</ele>
<time>2019-06-15T07:59:18.608Z</time>
</trkpt>
<trkpt lat="22.2949762" lon="113.9580036">
<ele>55.722</ele>
<time>2019-06-15T07:59:26.592Z</time>
</trkpt>
<trkpt lat="22.2949799" lon="113.9578953">
<ele>55.162</ele>
<time>2019-06-15T07:59:34.500Z</time>
</trkpt>
<trkpt lat="22.2949366" lon="113.9577993">
<ele>54.846</ele>
<time>2019-06-15T07:59:43.168Z</time>
</trkpt>
<trkpt lat="22.2948900" lon="113.9577142">
<ele>54.976</ele>
<time>2019-06-15T07:59:52.851Z</time>
</trkpt>
<trkpt lat="22.2948779" lon="113.9576169">
<ele>55.753</ele>
<time>2019-06-15T08:00:04.795Z</time>
</trkpt>
<trkpt lat="22.2948733" lon="113.9575178">
<ele>57.004</ele>
<time>2019-06-15T08:00:17.066Z</time>
</trkpt>
<trkpt lat="22.2948497" lon="113.9574208">
<ele>58.604</ele>
<time>2019-06-15T08:00:29.565Z</time>
</trkpt>
<trkpt lat="22.2948097" lon="113.9573231">
<ele>60.484</ele>
<time>2019-06-15T08:00:40.093Z</time>
</trkpt>
<trkpt lat="22.2947538" lon="113.9572399">
<ele>62.012</ele>
<time>2019-06-15T08:00:48.988Z</time>
</trkpt>
<trkpt lat="22.2947024" lon="113.9571592">
<ele>62.391</ele>
<time>2019-06-15T08:00:58.181Z</time>
</trkpt>
<trkpt lat="22.2946423" lon="113.9570848">
<ele>61.197</ele>
<time>2019-06-15T08:01:08.730Z</time>
</trkpt>
<trkpt lat="22.2945543" lon="113.9570566">
<ele>58.757</ele>
<time>2019-06-15T08:01:18.900Z</time>
</trkpt>
<trkpt lat="22.2944875" lon="113.9569735">
<ele>55.883</ele>
<time>2019-06-15T08:01:29.756Z</time>
</trkpt>
<trkpt lat="22.2944348" lon="113.9568883">
<ele>53.094</ele>
<time>2019-06-15T08:01:37.123Z</time>
</trkpt>
<trkpt lat="22.2943759" lon="113.9567991">
<ele>50.965</ele>
<time>2019-06-15T08:01:43.835Z</time>
</trkpt>
<trkpt lat="22.2943155" lon="113.9567112">
<ele>49.953</ele>
<time>2019-06-15T08:01:50.836Z</time>
</trkpt>
<trkpt lat="22.2942655" lon="113.9566197">
<ele>49.746</ele>
<time>2019-06-15T08:01:58.703Z</time>
</trkpt>
<trkpt lat="22.2941984" lon="113.9565433">
<ele>49.800</ele>
<time>2019-06-15T08:02:07.005Z</time>
</trkpt>
<trkpt lat="22.2941231" lon="113.9564709">
<ele>49.651</ele>
<time>2019-06-15T08:02:15.470Z</time>
</trkpt>
<trkpt lat="22.2940835" lon="113.9563821">
<ele>49.073</ele>
<time>2019-06-15T08:02:23.000Z</time>
</trkpt>
<trkpt lat="22.2940835" lon="113.9563821">
<ele>48.316</ele>
<time>2019-06-15T08:02:31.000Z</time>
</trkpt>
<trkpt lat="22.2940835" lon="113.9563821">
<ele>47.869</ele>
<time>2019-06-15T08:02:31.100Z</time>
</trkpt>
<trkpt lat="22.2940037" lon="113.9563060">
<ele>47.879</ele>
<time>2019-06-15T08:02:43.661Z</time>
</trkpt>
<trkpt lat="22.2939209" lon="113.9562680">
<ele>47.734</ele>
<time>2019-06-15T08:02:51.264Z</time>
</trkpt>
<trkpt lat="22.2938841" lon="113.9561669">
<ele>46.971</ele>
<time>2019-06-15T08:02:58.999Z</time>
</trkpt>
<trkpt lat="22.2938841" lon="113.9561669">
<ele>46.093</ele>
<time>2019-06-15T08:03:02.999Z</time>
</trkpt>
<trkpt lat="22.2938841" lon="113.9561669">
<ele>45.698</ele>
<time>2019-06-15T08:03:27.531Z</time>
</trkpt>
<trkpt lat="22.2938487" lon="113.9560720">
<ele>45.730</ele>
<time>2019-06-15T08:03:38.999Z</time>
</trkpt>
<trkpt lat="22.2938487" lon="113.9560720">
<ele>45.906</ele>
<time>2019-06-15T08:03:46.999Z</time>
</trkpt>
<trkpt lat="22.2938487" lon="113.9560720">
<ele>46.003</ele>
<time>2019-06-15T08:03:51.530Z</time>
</trkpt>
<trkpt lat="22.2937822" lon="113.9560015">
<ele>45.903</ele>
<time>2019-06-15T08:04:08.160Z</time>
</trkpt>
<trkpt lat="22.2937105" lon="113.9559373">
<ele>45.856</ele>
<time>2019-06-15T08:04:16.871Z</time>
</trkpt>
<trkpt lat="22.2936354" lon="113.9558696">
<ele>45.798</ele>
<time>2019-06-15T08:04:24.276Z</time>
</trkpt>
<trkpt lat="22.2935556" lon="113.9558137">
<ele>45.517</ele>
<time>2019-06-15T08:04:31.114Z</time>
</trkpt>
<trkpt lat="22.2935052" lon="113.9557306">
<ele>44.845</ele>
<time>2019-06-15T08:04:38.404Z</time>
</trkpt>
<trkpt lat="22.2935117" lon="113.9556306">
<ele>44.031</ele>
<time>2019-06-15T08:04:45.823Z</time>
</trkpt>
<trkpt lat="22.2935072" lon="113.9555291">
<ele>43.493</ele>
<time>2019-06-15T08:04:52.733Z</time>
</trkpt>
<trkpt lat="22.2935018" lon="113.9554266">
<ele>43.229</ele>
<time>2019-06-15T08:04:59.636Z</time>
</trkpt>
<trkpt lat="22.2934435" lon="113.9553519">
<ele>42.888</ele>
<time>2019-06-15T08:05:06.991Z</time>
</trkpt>
<trkpt lat="22.2933709" lon="113.9552805">
<ele>42.341</ele>
<time>2019-06-15T08:05:15.843Z</time>
</trkpt>
<trkpt lat="22.2933119" lon="113.9552043">
<ele>41.410</ele>
<time>2019-06-15T08:05:24.517Z</time>
</trkpt>
<trkpt lat="22.2932206" lon="113.9551557">
<ele>40.372</ele>
<time>2019-06-15T08:05:33.499Z</time>
</trkpt>
<trkpt lat="22.2931457" lon="113.9550945">
<ele>38.739</ele>
<time>2019-06-15T08:05:41.343Z</time>
</trkpt>
<trkpt lat="22.2930911" lon="113.9550018">
<ele>36.557</ele>
<time>2019-06-15T08:05:49.688Z</time>
</trkpt>
<trkpt lat="22.2930589" lon="113.9549085">
<ele>34.417</ele>
<time>2019-06-15T08:05:57.124Z</time>
</trkpt>
<trkpt lat="22.2929975" lon="113.9548350">
<ele>32.481</ele>
<time>2019-06-15T08:06:05.080Z</time>
</trkpt>
<trkpt lat="22.2929175" lon="113.9547893">
<ele>31.106</ele>
<time>2019-06-15T08:06:13.923Z</time>
</trkpt>
<trkpt lat="22.2928505" lon="113.9547152">
<ele>30.125</ele>
<time>2019-06-15T08:06:24.998Z</time>
</trkpt>
<trkpt lat="22.2928505" lon="113.9547152">
<ele>29.158</ele>
<time>2019-06-15T08:06:40.998Z</time>
</trkpt>
<trkpt lat="22.2928505" lon="113.9547152">
<ele>28.522</ele>
<time>2019-06-15T08:07:01.139Z</time>
</trkpt>
<trkpt lat="22.2927592" lon="113.9546840">
<ele>28.858</ele>
<time>2019-06-15T08:07:13.998Z</time>
</trkpt>
<trkpt lat="22.2927592" lon="113.9546840">
<ele>29.048</ele>
<time>2019-06-15T08:07:19.998Z</time>
</trkpt>
<trkpt lat="22.2927592" lon="113.9546840">
<ele>29.025</ele>
<time>2019-06-15T08:08:41.987Z</time>
</trkpt>
<trkpt lat="22.2926468" lon="113.9546768">
<ele>28.928</ele>
<time>2019-06-15T08:09:08.094Z</time>
</trkpt>
<trkpt lat="22.2925839" lon="113.9546020">
<ele>27.913</ele>
<time>2019-06-15T08:09:16.296Z</time>
</trkpt>
<trkpt lat="22.2925136" lon="113.9545187">
<ele>25.045</ele>
<time>2019-06-15T08:09:24.098Z</time>
</trkpt>
<trkpt lat="22.2924512" lon="113.9544469">
<ele>21.747</ele>
<time>2019-06-15T08:09:31.056Z</time>
</trkpt>
<trkpt lat="22.2924098" lon="113.9543578">
<ele>19.675</ele>
<time>2019-06-15T08:09:38.309Z</time>
</trkpt>
<trkpt lat="22.2923886" lon="113.9542514">
<ele>18.672</ele>
<time>2019-06-15T08:09:45.856Z</time>
</trkpt>
<trkpt lat="22.2924123" lon="113.9541488">
<ele>18.125</ele>
<time>2019-06-15T08:09:52.621Z</time>
</trkpt>
<trkpt lat="22.2924336" lon="113.9540497">
<ele>17.745</ele>
<time>2019-06-15T08:09:58.969Z</time>
</trkpt>
<trkpt lat="22.2924632" lon="113.9539520">
<ele>17.508</ele>
<time>2019-06-15T08:10:05.316Z</time>
</trkpt>
<trkpt lat="22.2924616" lon="113.9538398">
<ele>17.362</ele>
<time>2019-06-15T08:10:12.276Z</time>
</trkpt>
<trkpt lat="22.2923992" lon="113.9537564">
<ele>17.279</ele>
<time>2019-06-15T08:10:19.188Z</time>
</trkpt>
<trkpt lat="22.2923134" lon="113.9537057">
<ele>17.272</ele>
<time>2019-06-15T08:10:26.326Z</time>
</trkpt>
<trkpt lat="22.2922249" lon="113.9536505">
<ele>17.378</ele>
<time>2019-06-15T08:10:33.821Z</time>
</trkpt>
<trkpt lat="22.2922436" lon="113.9535549">
<ele>17.570</ele>
<time>2019-06-15T08:10:41.288Z</time>
</trkpt>
<trkpt lat="22.2922776" lon="113.9534528">
<ele>17.585</ele>
<time>2019-06-15T08:10:49.999Z</time>
</trkpt>
<trkpt lat="22.2922776" lon="113.9534528">
<ele>17.249</ele>
<time>2019-06-15T08:10:55.999Z</time>
</trkpt>
<trkpt lat="22.2922776" lon="113.9534528">
<ele>16.914</ele>
<time>2019-06-15T08:11:02.511Z</time>
</trkpt>
<trkpt lat="22.2922282" lon="113.9533634">
<ele>17.076</ele>
<time>2019-06-15T08:11:19.238Z</time>
</trkpt>
<trkpt lat="22.2922353" lon="113.9532576">
<ele>17.144</ele>
<time>2019-06-15T08:11:30.859Z</time>
</trkpt>
<trkpt lat="22.2921472" lon="113.9532210">
<ele>17.033</ele>
<time>2019-06-15T08:11:40.610Z</time>
</trkpt>
<trkpt lat="22.2920631" lon="113.9531794">
<ele>17.069</ele>
<time>2019-06-15T08:11:48.353Z</time>
</trkpt>
<trkpt lat="22.2919889" lon="113.9531046">
<ele>17.660</ele>
<time>2019-06-15T08:11:56.772Z</time>
</trkpt>
<trkpt lat="22.2919212" lon="113.9530354">
<ele>18.664</ele>
<time>2019-06-15T08:12:04.879Z</time>
</trkpt>
<trkpt lat="22.2918241" lon="113.9530425">
<ele>19.568</ele>
<time>2019-06-15T08:12:15.263Z</time>
</trkpt>
<trkpt lat="22.2917687" lon="113.9529571">
<ele>20.083</ele>
<time>2019-06-15T08:12:25.483Z</time>
</trkpt>
<trkpt lat="22.2917281" lon="113.9528633">
<ele>20.182</ele>
<time>2019-06-15T08:12:34.590Z</time>
</trkpt>
<trkpt lat="22.2916361" lon="113.9528249">
<ele>20.003</ele>
<time>2019-06-15T08:12:44.427Z</time>
</trkpt>
<trkpt lat="22.2915481" lon="113.9527765">
<ele>20.041</ele>
<time>2019-06-15T08:12:55.186Z</time>
</trkpt>
<trkpt lat="22.2914788" lon="113.9527070">
<ele>20.817</ele>
<time>2019-06-15T08:13:03.928Z</time>
</trkpt>
<trkpt lat="22.2914107" lon="113.9526425">
<ele>22.050</ele>
<time>2019-06-15T08:13:10.881Z</time>
</trkpt>
<trkpt lat="22.2913453" lon="113.9525630">
<ele>22.969</ele>
<time>2019-06-15T08:13:18.161Z</time>
</trkpt>
<trkpt lat="22.2912834" lon="113.9524749">
<ele>23.242</ele>
<time>2019-06-15T08:13:26.148Z</time>
</trkpt>
<trkpt lat="22.2912317" lon="113.9523929">
<ele>22.967</ele>
<time>2019-06-15T08:13:34.092Z</time>
</trkpt>
<trkpt lat="22.2912034" lon="113.9522983">
<ele>22.378</ele>
<time>2019-06-15T08:13:42.872Z</time>
</trkpt>
<trkpt lat="22.2911628" lon="113.9521988">
<ele>21.491</ele>
<time>2019-06-15T08:13:52.872Z</time>
</trkpt>
<trkpt lat="22.2910913" lon="113.9521251">
<ele>20.325</ele>
<time>2019-06-15T08:14:00.663Z</time>
</trkpt>
<trkpt lat="22.2910183" lon="113.9520541">
<ele>19.340</ele>
<time>2019-06-15T08:14:08.379Z</time>
</trkpt>
<trkpt lat="22.2909676" lon="113.9519693">
<ele>19.046</ele>
<time>2019-06-15T08:14:16.848Z</time>
</trkpt>
<trkpt lat="22.2908801" lon="113.9519250">
<ele>19.510</ele>
<time>2019-06-15T08:14:25.380Z</time>
</trkpt>
<trkpt lat="22.2907967" lon="113.9518887">
<ele>20.397</ele>
<time>2019-06-15T08:14:33.039Z</time>
</trkpt>
<trkpt lat="22.2907045" lon="113.9518843">
<ele>21.175</ele>
<time>2019-06-15T08:14:42.812Z</time>
</trkpt>
<trkpt lat="22.2906208" lon="113.9518408">
<ele>21.851</ele>
<time>2019-06-15T08:14:52.998Z</time>
</trkpt>
<trkpt lat="22.2906208" lon="113.9518408">
<ele>22.649</ele>
<time>2019-06-15T08:15:10.998Z</time>
</trkpt>
<trkpt lat="22.2906208" lon="113.9518408">
<ele>23.203</ele>
<time>2019-06-15T08:15:11.098Z</time>
</trkpt>
<trkpt lat="22.2905436" lon="113.9518965">
<ele>22.870</ele>
<time>2019-06-15T08:15:28.997Z</time>
</trkpt>
<trkpt lat="22.2905436" lon="113.9518965">
<ele>22.683</ele>
<time>2019-06-15T08:15:45.997Z</time>
</trkpt>
<trkpt lat="22.2905436" lon="113.9518965">
<ele>22.685</ele>
<time>2019-06-15T08:19:06.415Z</time>
</trkpt>
<trkpt lat="22.2904475" lon="113.9518288">
<ele>22.770</ele>
<time>2019-06-15T08:19:25.663Z</time>
</trkpt>
<trkpt lat="22.2903998" lon="113.9517452">
<ele>24.144</ele>
<time>2019-06-15T08:19:34.005Z</time>
</trkpt>
<trkpt lat="22.2903500" lon="113.9516590">
<ele>27.583</ele>
<time>2019-06-15T08:19:41.974Z</time>
</trkpt>
<trkpt lat="22.2902819" lon="113.9515840">
<ele>31.039</ele>
<time>2019-06-15T08:19:49.888Z</time>
</trkpt>
<trkpt lat="22.2902234" lon="113.9514981">
<ele>32.537</ele>
<time>2019-06-15T08:19:57.697Z</time>
</trkpt>
<trkpt lat="22.2901774" lon="113.9514090">
<ele>32.573</ele>
<time>2019-06-15T08:20:04.976Z</time>
</trkpt>
<trkpt lat="22.2901280" lon="113.9513251">
<ele>32.144</ele>
<time>2019-06-15T08:20:11.760Z</time>
</trkpt>
<trkpt lat="22.2900674" lon="113.9512379">
<ele>31.829</ele>
<time>2019-06-15T08:20:18.699Z</time>
</trkpt>
<trkpt lat="22.2900120" lon="113.9511614">
<ele>31.726</ele>
<time>2019-06-15T08:20:24.788Z</time>
</trkpt>
<trkpt lat="22.2899625" lon="113.9510680">
<ele>31.698</ele>
<time>2019-06-15T08:20:31.757Z</time>
</trkpt>
<trkpt lat="22.2899130" lon="113.9509782">
<ele>31.635</ele>
<time>2019-06-15T08:20:38.756Z</time>
</trkpt>
<trkpt lat="22.2898662" lon="113.9508949">
<ele>31.546</ele>
<time>2019-06-15T08:20:45.380Z</time>
</trkpt>
<trkpt lat="22.2898212" lon="113.9508098">
<ele>31.481</ele>
<time>2019-06-15T08:20:52.178Z</time>
</trkpt>
<trkpt lat="22.2897732" lon="113.9507201">
<ele>31.463</ele>
<time>2019-06-15T08:20:59.557Z</time>
</trkpt>
<trkpt lat="22.2897270" lon="113.9506356">
<ele>31.511</ele>
<time>2019-06-15T08:21:06.742Z</time>
</trkpt>
<trkpt lat="22.2896614" lon="113.9505682">
<ele>31.584</ele>
<time>2019-06-15T08:21:14.404Z</time>
</trkpt>
<trkpt lat="22.2896453" lon="113.9504692">
<ele>31.551</ele>
<time>2019-06-15T08:21:23.617Z</time>
</trkpt>
<trkpt lat="22.2896145" lon="113.9503692">
<ele>31.213</ele>
<time>2019-06-15T08:21:33.539Z</time>
</trkpt>
<trkpt lat="22.2895533" lon="113.9502922">
<ele>30.628</ele>
<time>2019-06-15T08:21:41.623Z</time>
</trkpt>
<trkpt lat="22.2895051" lon="113.9502078">
<ele>29.954</ele>
<time>2019-06-15T08:21:49.067Z</time>
</trkpt>
<trkpt lat="22.2894411" lon="113.9501291">
<ele>29.473</ele>
<time>2019-06-15T08:21:55.988Z</time>
</trkpt>
<trkpt lat="22.2893660" lon="113.9500584">
<ele>29.294</ele>
<time>2019-06-15T08:22:02.825Z</time>
</trkpt>
<trkpt lat="22.2893192" lon="113.9499658">
<ele>29.349</ele>
<time>2019-06-15T08:22:09.492Z</time>
</trkpt>
<trkpt lat="22.2892911" lon="113.9498628">
<ele>29.408</ele>
<time>2019-06-15T08:22:15.998Z</time>
</trkpt>
<trkpt lat="22.2892911" lon="113.9498628">
<ele>29.402</ele>
<time>2019-06-15T08:22:19.998Z</time>
</trkpt>
<trkpt lat="22.2892911" lon="113.9498628">
<ele>29.367</ele>
<time>2019-06-15T08:22:57.797Z</time>
</trkpt>
<trkpt lat="22.2892980" lon="113.9496962">
<ele>29.353</ele>
<time>2019-06-15T08:23:13.838Z</time>
</trkpt>
<trkpt lat="22.2893342" lon="113.9495988">
<ele>28.725</ele>
<time>2019-06-15T08:23:19.998Z</time>
</trkpt>
<trkpt lat="22.2893342" lon="113.9495988">
<ele>27.087</ele>
<time>2019-06-15T08:23:27.997Z</time>
</trkpt>
<trkpt lat="22.2893342" lon="113.9495988">
<ele>25.713</ele>
<time>2019-06-15T08:23:29.287Z</time>
</trkpt>
<trkpt lat="22.2893194" lon="113.9494809">
<ele>25.725</ele>
<time>2019-06-15T08:23:42.997Z</time>
</trkpt>
<trkpt lat="22.2893194" lon="113.9494809">
<ele>26.250</ele>
<time>2019-06-15T08:23:56.000Z</time>
</trkpt>
<trkpt lat="22.2893194" lon="113.9494809">
<ele>26.292</ele>
<time>2019-06-15T08:23:56.100Z</time>
</trkpt>
<trkpt lat="22.2892225" lon="113.9494237">
<ele>26.059</ele>
<time>2019-06-15T08:24:16.741Z</time>
</trkpt>
<trkpt lat="22.2891622" lon="113.9493420">
<ele>26.005</ele>
<time>2019-06-15T08:24:25.182Z</time>
</trkpt>
<trkpt lat="22.2891435" lon="113.9492389">
<ele>26.085</ele>
<time>2019-06-15T08:24:33.207Z</time>
</trkpt>
<trkpt lat="22.2891249" lon="113.9491425">
<ele>25.978</ele>
<time>2019-06-15T08:24:41.461Z</time>
</trkpt>
<trkpt lat="22.2890908" lon="113.9490438">
<ele>25.431</ele>
<time>2019-06-15T08:24:50.450Z</time>
</trkpt>
<trkpt lat="22.2891037" lon="113.9489456">
<ele>24.354</ele>
<time>2019-06-15T08:24:57.523Z</time>
</trkpt>
<trkpt lat="22.2891027" lon="113.9488473">
<ele>23.058</ele>
<time>2019-06-15T08:25:04.503Z</time>
</trkpt>
<trkpt lat="22.2891396" lon="113.9487470">
<ele>21.989</ele>
<time>2019-06-15T08:25:12.887Z</time>
</trkpt>
<trkpt lat="22.2890999" lon="113.9486589">
<ele>20.694</ele>
<time>2019-06-15T08:25:20.271Z</time>
</trkpt>
<trkpt lat="22.2890106" lon="113.9486253">
<ele>18.751</ele>
<time>2019-06-15T08:25:27.324Z</time>
</trkpt>
<trkpt lat="22.2889550" lon="113.9485452">
<ele>16.975</ele>
<time>2019-06-15T08:25:34.283Z</time>
</trkpt>
<trkpt lat="22.2888884" lon="113.9484662">
<ele>16.062</ele>
<time>2019-06-15T08:25:41.698Z</time>
</trkpt>
<trkpt lat="22.2888303" lon="113.9483904">
<ele>15.811</ele>
<time>2019-06-15T08:25:48.416Z</time>
</trkpt>
<trkpt lat="22.2887492" lon="113.9483246">
<ele>15.880</ele>
<time>2019-06-15T08:25:55.879Z</time>
</trkpt>
<trkpt lat="22.2886809" lon="113.9482611">
<ele>15.910</ele>
<time>2019-06-15T08:26:02.567Z</time>
</trkpt>
<trkpt lat="22.2886214" lon="113.9481770">
<ele>15.725</ele>
<time>2019-06-15T08:26:09.646Z</time>
</trkpt>
<trkpt lat="22.2885764" lon="113.9480826">
<ele>15.439</ele>
<time>2019-06-15T08:26:16.283Z</time>
</trkpt>
<trkpt lat="22.2885258" lon="113.9479868">
<ele>15.138</ele>
<time>2019-06-15T08:26:23.195Z</time>
</trkpt>
<trkpt lat="22.2884877" lon="113.9478982">
<ele>14.734</ele>
<time>2019-06-15T08:26:29.574Z</time>
</trkpt>
<trkpt lat="22.2884715" lon="113.9477991">
<ele>14.200</ele>
<time>2019-06-15T08:26:36.248Z</time>
</trkpt>
<trkpt lat="22.2884622" lon="113.9476991">
<ele>13.651</ele>
<time>2019-06-15T08:26:42.829Z</time>
</trkpt>
<trkpt lat="22.2884777" lon="113.9476026">
<ele>13.218</ele>
<time>2019-06-15T08:26:49.185Z</time>
</trkpt>
<trkpt lat="22.2884987" lon="113.9475022">
<ele>12.870</ele>
<time>2019-06-15T08:26:55.912Z</time>
</trkpt>
<trkpt lat="22.2885090" lon="113.9473924">
<ele>12.345</ele>
<time>2019-06-15T08:27:03.164Z</time>
</trkpt>
<trkpt lat="22.2885348" lon="113.9472926">
<ele>11.549</ele>
<time>2019-06-15T08:27:09.999Z</time>
</trkpt>
<trkpt lat="22.2885348" lon="113.9472926">
<ele>10.797</ele>
<time>2019-06-15T08:27:15.999Z</time>
</trkpt>
<trkpt lat="22.2885348" lon="113.9472926">
<ele>10.444</ele>
<time>2019-06-15T08:27:39.474Z</time>
</trkpt>
<trkpt lat="22.2885944" lon="113.9471850">
<ele>10.583</ele>
<time>2019-06-15T08:27:58.130Z</time>
</trkpt>
<trkpt lat="22.2886470" lon="113.9470979">
<ele>11.251</ele>
<time>2019-06-15T08:28:07.302Z</time>
</trkpt>
<trkpt lat="22.2887414" lon="113.9471090">
<ele>12.235</ele>
<time>2019-06-15T08:28:13.440Z</time>
</trkpt>
<trkpt lat="22.2890062" lon="113.9466858">
<ele>12.853</ele>
<time>2019-06-15T08:28:44.024Z</time>
</trkpt>
<trkpt lat="22.2890356" lon="113.9465856">
<ele>12.151</ele>
<time>2019-06-15T08:28:49.823Z</time>
</trkpt>
<trkpt lat="22.2890895" lon="113.9465000">
<ele>10.838</ele>
<time>2019-06-15T08:28:56.172Z</time>
</trkpt>
<trkpt lat="22.2891467" lon="113.9464245">
<ele>9.308</ele>
<time>2019-06-15T08:29:03.152Z</time>
</trkpt>
<trkpt lat="22.2891567" lon="113.9463244">
<ele>8.112</ele>
<time>2019-06-15T08:29:11.044Z</time>
</trkpt>
<trkpt lat="22.2891548" lon="113.9462209">
<ele>7.487</ele>
<time>2019-06-15T08:29:18.998Z</time>
</trkpt>
<trkpt lat="22.2891548" lon="113.9462209">
<ele>7.343</ele>
<time>2019-06-15T08:29:25.998Z</time>
</trkpt>
<trkpt lat="22.2891548" lon="113.9462209">
<ele>7.368</ele>
<time>2019-06-15T08:29:26.098Z</time>
</trkpt>
<trkpt lat="22.2891016" lon="113.9460829">
<ele>7.397</ele>
<time>2019-06-15T08:29:47.235Z</time>
</trkpt>
<trkpt lat="22.2890971" lon="113.9459837">
<ele>7.714</ele>
<time>2019-06-15T08:29:58.401Z</time>
</trkpt>
<trkpt lat="22.2890585" lon="113.9458849">
<ele>8.494</ele>
<time>2019-06-15T08:30:06.831Z</time>
</trkpt>
<trkpt lat="22.2890151" lon="113.9457987">
<ele>9.113</ele>
<time>2019-06-15T08:30:13.869Z</time>
</trkpt>
<trkpt lat="22.2889946" lon="113.9457003">
<ele>8.993</ele>
<time>2019-06-15T08:30:20.940Z</time>
</trkpt>
<trkpt lat="22.2889593" lon="113.9455994">
<ele>8.403</ele>
<time>2019-06-15T08:30:28.074Z</time>
</trkpt>
<trkpt lat="22.2889349" lon="113.9454936">
<ele>7.847</ele>
<time>2019-06-15T08:30:35.323Z</time>
</trkpt>
<trkpt lat="22.2889366" lon="113.9453853">
<ele>7.497</ele>
<time>2019-06-15T08:30:42.741Z</time>
</trkpt>
<trkpt lat="22.2889390" lon="113.9452808">
<ele>7.292</ele>
<time>2019-06-15T08:30:49.856Z</time>
</trkpt>
<trkpt lat="22.2889478" lon="113.9451821">
<ele>7.217</ele>
<time>2019-06-15T08:30:57.073Z</time>
</trkpt>
<trkpt lat="22.2890037" lon="113.9450940">
<ele>7.280</ele>
<time>2019-06-15T08:31:05.283Z</time>
</trkpt>
<trkpt lat="22.2889753" lon="113.9449970">
<ele>7.350</ele>
<time>2019-06-15T08:31:13.628Z</time>
</trkpt>
<trkpt lat="22.2889952" lon="113.9449000">
<ele>7.326</ele>
<time>2019-06-15T08:31:21.763Z</time>
</trkpt>
<trkpt lat="22.2890106" lon="113.9447920">
<ele>7.327</ele>
<time>2019-06-15T08:31:29.882Z</time>
</trkpt>
<trkpt lat="22.2890207" lon="113.9446929">
<ele>7.475</ele>
<time>2019-06-15T08:31:37.618Z</time>
</trkpt>
<trkpt lat="22.2890324" lon="113.9445833">
<ele>7.807</ele>
<time>2019-06-15T08:31:46.055Z</time>
</trkpt>
<trkpt lat="22.2890293" lon="113.9444835">
<ele>8.137</ele>
<time>2019-06-15T08:31:53.140Z</time>
</trkpt>
<trkpt lat="22.2890234" lon="113.9443861">
<ele>8.310</ele>
<time>2019-06-15T08:32:00.212Z</time>
</trkpt>
<trkpt lat="22.2890652" lon="113.9442947">
<ele>8.326</ele>
<time>2019-06-15T08:32:07.735Z</time>
</trkpt>
<trkpt lat="22.2891178" lon="113.9442156">
<ele>8.221</ele>
<time>2019-06-15T08:32:14.857Z</time>
</trkpt>
<trkpt lat="22.2891318" lon="113.9441093">
<ele>8.092</ele>
<time>2019-06-15T08:32:22.575Z</time>
</trkpt>
<trkpt lat="22.2891578" lon="113.9440125">
<ele>8.161</ele>
<time>2019-06-15T08:32:29.919Z</time>
</trkpt>
<trkpt lat="22.2891819" lon="113.9439159">
<ele>8.441</ele>
<time>2019-06-15T08:32:37.248Z</time>
</trkpt>
<trkpt lat="22.2891610" lon="113.9438145">
<ele>8.742</ele>
<time>2019-06-15T08:32:43.802Z</time>
</trkpt>
<trkpt lat="22.2891782" lon="113.9437048">
<ele>8.892</ele>
<time>2019-06-15T08:32:50.295Z</time>
</trkpt>
<trkpt lat="22.2892067" lon="113.9436036">
<ele>9.165</ele>
<time>2019-06-15T08:32:57.004Z</time>
</trkpt>
<trkpt lat="22.2892658" lon="113.9435303">
<ele>9.782</ele>
<time>2019-06-15T08:33:03.960Z</time>
</trkpt>
<trkpt lat="22.2892905" lon="113.9434273">
<ele>10.492</ele>
<time>2019-06-15T08:33:11.738Z</time>
</trkpt>
<trkpt lat="22.2893265" lon="113.9433189">
<ele>11.140</ele>
<time>2019-06-15T08:33:19.331Z</time>
</trkpt>
<trkpt lat="22.2893189" lon="113.9432139">
<ele>11.760</ele>
<time>2019-06-15T08:33:25.694Z</time>
</trkpt>
<trkpt lat="22.2893485" lon="113.9431148">
<ele>12.175</ele>
<time>2019-06-15T08:33:32.424Z</time>
</trkpt>
<trkpt lat="22.2893589" lon="113.9430176">
<ele>12.295</ele>
<time>2019-06-15T08:33:39.258Z</time>
</trkpt>
<trkpt lat="22.2893834" lon="113.9429150">
<ele>12.270</ele>
<time>2019-06-15T08:33:47.137Z</time>
</trkpt>
<trkpt lat="22.2894142" lon="113.9428230">
<ele>12.236</ele>
<time>2019-06-15T08:33:54.154Z</time>
</trkpt>
<trkpt lat="22.2893858" lon="113.9427172">
<ele>12.201</ele>
<time>2019-06-15T08:34:01.148Z</time>
</trkpt>
<trkpt lat="22.2894056" lon="113.9426082">
<ele>12.122</ele>
<time>2019-06-15T08:34:07.923Z</time>
</trkpt>
<trkpt lat="22.2894582" lon="113.9425257">
<ele>11.957</ele>
<time>2019-06-15T08:34:14.079Z</time>
</trkpt>
<trkpt lat="22.2894829" lon="113.9424230">
<ele>11.348</ele>
<time>2019-06-15T08:34:21.426Z</time>
</trkpt>
<trkpt lat="22.2895060" lon="113.9423241">
<ele>10.175</ele>
<time>2019-06-15T08:34:29.510Z</time>
</trkpt>
<trkpt lat="22.2895039" lon="113.9422237">
<ele>9.089</ele>
<time>2019-06-15T08:34:38.670Z</time>
</trkpt>
<trkpt lat="22.2894603" lon="113.9421310">
<ele>8.599</ele>
<time>2019-06-15T08:34:48.160Z</time>
</trkpt>
<trkpt lat="22.2893656" lon="113.9421098">
<ele>8.471</ele>
<time>2019-06-15T08:34:55.348Z</time>
</trkpt>
<trkpt lat="22.2892738" lon="113.9421033">
<ele>8.369</ele>
<time>2019-06-15T08:35:01.324Z</time>
</trkpt>
<trkpt lat="22.2891720" lon="113.9420934">
<ele>8.052</ele>
<time>2019-06-15T08:35:07.957Z</time>
</trkpt>
<trkpt lat="22.2890728" lon="113.9420740">
<ele>7.514</ele>
<time>2019-06-15T08:35:15.408Z</time>
</trkpt>
<trkpt lat="22.2889847" lon="113.9420440">
<ele>6.896</ele>
<time>2019-06-15T08:35:23.959Z</time>
</trkpt>
<trkpt lat="22.2889242" lon="113.9419647">
<ele>6.146</ele>
<time>2019-06-15T08:35:35.249Z</time>
</trkpt>
<trkpt lat="22.2888153" lon="113.9419277">
<ele>5.295</ele>
<time>2019-06-15T08:35:46.998Z</time>
</trkpt>
<trkpt lat="22.2887131" lon="113.9419173">
<ele>4.697</ele>
<time>2019-06-15T08:35:50.998Z</time>
</trkpt>
</trkseg>
</trk>
<extensions>
<fpdata xmlns="http://www.motionx.com/GPX-Extensions/1/1" sfv="10" origin="MotionXGPSFull 24.4 Build 5112 R64">
<bin enc="base64">
RgIAAAACAAAAh23ZJRhB10EBAAAAAiqQfitB10EAAA6i8JLHQMUGAAC65RYAtO/To55d
JEAuuHUDGP8RQAAAAAAQAAAAVGlnZXIgSGVhZCBIaWtlABYAAABKdW4gMTUsIDIwMTkg
MTE6MDUgYW0AAAAAACwqkH4rQddBRl6fgitB10Hh8M0AedrnCuAUX0AsAAAAAgAAADAd
IogSgVxA1RYEKMxLNkC079Ojnl0kQAAAAAAAACRAAAAAAAAAEEAAAAAAAMB8QAAAAAAA
AAAAAAAAANejcD0K1yZArdUnhZEtFUABAAAAWXASAllIc78BAAAAAQAAAOvnu4pgZMw/
Jp9uj6bkwr8BAAAAAQAAAAkAAABBHbgI6KpVQAAAAAAAAAAAAAAAAAAAAAAAAAAAAAAA
AAAAAAAAAAAAAAAAAAAAAABiXgAACuw/eytB10EAAAAAAAAAAAAAAAAAAAAA/yVEvAIA
AAAAAAAAAAAAAAEAAAAnAAAAMjQuMiBCdWlsZCA1MDYzUjY0LCBNWEFFIDguMSBiLiA2
MjZSNjQAAAAAAFZbAAABAAAAAYQAAACXYARd+a0EXQQNb9klGEHXQQ1v2SUYQddBAAAA
AACIGz8AAAAAApht2SUYQddB7fLDKhhB10EAAABUFaozQAAAAAAChSVFLhhB10EcIoU6
GEHXQQAAAOyBKlFAAAAAAAJoCAU/GEHXQW0dlmQYQddBAACAeMtda0AAAAAAAuj84HMY
QddB4leFnxhB10EAAMB6/Jd4QAAAAAACyToGohhB10FKXoXmGEHXQQAAgK3i24RAAAAA
AALLg0bsGEHXQZIFBgkZQddBAABg5tJziEAAAAAAAvgBRw4ZQddBSkNFNhlB10EAAKAQ
m3ONQAAAAAAChpBFORlB10F644VAGUHXQQAAIG+lW45AAAAAAAK8zwZEGUHXQfN0hUQZ
QddBAAAAFnprjkAAAAAAAoCDhkQZQddB0gEFRRlB10EAAEDgSXuOQAAAAAACqHGFRxlB
10EusEROGUHXQQAAALExU49AAAAAAAK8z8VcGUHXQbjKGn0ZQddBAABAiOiukUAAAAAA
AoWXxpEZQddBuJDVoxlB10EAAHAb2M+SQAAAAAAC2O9EqRlB10GW7IS0GUHXQQAAUOfX
g5NAAAAAAALIKQW2GUHXQdB6m8EZQddBAADQ9zw9lEAAAAAAAtICRsUZQddBPlom4hlB
10EAAJBuQguWQAAAAAACLNXF5xlB10GuYpX/GUHXQQAAsEY7iJdAAAAAAAK+iYZ3GkHX
QR6qRnoaQddBAACwTD20l0AAAAAAAn3MxX0aQddBV9CakhpB10EAAFCKjQGZQAAAAAAC
ECYFlRpB10HMsEWqGkHXQQAAEDaWVZpAAAAAAAL1hIaxGkHXQflKmrIaQddBAABQltJm
mkAAAAAAAqiOxrUaQddBDTaWthpB10EAAKAMzXOaQAAAAAACLv+FuxpB10HIzwXOGkHX
QQAAQBbKm5tAAAAAAAIgC8bRGkHXQdxmRgAbQddBAAAA0s+DnkAAAAAAAixlhQIbQddB
irIFERtB10EAAOCn1GufQAAAAAACPpjFHRtB10HmBQYfG0HXQQAAYILbf59AAAAAAALq
lkYmG0HXQeLmVJ4bQddBAADwQGCAo0AAAAAAAsSXBasbQddB2BEGuhtB10EAAJARZPij
QAAAAAACf2vFvRtB10E+sATBG0HXQQAAiDdeEqRAAAAAAAKkFsXDG0HXQZrNRMUbQddB
AAA471sepEAAAAAAAszvRcgbQddBfPPEyxtB10EAALgMVDqkQAAAAAACtjAHzhtB10GC
HNbOG0HXQQAAGGvLQKRAAAAAAAJ2iYXRG0HXQWqghAwcQddBAAC4IsQYpkAAAAAAApj+
RREcQddBi1KFPxxB10EAAFDCvoqnQAAAAAAC9FPGQhxB10HkvgRFHEHXQQAA0BmynKdA
AAAAAAIY6IZoHEHXQckD2nwcQddBAABY90o/qEAAAAAAAr2pB68cQddBujFFuxxB10EA
AEA3N6GoQAAAAAAC56jF+RxB10FRL4UKHUHXQQAAkGozJ6lAAAAAAALDLMYQHUHXQdsW
RRIdQddBAABQuyozqUAAAAAAAl4Uxy4dQddBvjNVSB1B10EAAFC2m/+pQAAAAAACWkaF
hx1B10GyfYWPHUHXQQAAEHGdP6pAAAAAAALajgaZHUHXQW5OhZ8dQddBAACwbZNzqkAA
AAAAAgzNhaMdQddBJZSUDh5B10EAAHimCcytQAAAAAACYtuGEx5B10E6XcU+HkHXQQAA
OLX9Ja9AAAAAAAJ0KweFHkHXQWwmhaseQddBAAB8xvYssEAAAAAAAl1Qx8EeQddBUmLF
yx5B10EAAFAO71SwQAAAAAACYryG0B5B10GorsXaHkHXQQAAaNfqfbBAAAAAAAJUVEdC
H0HXQRLZRUsfQddBAABg6uShsEAAAAAAAuDdBlIfQddBmmKFZB9B10EAAEj93uuwQAAA
AAACRFCFbh9B10GOOoV3H0HXQQAAcKbeD7FAAAAAAAIZV4WKH0HXQQx6BIsfQddBAAA8
MtsRsUAAAAAAAqX2xY4fQddBmDbFjx9B10EAAAgy2BWxQAAAAAACZ0YEkx9B10Ea4kOU
H0HXQQAA1KDWGrFAAAAAAAKaCwWXH0HXQUa0BK4fQddBAACEQ9V2sUAAAAAAAvyHxrMf
QddBJCsF2R9B10EAACTQzwuyQAAAAAACQn7G3R9B10GygAUTIEHXQQAA5NnL4LJAAAAA
AAK8W8YWIEHXQSk/h0ggQddBAACYZ8+ns0AAAAAAAhBCRk0gQddB/IrETyBB10EAAEiL
yLGzQAAAAAACdsKGdCFB10ETfgaCIUHXQQAAvHnH57NAAAAAAAIe24fXIUHXQdr/Fdkh
QddBAACsDADus0AAAAAAApz7Bd8hQddB7lwF4iFB10EAAPSR/fmzQAAAAAACgNnF5iFB
10G6KwXyIUHXQQAA3Nr6JrRAAAAAAALnOIf6IUHXQVjGBQwiQddBAACgEPVstEAAAAAA
ArxahQ0iQddBRl9EQCJB10EAAMgi8Te1QAAAAAAC6wAFTiJB10Gb5oRQIkHXQQAAiLnw
QbVAAAAAAAKUwsVcIkHXQSCxxWUiQddBAAC4c/BltUAAAAAAAqWEhWgiQddBHAgFdCJB
10EAAJSB7pO1QAAAAAACnkPGdiJB10Hs38SDIkHXQQAAzPLox7VAAAAAAAKMSoaaIkHX
QWqFxaEiQddBAABE3uXktUAAAAAAAnP1RasiQddBrMcFwSJB10EAACgn5Tu2QAAAAAAC
5KRGwiJB10HC4QTjIkHXQQAAoBrevrZAAAAAAAIcIQfnIkHXQWXExfYiQddBAADEp9j9
tkAAAAAAAroQR/kiQddBKqrE/CJB10EAAIQNzwu3QAAAAAACrFaGBCNB10Hf4IYLI0HX
QQAAUDbRJ7dAAAAAAAKmKcYNI0HXQWbeBA8jQddBAABQCcwst0AAAAAAAmR0RREjQddB
6zdGFyNB10EAAGwXz0S3QAAAAAACnBkGGiNB10G4IkYeI0HXQQAA3DvPVbdAAAAAAALs
osUgI0HXQWqnRC0jQddBAADUTcuHt0AAAAAAAtrkxS4jQddB4iCFQyNB10EAAPQ9yNq3
QAAAAAACIedFRiNB10FWZgVVI0HXQQAAyDrGFbhAAAAAAALUgUZeI0HXQYzAjr8jQddB
AACoNeeauUAAAAAAAtSeBcIjQddBTFdK7yNB10EAAIgX+k+6QAAAAAACgh7F8iNB10Gw
qMUKJEHXQQAAQED8r7pAAAAAAAJ878YNJEHXQRiaRV0kQddBAACw6vbtu0AAAAAAAu8c
RmMkQddBmZxRnCRB10EAAFjpJNK8QAAAAAACJpDHYyVB10GE8YSZJUHXQQAA0G4aqb1A
AAAAAAKEvIWeJUHXQce8haklQddBAADcbxrVvUAAAAAAAn4YRsQlQddB5ujFyyVB10EA
AHyxGfO9QAAAAAACVrpGzSVB10GqugXaJUHXQQAAzLIVJr5AAAAAAAInvoXbJUHXQfD+
UvAlQddBAADwtUp5vkAAAAAAApqxRfclQddB/pnFHiZB10EAAIBXShe/QAAAAAAC0JVF
ICZB10HQ8EQhJkHXQQAAgMNHG79AAAAAAAIma8UiJkHXQXBDRUQmQddBAACoJEehv0AA
AAAAAiqmhUYmQddB/BcETCZB10EAAPDrQLe/QAAAAAACkh0GTyZB10F/asZTJkHXQQAA
pB9Cyr9AAAAAAAJTzIVVJkHXQSf4RFsmQddBAAD0zj7hv0AAAAAAAoYcRl0mQddBTMaF
XyZB10EAAAx2Peq/QAAAAAACGNJFYiZB10FQ3sWiJkHXQQAAdtMedsBAAAAAAAIkSMes
JkHXQbEzBTonQddBAACQqpqQwUAAAAAAAlCtxjsnQddBFvbFPCdB10EAABw8mZLBQAAA
AAACgpNGQSdB10GHa8RHJ0HXQQAAJuyUn8FAAAAAAALpm4dKJ0HXQXCbRVEnQddBAAA0
6xCtwUAAAAAAAvYnRlsnQddB3PYEXydB10EAAACJjrTBQAAAAAACbEAGZSdB10GTVUVr
J0HXQQAATrMMwcFAAAAAAAKCG0ZtJ0HXQXQ+BXEnQddBAAAy+YrIwUAAAAAAAsRbhnMn
QddBdQKFiCdB10EAAJRGiPLBQAAAAAAC6rSPjSdB10HPZ03AJ0HXQQAAXqwDWMJAAAAA
AAKyEsXBJ0HXQXbIhcgnQddBAADmF4VlwkAAAAAAAjayIREoQddBQX9EIihB10EAAPyx
yofCQAAAAAACl8gFJShB10EcYgRPKEHXQQAABuXH28JAAAAAAAJFScVRKEHXQXapRVgo
QddBAABopcjowkAAAAAAAvD4hF0oQddBjlkEsyhB10EAAKRmx5PDQAAAAAACEmrGtChB
10HedATUKEHXQQAAPHxD0sNAAAAAAAKC6ITWKEHXQVivheAoQddBAADoCUXmw0AAAAAA
AjfiBhIpQddBBJLEEylB10EAAIJpwOnDQAAAAAAC/IwFFilB10GCj8QhKUHXQQAAjm4+
AcRAAAAAAAKE00UlKUHXQUt1VjQpQddBAAAcsl8fxEAAAAAAAvwbBz8pQddBSUsEhilB
10EAALYQWq3EQAAAAAACCLEEiClB10F2wgSOKUHXQQAAkjNaucRAAAAAAAIIyMWWKUHX
QS17BZkpQddBAADcmdm9xEAAAAAAAi7ExZspQddBoGmExClB10EAAMDkVg/FQAAAAAAC
iDGHyylB10FI/kXOKUHXQQAAQH7UFMVAAAAAAAJ9BAfmKUHXQXh9RAQqQddBAAA2cE9R
xUAAAAAAAvG7hQcqQddBMPUFRCpB10EAALTiT8rFQAAAAAACDOwGRypB10G4k8VMKkHX
QQAADDLN1cVAAAAAAAIwhQaCKkHXQVbuRK8qQddBAABYBEowxkAAAAAAAiBGxbsqQddB
uoVFwCpB10EAAIyDSjnGQAAAAAACgQjGwypB10G0lETHKkHXQQAA8ptHQMZAAAAAAALP
9cXJKkHXQRtIUvkqQddBAACKQGCfxkAAAAAAAi4ixgErQddBpIzEGStB10EAAHYVXc/G
QAAAAAAB3EqGHCtB10EoEVB+K0HXQQAADqLwksdAAAAAAAAAAAA=
</bin>
</fpdata>
</extensions>
</gpx>
